PWSweather.com
Personal Weather Stations
Station Observations
HVALPSUND
Hvalpsund, FarsoeDK 9640

HvalpsundFarsoeDK 9640

Lat: 56.705311, Lon: 9.203638

Elevation: 5

Station Type: Vantage Pro2

http://hvalpsundvejr.dk

High Low Average
Temperature 60.1°F15.6°C 47.9°F8.8°C 54.7°F12.6°C
Dew Point 53.9°F12.2°C 46.5°F8.1°C 50.5°F10.3°C
Winds 10.3 mph 16.6 kmh Calm Calm 3.0 mph S4.8 kmh S
Wind Gusts 12.0 mph19.3 kmh -- 4.0 mph6.4 kmh
Humidity 96% 68% 86%
Pressure 30.01 in1016.3 mb 29.87 in1011.5 mb -
Precipitation 0.01 in0.3 mm - -
Hour Temp Dew Point Humidity Winds Wind Gusts Pressure Precip Precip Rate Daily Precip Total
12:00 AM 52.0°F11.1°C 50.0°F10.0°C 93% 2.1 mph NE3.4 kmh NE 3.0 mph4.8 kmh 29.87 in1011.5 mb 0.00 in0.0 mm 0.00 in0.0 mm 0.00 in0.0 mm
12:01 AM 51.9°F11.1°C 49.9°F9.9°C 93% 2.3 mph NE3.7 kmh NE 3.0 mph4.8 kmh 29.87 in1011.5 mb 0.00 in0.0 mm 0.00 in0.0 mm 0.00 in0.0 mm
12:02 AM 51.8°F11.0°C 49.8°F9.9°C 93% 2.6 mph NE4.2 kmh NE 3.0 mph4.8 kmh 29.87 in1011.5 mb 0.00 in0.0 mm 0.00 in0.0 mm 0.00 in0.0 mm
12:03 AM 51.8°F11.0°C 49.8°F9.9°C 93% 2.5 mph NE4.0 kmh NE 3.0 mph4.8 kmh 29.87 in1011.5 mb 0.00 in0.0 mm 0.00 in0.0 mm 0.00 in0.0 mm
12:04 AM 51.8°F11.0°C 49.8°F9.9°C 93% 2.6 mph NE4.2 kmh NE 3.0 mph4.8 kmh 29.87 in1011.5 mb 0.00 in0.0 mm 0.00 in0.0 mm 0.00 in0.0 mm
12:05 AM 51.7°F10.9°C 49.7°F9.8°C 93% 3.1 mph NE5.0 kmh NE 4.0 mph6.4 kmh 29.87 in1011.5 mb 0.00 in0.0 mm 0.00 in0.0 mm 0.00 in0.0 mm
12:06 AM 51.7°F10.9°C 49.7°F9.8°C 93% 3.1 mph ENE5.0 kmh ENE 4.0 mph6.4 kmh 29.87 in1011.5 mb 0.00 in0.0 mm 0.00 in0.0 mm 0.00 in0.0 mm
12:07 AM 51.6°F10.9°C 49.9°F9.9°C 94% 3.0 mph ENE4.8 kmh ENE 4.0 mph6.4 kmh 29.87 in1011.5 mb 0.00 in0.0 mm 0.00 in0.0 mm 0.00 in0.0 mm
12:08 AM 51.6°F10.9°C 49.9°F9.9°C 94% 2.5 mph ENE4.0 kmh ENE 4.0 mph6.4 kmh 29.87 in1011.5 mb 0.00 in0.0 mm 0.00 in0.0 mm 0.00 in0.0 mm
12:09 AM 51.6°F10.9°C 49.9°F9.9°C 94% 2.6 mph ENE4.2 kmh ENE 4.0 mph6.4 kmh 29.87 in1011.5 mb 0.00 in0.0 mm 0.00 in0.0 mm 0.00 in0.0 mm
12:10 AM 51.5°F10.8°C 49.8°F9.9°C 94% 2.4 mph ENE3.9 kmh ENE 3.0 mph4.8 kmh 29.87 in1011.5 mb 0.00 in0.0 mm 0.00 in0.0 mm 0.00 in0.0 mm
12:11 AM 51.6°F10.9°C 49.9°F9.9°C 94% 2.4 mph ENE3.9 kmh ENE 3.0 mph4.8 kmh 29.87 in1011.5 mb 0.00 in0.0 mm 0.00 in0.0 mm 0.00 in0.0 mm
12:12 AM 51.5°F10.8°C 49.8°F9.9°C 94% 2.3 mph ENE3.7 kmh ENE 3.0 mph4.8 kmh 29.87 in1011.5 mb 0.00 in0.0 mm 0.00 in0.0 mm 0.00 in0.0 mm
12:13 AM 51.5°F10.8°C 49.8°F9.9°C 94% 2.4 mph ENE3.9 kmh ENE 3.0 mph4.8 kmh 29.87 in1011.5 mb 0.00 in0.0 mm 0.00 in0.0 mm 0.00 in0.0 mm
12:14 AM 51.5°F10.8°C 49.8°F9.9°C 94% 2.9 mph ENE4.7 kmh ENE 3.0 mph4.8 kmh 29.87 in1011.5 mb 0.00 in0.0 mm 0.00 in0.0 mm 0.00 in0.0 mm
12:15 AM 51.4°F10.8°C 49.7°F9.8°C 94% 2.9 mph ENE4.7 kmh ENE 4.0 mph6.4 kmh 29.87 in1011.5 mb 0.00 in0.0 mm 0.00 in0.0 mm 0.00 in0.0 mm
12:16 AM 51.4°F10.8°C 49.7°F9.8°C 94% 2.5 mph ENE4.0 kmh ENE 4.0 mph6.4 kmh 29.87 in1011.5 mb 0.00 in0.0 mm 0.00 in0.0 mm 0.00 in0.0 mm
12:17 AM 51.4°F10.8°C 49.7°F9.8°C 94% 3.0 mph ENE4.8 kmh ENE 4.0 mph6.4 kmh 29.87 in1011.5 mb 0.00 in0.0 mm 0.00 in0.0 mm 0.00 in0.0 mm
12:18 AM 51.4°F10.8°C 49.7°F9.8°C 94% 2.5 mph ENE4.0 kmh ENE 4.0 mph6.4 kmh 29.87 in1011.5 mb 0.00 in0.0 mm 0.00 in0.0 mm 0.00 in0.0 mm
12:19 AM 51.4°F10.8°C 49.7°F9.8°C 94% 2.7 mph ENE4.3 kmh ENE 4.0 mph6.4 kmh 29.87 in1011.5 mb 0.00 in0.0 mm 0.00 in0.0 mm 0.00 in0.0 mm
12:20 AM 51.4°F10.8°C 49.7°F9.8°C 94% 2.6 mph NE4.2 kmh NE 4.0 mph6.4 kmh 29.87 in1011.5 mb 0.00 in0.0 mm 0.00 in0.0 mm 0.00 in0.0 mm
12:21 AM 51.3°F10.7°C 49.6°F9.8°C 94% 2.9 mph NE4.7 kmh NE 4.0 mph6.4 kmh 29.87 in1011.5 mb 0.00 in0.0 mm 0.00 in0.0 mm 0.00 in0.0 mm
12:22 AM 51.4°F10.8°C 49.7°F9.8°C 94% 3.1 mph NE5.0 kmh NE 4.0 mph6.4 kmh 29.87 in1011.5 mb 0.00 in0.0 mm 0.00 in0.0 mm 0.00 in0.0 mm
12:23 AM 51.4°F10.8°C 49.7°F9.8°C 94% 2.6 mph NE4.2 kmh NE 4.0 mph6.4 kmh 29.87 in1011.5 mb 0.00 in0.0 mm 0.00 in0.0 mm 0.00 in0.0 mm
12:24 AM 51.4°F10.8°C 49.7°F9.8°C 94% 3.1 mph NE5.0 kmh NE 4.0 mph6.4 kmh 29.87 in1011.5 mb 0.00 in0.0 mm 0.00 in0.0 mm 0.00 in0.0 mm
12:25 AM 51.4°F10.8°C 49.7°F9.8°C 94% 3.1 mph NE5.0 kmh NE 4.0 mph6.4 kmh 29.87 in1011.5 mb 0.00 in0.0 mm 0.00 in0.0 mm 0.00 in0.0 mm
12:26 AM 51.4°F10.8°C 49.7°F9.8°C 94% 3.2 mph NE5.1 kmh NE 4.0 mph6.4 kmh 29.87 in1011.5 mb 0.00 in0.0 mm 0.00 in0.0 mm 0.00 in0.0 mm
12:27 AM 51.3°F10.7°C 49.6°F9.8°C 94% 3.1 mph NE5.0 kmh NE 4.0 mph6.4 kmh 29.87 in1011.5 mb 0.00 in0.0 mm 0.00 in0.0 mm 0.00 in0.0 mm
12:28 AM 51.4°F10.8°C 49.7°F9.8°C 94% 3.0 mph NE4.8 kmh NE 4.0 mph6.4 kmh 29.87 in1011.5 mb 0.00 in0.0 mm 0.00 in0.0 mm 0.00 in0.0 mm
12:29 AM 51.4°F10.8°C 49.7°F9.8°C 94% 2.6 mph NE4.2 kmh NE 4.0 mph6.4 kmh 29.87 in1011.5 mb 0.00 in0.0 mm 0.00 in0.0 mm 0.00 in0.0 mm
12:30 AM 51.3°F10.7°C 49.6°F9.8°C 94% 3.0 mph NE4.8 kmh NE 4.0 mph6.4 kmh 29.87 in1011.5 mb 0.00 in0.0 mm 0.00 in0.0 mm 0.00 in0.0 mm
12:31 AM 51.3°F10.7°C 49.6°F9.8°C 94% 3.4 mph NE5.5 kmh NE 4.0 mph6.4 kmh 29.87 in1011.5 mb 0.00 in0.0 mm 0.00 in0.0 mm 0.00 in0.0 mm
12:32 AM 51.4°F10.8°C 49.7°F9.8°C 94% 3.5 mph NE5.6 kmh NE 4.0 mph6.4 kmh 29.87 in1011.5 mb 0.00 in0.0 mm 0.00 in0.0 mm 0.00 in0.0 mm
12:33 AM 51.4°F10.8°C 49.7°F9.8°C 94% 3.0 mph NE4.8 kmh NE 4.0 mph6.4 kmh 29.87 in1011.5 mb 0.00 in0.0 mm 0.00 in0.0 mm 0.00 in0.0 mm
12:34 AM 51.3°F10.7°C 49.6°F9.8°C 94% 3.2 mph NE5.1 kmh NE 4.0 mph6.4 kmh 29.87 in1011.5 mb 0.00 in0.0 mm 0.00 in0.0 mm 0.00 in0.0 mm
12:35 AM 51.3°F10.7°C 49.6°F9.8°C 94% 3.0 mph NE4.8 kmh NE 4.0 mph6.4 kmh 29.87 in1011.5 mb 0.00 in0.0 mm 0.00 in0.0 mm 0.00 in0.0 mm
12:36 AM 51.3°F10.7°C 49.6°F9.8°C 94% 2.8 mph NE4.5 kmh NE 4.0 mph6.4 kmh 29.87 in1011.5 mb 0.00 in0.0 mm 0.00 in0.0 mm 0.00 in0.0 mm
12:37 AM 51.3°F10.7°C 49.6°F9.8°C 94% 2.2 mph NE3.5 kmh NE 3.0 mph4.8 kmh 29.87 in1011.5 mb 0.00 in0.0 mm 0.00 in0.0 mm 0.00 in0.0 mm
12:38 AM 51.3°F10.7°C 49.6°F9.8°C 94% 2.8 mph NE4.5 kmh NE 4.0 mph6.4 kmh 29.87 in1011.5 mb 0.00 in0.0 mm 0.00 in0.0 mm 0.00 in0.0 mm
12:39 AM 51.3°F10.7°C 49.6°F9.8°C 94% 2.5 mph NE4.0 kmh NE 4.0 mph6.4 kmh 29.87 in1011.5 mb 0.00 in0.0 mm 0.00 in0.0 mm 0.00 in0.0 mm
12:40 AM 51.2°F10.7°C 49.5°F9.7°C 94% 2.4 mph NE3.9 kmh NE 3.0 mph4.8 kmh 29.87 in1011.5 mb 0.00 in0.0 mm 0.00 in0.0 mm 0.00 in0.0 mm
12:41 AM 51.3°F10.7°C 49.6°F9.8°C 94% 2.6 mph NE4.2 kmh NE 3.0 mph4.8 kmh 29.87 in1011.5 mb 0.00 in0.0 mm 0.00 in0.0 mm 0.00 in0.0 mm
12:42 AM 51.2°F10.7°C 49.5°F9.7°C 94% 2.8 mph NE4.5 kmh NE 4.0 mph6.4 kmh 29.87 in1011.5 mb 0.00 in0.0 mm 0.00 in0.0 mm 0.00 in0.0 mm
12:43 AM 51.3°F10.7°C 49.6°F9.8°C 94% 2.9 mph NE4.7 kmh NE 4.0 mph6.4 kmh 29.87 in1011.5 mb 0.00 in0.0 mm 0.00 in0.0 mm 0.00 in0.0 mm
12:44 AM 51.2°F10.7°C 49.5°F9.7°C 94% 2.9 mph NE4.7 kmh NE 4.0 mph6.4 kmh 29.87 in1011.5 mb 0.00 in0.0 mm 0.00 in0.0 mm 0.00 in0.0 mm
12:45 AM 51.2°F10.7°C 49.5°F9.7°C 94% 3.1 mph NE5.0 kmh NE 4.0 mph6.4 kmh 29.87 in1011.5 mb 0.00 in0.0 mm 0.00 in0.0 mm 0.00 in0.0 mm
12:46 AM 51.2°F10.7°C 49.5°F9.7°C 94% 2.8 mph NE4.5 kmh NE 4.0 mph6.4 kmh 29.87 in1011.5 mb 0.00 in0.0 mm 0.00 in0.0 mm 0.00 in0.0 mm
12:47 AM 51.2°F10.7°C 49.5°F9.7°C 94% 3.0 mph NE4.8 kmh NE 4.0 mph6.4 kmh 29.87 in1011.5 mb 0.00 in0.0 mm 0.00 in0.0 mm 0.00 in0.0 mm
12:48 AM 51.3°F10.7°C 49.6°F9.8°C 94% 3.1 mph NE5.0 kmh NE 4.0 mph6.4 kmh 29.87 in1011.5 mb 0.00 in0.0 mm 0.00 in0.0 mm 0.00 in0.0 mm
12:49 AM 51.3°F10.7°C 49.6°F9.8°C 94% 2.3 mph NE3.7 kmh NE 4.0 mph6.4 kmh 29.87 in1011.5 mb 0.00 in0.0 mm 0.00 in0.0 mm 0.00 in0.0 mm
12:50 AM 51.2°F10.7°C 49.5°F9.7°C 94% 2.7 mph NE4.3 kmh NE 3.0 mph4.8 kmh 29.87 in1011.5 mb 0.00 in0.0 mm 0.00 in0.0 mm 0.00 in0.0 mm
12:51 AM 51.3°F10.7°C 49.6°F9.8°C 94% 2.6 mph NE4.2 kmh NE 3.0 mph4.8 kmh 29.87 in1011.5 mb 0.00 in0.0 mm 0.00 in0.0 mm 0.00 in0.0 mm
12:52 AM 51.2°F10.7°C 49.5°F9.7°C 94% 2.9 mph NE4.7 kmh NE 4.0 mph6.4 kmh 29.87 in1011.5 mb 0.00 in0.0 mm 0.00 in0.0 mm 0.00 in0.0 mm
12:53 AM 51.3°F10.7°C 49.6°F9.8°C 94% 2.8 mph NE4.5 kmh NE 4.0 mph6.4 kmh 29.87 in1011.5 mb 0.00 in0.0 mm 0.00 in0.0 mm 0.00 in0.0 mm
12:54 AM 51.2°F10.7°C 49.5°F9.7°C 94% 2.5 mph NE4.0 kmh NE 4.0 mph6.4 kmh 29.87 in1011.5 mb 0.00 in0.0 mm 0.00 in0.0 mm 0.00 in0.0 mm
12:55 AM 51.2°F10.7°C 49.5°F9.7°C 94% 2.4 mph NE3.9 kmh NE 4.0 mph6.4 kmh 29.87 in1011.5 mb 0.00 in0.0 mm 0.00 in0.0 mm 0.00 in0.0 mm
12:56 AM 51.3°F10.7°C 49.6°F9.8°C 94% 2.4 mph NE3.9 kmh NE 4.0 mph6.4 kmh 29.87 in1011.5 mb 0.00 in0.0 mm 0.00 in0.0 mm 0.00 in0.0 mm
12:57 AM 51.3°F10.7°C 49.6°F9.8°C 94% 2.6 mph NE4.2 kmh NE 4.0 mph6.4 kmh 29.87 in1011.5 mb 0.00 in0.0 mm 0.00 in0.0 mm 0.00 in0.0 mm
12:58 AM 51.3°F10.7°C 49.6°F9.8°C 94% 2.4 mph NE3.9 kmh NE 4.0 mph6.4 kmh 29.87 in1011.5 mb 0.00 in0.0 mm 0.00 in0.0 mm 0.00 in0.0 mm
12:59 AM 51.3°F10.7°C 49.6°F9.8°C 94% 2.9 mph NE4.7 kmh NE 4.0 mph6.4 kmh 29.87 in1011.5 mb 0.00 in0.0 mm 0.00 in0.0 mm 0.00 in0.0 mm
01:00 AM 51.3°F10.7°C 49.6°F9.8°C 94% 2.4 mph NE3.9 kmh NE 4.0 mph6.4 kmh 29.87 in1011.5 mb 0.00 in0.0 mm 0.00 in0.0 mm 0.00 in0.0 mm
01:01 AM 51.3°F10.7°C 49.6°F9.8°C 94% 2.5 mph NE4.0 kmh NE 4.0 mph6.4 kmh 29.87 in1011.5 mb 0.00 in0.0 mm 0.00 in0.0 mm 0.00 in0.0 mm
01:02 AM 51.3°F10.7°C 49.6°F9.8°C 94% 2.5 mph NE4.0 kmh NE 3.0 mph4.8 kmh 29.87 in1011.5 mb 0.00 in0.0 mm 0.00 in0.0 mm 0.00 in0.0 mm
01:03 AM 51.3°F10.7°C 49.6°F9.8°C 94% 2.2 mph NE3.5 kmh NE 3.0 mph4.8 kmh 29.87 in1011.5 mb 0.00 in0.0 mm 0.00 in0.0 mm 0.00 in0.0 mm
01:04 AM 51.3°F10.7°C 49.6°F9.8°C 94% 2.3 mph NE3.7 kmh NE 3.0 mph4.8 kmh 29.87 in1011.5 mb 0.00 in0.0 mm 0.00 in0.0 mm 0.00 in0.0 mm
01:05 AM 51.3°F10.7°C 49.6°F9.8°C 94% 2.7 mph NE4.3 kmh NE 3.0 mph4.8 kmh 29.88 in1011.9 mb 0.00 in0.0 mm 0.00 in0.0 mm 0.00 in0.0 mm
01:06 AM 51.3°F10.7°C 49.6°F9.8°C 94% 2.1 mph NE3.4 kmh NE 3.0 mph4.8 kmh 29.87 in1011.5 mb 0.00 in0.0 mm 0.00 in0.0 mm 0.00 in0.0 mm
01:07 AM 51.3°F10.7°C 49.6°F9.8°C 94% 2.5 mph NE4.0 kmh NE 3.0 mph4.8 kmh 29.88 in1011.9 mb 0.00 in0.0 mm 0.00 in0.0 mm 0.00 in0.0 mm
01:08 AM 51.3°F10.7°C 49.6°F9.8°C 94% 2.3 mph NE3.7 kmh NE 3.0 mph4.8 kmh 29.87 in1011.5 mb 0.00 in0.0 mm 0.00 in0.0 mm 0.00 in0.0 mm
01:09 AM 51.3°F10.7°C 49.6°F9.8°C 94% 2.2 mph NE3.5 kmh NE 3.0 mph4.8 kmh 29.88 in1011.9 mb 0.00 in0.0 mm 0.00 in0.0 mm 0.00 in0.0 mm
01:10 AM 51.3°F10.7°C 49.6°F9.8°C 94% 2.4 mph NE3.9 kmh NE 3.0 mph4.8 kmh 29.88 in1011.9 mb 0.00 in0.0 mm 0.00 in0.0 mm 0.00 in0.0 mm
01:11 AM 51.3°F10.7°C 49.6°F9.8°C 94% 2.1 mph NE3.4 kmh NE 3.0 mph4.8 kmh 29.88 in1011.9 mb 0.00 in0.0 mm 0.00 in0.0 mm 0.00 in0.0 mm
01:12 AM 51.3°F10.7°C 49.6°F9.8°C 94% 1.8 mph NE2.9 kmh NE 3.0 mph4.8 kmh 29.87 in1011.5 mb 0.00 in0.0 mm 0.00 in0.0 mm 0.00 in0.0 mm
01:13 AM 51.3°F10.7°C 49.6°F9.8°C 94% 1.4 mph NE2.3 kmh NE 3.0 mph4.8 kmh 29.88 in1011.9 mb 0.00 in0.0 mm 0.00 in0.0 mm 0.00 in0.0 mm
01:14 AM 51.3°F10.7°C 49.6°F9.8°C 94% 1.2 mph NE1.9 kmh NE 2.0 mph3.2 kmh 29.87 in1011.5 mb 0.00 in0.0 mm 0.00 in0.0 mm 0.00 in0.0 mm
01:15 AM 51.2°F10.7°C 49.5°F9.7°C 94% 0.9 mph NE1.4 kmh NE 2.0 mph3.2 kmh 29.88 in1011.9 mb 0.00 in0.0 mm 0.00 in0.0 mm 0.00 in0.0 mm
01:16 AM 51.2°F10.7°C 49.5°F9.7°C 94% 1.3 mph NE2.1 kmh NE 2.0 mph3.2 kmh 29.87 in1011.5 mb 0.00 in0.0 mm 0.00 in0.0 mm 0.00 in0.0 mm
01:17 AM 51.3°F10.7°C 49.6°F9.8°C 94% 1.0 mph NE1.6 kmh NE 2.0 mph3.2 kmh 29.87 in1011.5 mb 0.00 in0.0 mm 0.00 in0.0 mm 0.00 in0.0 mm
01:18 AM 51.3°F10.7°C 49.6°F9.8°C 94% 1.3 mph NE2.1 kmh NE 2.0 mph3.2 kmh 29.87 in1011.5 mb 0.00 in0.0 mm 0.00 in0.0 mm 0.00 in0.0 mm
01:19 AM 51.3°F10.7°C 49.6°F9.8°C 94% 1.6 mph NE2.6 kmh NE 2.0 mph3.2 kmh 29.88 in1011.9 mb 0.00 in0.0 mm 0.00 in0.0 mm 0.00 in0.0 mm
01:20 AM 51.3°F10.7°C 49.6°F9.8°C 94% 1.7 mph NE2.7 kmh NE 2.0 mph3.2 kmh 29.87 in1011.5 mb 0.00 in0.0 mm 0.00 in0.0 mm 0.00 in0.0 mm
01:21 AM 51.3°F10.7°C 49.6°F9.8°C 94% 2.0 mph NE3.2 kmh NE 2.0 mph3.2 kmh 29.87 in1011.5 mb 0.00 in0.0 mm 0.00 in0.0 mm 0.00 in0.0 mm
01:22 AM 51.3°F10.7°C 49.6°F9.8°C 94% 2.2 mph NE3.5 kmh NE 3.0 mph4.8 kmh 29.87 in1011.5 mb 0.00 in0.0 mm 0.00 in0.0 mm 0.00 in0.0 mm
01:23 AM 51.3°F10.7°C 49.6°F9.8°C 94% 1.6 mph NE2.6 kmh NE 3.0 mph4.8 kmh 29.87 in1011.5 mb 0.00 in0.0 mm 0.00 in0.0 mm 0.00 in0.0 mm
01:24 AM 51.3°F10.7°C 49.6°F9.8°C 94% 2.2 mph NE3.5 kmh NE 3.0 mph4.8 kmh 29.87 in1011.5 mb 0.00 in0.0 mm 0.00 in0.0 mm 0.00 in0.0 mm
01:25 AM 51.3°F10.7°C 49.6°F9.8°C 94% 2.3 mph NE3.7 kmh NE 3.0 mph4.8 kmh 29.87 in1011.5 mb 0.00 in0.0 mm 0.00 in0.0 mm 0.00 in0.0 mm
01:26 AM 51.3°F10.7°C 49.6°F9.8°C 94% 2.5 mph NE4.0 kmh NE 3.0 mph4.8 kmh 29.87 in1011.5 mb 0.00 in0.0 mm 0.00 in0.0 mm 0.00 in0.0 mm
01:27 AM 51.3°F10.7°C 49.6°F9.8°C 94% 2.7 mph NE4.3 kmh NE 3.0 mph4.8 kmh 29.87 in1011.5 mb 0.00 in0.0 mm 0.00 in0.0 mm 0.00 in0.0 mm
01:28 AM 51.3°F10.7°C 49.6°F9.8°C 94% 2.0 mph NE3.2 kmh NE 3.0 mph4.8 kmh 29.87 in1011.5 mb 0.00 in0.0 mm 0.00 in0.0 mm 0.00 in0.0 mm
01:29 AM 51.3°F10.7°C 49.6°F9.8°C 94% 2.5 mph NE4.0 kmh NE 3.0 mph4.8 kmh 29.87 in1011.5 mb 0.00 in0.0 mm 0.00 in0.0 mm 0.00 in0.0 mm
01:30 AM 51.2°F10.7°C 49.5°F9.7°C 94% 2.3 mph NE3.7 kmh NE 3.0 mph4.8 kmh 29.87 in1011.5 mb 0.00 in0.0 mm 0.00 in0.0 mm 0.00 in0.0 mm
01:31 AM 51.3°F10.7°C 49.6°F9.8°C 94% 2.8 mph NE4.5 kmh NE 3.0 mph4.8 kmh 29.87 in1011.5 mb 0.00 in0.0 mm 0.00 in0.0 mm 0.00 in0.0 mm
01:32 AM 51.2°F10.7°C 49.5°F9.7°C 94% 2.2 mph NE3.5 kmh NE 3.0 mph4.8 kmh 29.87 in1011.5 mb 0.00 in0.0 mm 0.00 in0.0 mm 0.00 in0.0 mm
01:33 AM 51.2°F10.7°C 49.5°F9.7°C 94% 2.3 mph NE3.7 kmh NE 3.0 mph4.8 kmh 29.87 in1011.5 mb 0.00 in0.0 mm 0.00 in0.0 mm 0.00 in0.0 mm
01:34 AM 51.2°F10.7°C 49.5°F9.7°C 94% 2.1 mph NE3.4 kmh NE 3.0 mph4.8 kmh 29.87 in1011.5 mb 0.00 in0.0 mm 0.00 in0.0 mm 0.00 in0.0 mm
01:35 AM 51.2°F10.7°C 49.5°F9.7°C 94% 2.3 mph NE3.7 kmh NE 3.0 mph4.8 kmh 29.87 in1011.5 mb 0.00 in0.0 mm 0.00 in0.0 mm 0.00 in0.0 mm
01:36 AM 51.2°F10.7°C 49.5°F9.7°C 94% 2.4 mph NE3.9 kmh NE 3.0 mph4.8 kmh 29.87 in1011.5 mb 0.00 in0.0 mm 0.00 in0.0 mm 0.00 in0.0 mm
01:37 AM 51.2°F10.7°C 49.5°F9.7°C 94% 2.1 mph NE3.4 kmh NE 3.0 mph4.8 kmh 29.87 in1011.5 mb 0.00 in0.0 mm 0.00 in0.0 mm 0.00 in0.0 mm
01:38 AM 51.2°F10.7°C 49.5°F9.7°C 94% 2.2 mph NE3.5 kmh NE 3.0 mph4.8 kmh 29.87 in1011.5 mb 0.00 in0.0 mm 0.00 in0.0 mm 0.00 in0.0 mm
01:39 AM 51.1°F10.6°C 49.4°F9.7°C 94% 1.8 mph NE2.9 kmh NE 3.0 mph4.8 kmh 29.87 in1011.5 mb 0.00 in0.0 mm 0.00 in0.0 mm 0.00 in0.0 mm
01:40 AM 51.1°F10.6°C 49.4°F9.7°C 94% 2.1 mph NE3.4 kmh NE 3.0 mph4.8 kmh 29.87 in1011.5 mb 0.00 in0.0 mm 0.00 in0.0 mm 0.00 in0.0 mm
01:41 AM 51.1°F10.6°C 49.4°F9.7°C 94% 2.5 mph NE4.0 kmh NE 3.0 mph4.8 kmh 29.87 in1011.5 mb 0.00 in0.0 mm 0.00 in0.0 mm 0.00 in0.0 mm
01:42 AM 51.1°F10.6°C 49.4°F9.7°C 94% 2.3 mph NE3.7 kmh NE 3.0 mph4.8 kmh 29.87 in1011.5 mb 0.00 in0.0 mm 0.00 in0.0 mm 0.00 in0.0 mm
01:43 AM 51.0°F10.6°C 49.3°F9.6°C 94% 2.3 mph NE3.7 kmh NE 3.0 mph4.8 kmh 29.87 in1011.5 mb 0.00 in0.0 mm 0.00 in0.0 mm 0.00 in0.0 mm
01:44 AM 51.0°F10.6°C 49.3°F9.6°C 94% 2.3 mph NE3.7 kmh NE 3.0 mph4.8 kmh 29.87 in1011.5 mb 0.00 in0.0 mm 0.00 in0.0 mm 0.00 in0.0 mm
01:45 AM 51.0°F10.6°C 49.3°F9.6°C 94% 2.2 mph NE3.5 kmh NE 3.0 mph4.8 kmh 29.87 in1011.5 mb 0.00 in0.0 mm 0.00 in0.0 mm 0.00 in0.0 mm
01:46 AM 51.0°F10.6°C 49.3°F9.6°C 94% 1.8 mph NE2.9 kmh NE 3.0 mph4.8 kmh 29.87 in1011.5 mb 0.00 in0.0 mm 0.00 in0.0 mm 0.00 in0.0 mm
01:47 AM 51.0°F10.6°C 49.3°F9.6°C 94% 1.4 mph NE2.3 kmh NE 2.0 mph3.2 kmh 29.87 in1011.5 mb 0.00 in0.0 mm 0.00 in0.0 mm 0.00 in0.0 mm
01:48 AM 50.9°F10.5°C 49.2°F9.6°C 94% 1.8 mph NE2.9 kmh NE 3.0 mph4.8 kmh 29.87 in1011.5 mb 0.00 in0.0 mm 0.00 in0.0 mm 0.00 in0.0 mm
01:49 AM 50.9°F10.5°C 49.2°F9.6°C 94% 2.4 mph NE3.9 kmh NE 3.0 mph4.8 kmh 29.88 in1011.9 mb 0.00 in0.0 mm 0.00 in0.0 mm 0.00 in0.0 mm
01:50 AM 50.9°F10.5°C 49.2°F9.6°C 94% 3.1 mph NE5.0 kmh NE 4.0 mph6.4 kmh 29.88 in1011.9 mb 0.00 in0.0 mm 0.00 in0.0 mm 0.00 in0.0 mm
01:51 AM 50.8°F10.4°C 49.1°F9.5°C 94% 3.3 mph NE5.3 kmh NE 4.0 mph6.4 kmh 29.88 in1011.9 mb 0.00 in0.0 mm 0.00 in0.0 mm 0.00 in0.0 mm
01:52 AM 50.8°F10.4°C 49.1°F9.5°C 94% 3.5 mph NE5.6 kmh NE 4.0 mph6.4 kmh 29.88 in1011.9 mb 0.00 in0.0 mm 0.00 in0.0 mm 0.00 in0.0 mm
01:53 AM 50.8°F10.4°C 49.1°F9.5°C 94% 2.7 mph NE4.3 kmh NE 4.0 mph6.4 kmh 29.88 in1011.9 mb 0.00 in0.0 mm 0.00 in0.0 mm 0.00 in0.0 mm
01:54 AM 50.7°F10.4°C 49.0°F9.4°C 94% 2.4 mph NE3.9 kmh NE 4.0 mph6.4 kmh 29.88 in1011.9 mb 0.00 in0.0 mm 0.00 in0.0 mm 0.00 in0.0 mm
01:55 AM 50.7°F10.4°C 49.0°F9.4°C 94% 2.6 mph NE4.2 kmh NE 4.0 mph6.4 kmh 29.88 in1011.9 mb 0.00 in0.0 mm 0.00 in0.0 mm 0.00 in0.0 mm
01:56 AM 50.7°F10.4°C 49.0°F9.4°C 94% 3.4 mph NE5.5 kmh NE 4.0 mph6.4 kmh 29.88 in1011.9 mb 0.00 in0.0 mm 0.00 in0.0 mm 0.00 in0.0 mm
01:57 AM 50.7°F10.4°C 49.0°F9.4°C 94% 3.3 mph NE5.3 kmh NE 5.0 mph8.0 kmh 29.88 in1011.9 mb 0.00 in0.0 mm 0.00 in0.0 mm 0.00 in0.0 mm
01:58 AM 50.7°F10.4°C 49.0°F9.4°C 94% 3.3 mph NE5.3 kmh NE 5.0 mph8.0 kmh 29.88 in1011.9 mb 0.00 in0.0 mm 0.00 in0.0 mm 0.00 in0.0 mm
01:59 AM 50.7°F10.4°C 49.0°F9.4°C 94% 3.4 mph NE5.5 kmh NE 4.0 mph6.4 kmh 29.88 in1011.9 mb 0.00 in0.0 mm 0.00 in0.0 mm 0.00 in0.0 mm
02:00 AM 50.6°F10.3°C 48.9°F9.4°C 94% 3.8 mph NE6.1 kmh NE 5.0 mph8.0 kmh 29.88 in1011.9 mb 0.00 in0.0 mm 0.00 in0.0 mm 0.00 in0.0 mm
02:01 AM 50.6°F10.3°C 48.9°F9.4°C 94% 2.8 mph NE4.5 kmh NE 5.0 mph8.0 kmh 29.88 in1011.9 mb 0.00 in0.0 mm 0.00 in0.0 mm 0.00 in0.0 mm
02:02 AM 50.6°F10.3°C 48.9°F9.4°C 94% 2.5 mph NE4.0 kmh NE 5.0 mph8.0 kmh 29.88 in1011.9 mb 0.00 in0.0 mm 0.00 in0.0 mm 0.00 in0.0 mm
02:03 AM 50.6°F10.3°C 48.9°F9.4°C 94% 3.2 mph NE5.1 kmh NE 5.0 mph8.0 kmh 29.88 in1011.9 mb 0.00 in0.0 mm 0.00 in0.0 mm 0.00 in0.0 mm
02:04 AM 50.6°F10.3°C 48.9°F9.4°C 94% 2.2 mph NE3.5 kmh NE 4.0 mph6.4 kmh 29.88 in1011.9 mb 0.00 in0.0 mm 0.00 in0.0 mm 0.00 in0.0 mm
02:05 AM 50.5°F10.3°C 48.8°F9.3°C 94% 2.4 mph NE3.9 kmh NE 4.0 mph6.4 kmh 29.88 in1011.9 mb 0.00 in0.0 mm 0.00 in0.0 mm 0.00 in0.0 mm
02:06 AM 50.5°F10.3°C 48.8°F9.3°C 94% 1.7 mph NE2.7 kmh NE 3.0 mph4.8 kmh 29.88 in1011.9 mb 0.00 in0.0 mm 0.00 in0.0 mm 0.00 in0.0 mm
02:07 AM 50.5°F10.3°C 48.8°F9.3°C 94% 1.2 mph NE1.9 kmh NE 2.0 mph3.2 kmh 29.88 in1011.9 mb 0.00 in0.0 mm 0.00 in0.0 mm 0.00 in0.0 mm
02:08 AM 50.5°F10.3°C 48.8°F9.3°C 94% 1.2 mph NE1.9 kmh NE 2.0 mph3.2 kmh 29.88 in1011.9 mb 0.00 in0.0 mm 0.00 in0.0 mm 0.00 in0.0 mm
02:09 AM 50.5°F10.3°C 48.8°F9.3°C 94% 1.2 mph NE1.9 kmh NE 2.0 mph3.2 kmh 29.88 in1011.9 mb 0.00 in0.0 mm 0.00 in0.0 mm 0.00 in0.0 mm
02:10 AM 50.4°F10.2°C 48.7°F9.3°C 94% 0.9 mph NE1.4 kmh NE 2.0 mph3.2 kmh 29.88 in1011.9 mb 0.00 in0.0 mm 0.00 in0.0 mm 0.00 in0.0 mm
02:11 AM 50.4°F10.2°C 48.7°F9.3°C 94% 1.1 mph NE1.8 kmh NE 2.0 mph3.2 kmh 29.88 in1011.9 mb 0.00 in0.0 mm 0.00 in0.0 mm 0.00 in0.0 mm
02:12 AM 50.4°F10.2°C 48.7°F9.3°C 94% 0.9 mph NE1.4 kmh NE 2.0 mph3.2 kmh 29.88 in1011.9 mb 0.00 in0.0 mm 0.00 in0.0 mm 0.00 in0.0 mm
02:13 AM 50.4°F10.2°C 48.7°F9.3°C 94% 1.0 mph NE1.6 kmh NE 2.0 mph3.2 kmh 29.88 in1011.9 mb 0.00 in0.0 mm 0.00 in0.0 mm 0.00 in0.0 mm
02:14 AM 50.4°F10.2°C 48.7°F9.3°C 94% 0.9 mph NE1.4 kmh NE 2.0 mph3.2 kmh 29.88 in1011.9 mb 0.00 in0.0 mm 0.00 in0.0 mm 0.00 in0.0 mm
02:15 AM 50.3°F10.2°C 48.6°F9.2°C 94% 0.9 mph NE1.4 kmh NE 2.0 mph3.2 kmh 29.88 in1011.9 mb 0.00 in0.0 mm 0.00 in0.0 mm 0.00 in0.0 mm
02:16 AM 50.3°F10.2°C 48.6°F9.2°C 94% 0.9 mph NE1.4 kmh NE 2.0 mph3.2 kmh 29.88 in1011.9 mb 0.00 in0.0 mm 0.00 in0.0 mm 0.00 in0.0 mm
02:17 AM 50.3°F10.2°C 48.6°F9.2°C 94% 0.1 mph NE0.2 kmh NE 2.0 mph3.2 kmh 29.88 in1011.9 mb 0.00 in0.0 mm 0.00 in0.0 mm 0.00 in0.0 mm
02:18 AM 50.2°F10.1°C 48.5°F9.2°C 94% Calm Calm 1.0 mph1.6 kmh 29.88 in1011.9 mb 0.00 in0.0 mm 0.00 in0.0 mm 0.00 in0.0 mm
02:19 AM 50.2°F10.1°C 48.5°F9.2°C 94% 0.5 mph NE0.8 kmh NE 1.0 mph1.6 kmh 29.88 in1011.9 mb 0.00 in0.0 mm 0.00 in0.0 mm 0.00 in0.0 mm
02:20 AM 50.2°F10.1°C 48.5°F9.2°C 94% 0.6 mph NE1.0 kmh NE 2.0 mph3.2 kmh 29.88 in1011.9 mb 0.00 in0.0 mm 0.00 in0.0 mm 0.00 in0.0 mm
02:21 AM 50.1°F10.1°C 48.4°F9.1°C 94% 1.1 mph NE1.8 kmh NE 2.0 mph3.2 kmh 29.88 in1011.9 mb 0.00 in0.0 mm 0.00 in0.0 mm 0.00 in0.0 mm
02:22 AM 50.1°F10.1°C 48.4°F9.1°C 94% 1.2 mph NE1.9 kmh NE 2.0 mph3.2 kmh 29.88 in1011.9 mb 0.00 in0.0 mm 0.00 in0.0 mm 0.00 in0.0 mm
02:23 AM 50.1°F10.1°C 48.4°F9.1°C 94% 1.0 mph NE1.6 kmh NE 2.0 mph3.2 kmh 29.88 in1011.9 mb 0.00 in0.0 mm 0.00 in0.0 mm 0.00 in0.0 mm
02:24 AM 50.0°F10.0°C 48.3°F9.1°C 94% 1.3 mph NE2.1 kmh NE 2.0 mph3.2 kmh 29.88 in1011.9 mb 0.00 in0.0 mm 0.00 in0.0 mm 0.00 in0.0 mm
02:25 AM 50.0°F10.0°C 48.3°F9.1°C 94% 1.4 mph NE2.3 kmh NE 2.0 mph3.2 kmh 29.88 in1011.9 mb 0.00 in0.0 mm 0.00 in0.0 mm 0.00 in0.0 mm
02:26 AM 49.9°F9.9°C 48.2°F9.0°C 94% 0.8 mph NE1.3 kmh NE 2.0 mph3.2 kmh 29.88 in1011.9 mb 0.00 in0.0 mm 0.00 in0.0 mm 0.00 in0.0 mm
02:27 AM 50.0°F10.0°C 48.3°F9.1°C 94% 1.0 mph NE1.6 kmh NE 2.0 mph3.2 kmh 29.88 in1011.9 mb 0.00 in0.0 mm 0.00 in0.0 mm 0.00 in0.0 mm
02:28 AM 49.9°F9.9°C 48.2°F9.0°C 94% 0.7 mph NE1.1 kmh NE 2.0 mph3.2 kmh 29.88 in1011.9 mb 0.00 in0.0 mm 0.00 in0.0 mm 0.00 in0.0 mm
02:29 AM 49.9°F9.9°C 48.2°F9.0°C 94% 0.5 mph NE0.8 kmh NE 1.0 mph1.6 kmh 29.88 in1011.9 mb 0.00 in0.0 mm 0.00 in0.0 mm 0.00 in0.0 mm
02:30 AM 49.9°F9.9°C 48.2°F9.0°C 94% 0.7 mph NE1.1 kmh NE 1.0 mph1.6 kmh 29.88 in1011.9 mb 0.00 in0.0 mm 0.00 in0.0 mm 0.00 in0.0 mm
02:31 AM 49.9°F9.9°C 48.2°F9.0°C 94% 0.6 mph NE1.0 kmh NE 1.0 mph1.6 kmh 29.88 in1011.9 mb 0.00 in0.0 mm 0.00 in0.0 mm 0.00 in0.0 mm
02:32 AM 49.8°F9.9°C 48.1°F8.9°C 94% 1.1 mph NE1.8 kmh NE 2.0 mph3.2 kmh 29.88 in1011.9 mb 0.00 in0.0 mm 0.00 in0.0 mm 0.00 in0.0 mm
02:33 AM 49.8°F9.9°C 48.1°F8.9°C 94% 1.3 mph NE2.1 kmh NE 2.0 mph3.2 kmh 29.88 in1011.9 mb 0.00 in0.0 mm 0.00 in0.0 mm 0.00 in0.0 mm
02:34 AM 49.9°F9.9°C 48.2°F9.0°C 94% 1.2 mph NE1.9 kmh NE 2.0 mph3.2 kmh 29.88 in1011.9 mb 0.00 in0.0 mm 0.00 in0.0 mm 0.00 in0.0 mm
02:35 AM 49.8°F9.9°C 48.1°F8.9°C 94% 1.0 mph NE1.6 kmh NE 2.0 mph3.2 kmh 29.88 in1011.9 mb 0.00 in0.0 mm 0.00 in0.0 mm 0.00 in0.0 mm
02:36 AM 49.7°F9.8°C 48.0°F8.9°C 94% 1.5 mph NE2.4 kmh NE 2.0 mph3.2 kmh 29.88 in1011.9 mb 0.00 in0.0 mm 0.00 in0.0 mm 0.00 in0.0 mm
02:37 AM 49.8°F9.9°C 48.1°F8.9°C 94% 1.3 mph NE2.1 kmh NE 2.0 mph3.2 kmh 29.88 in1011.9 mb 0.00 in0.0 mm 0.00 in0.0 mm 0.00 in0.0 mm
02:38 AM 49.7°F9.8°C 48.0°F8.9°C 94% 1.4 mph NE2.3 kmh NE 2.0 mph3.2 kmh 29.88 in1011.9 mb 0.00 in0.0 mm 0.00 in0.0 mm 0.00 in0.0 mm
02:39 AM 49.7°F9.8°C 48.0°F8.9°C 94% 1.8 mph NE2.9 kmh NE 3.0 mph4.8 kmh 29.88 in1011.9 mb 0.00 in0.0 mm 0.00 in0.0 mm 0.00 in0.0 mm
02:40 AM 49.7°F9.8°C 48.0°F8.9°C 94% 2.1 mph NE3.4 kmh NE 3.0 mph4.8 kmh 29.88 in1011.9 mb 0.00 in0.0 mm 0.00 in0.0 mm 0.00 in0.0 mm
02:41 AM 49.7°F9.8°C 48.0°F8.9°C 94% 2.5 mph NE4.0 kmh NE 3.0 mph4.8 kmh 29.88 in1011.9 mb 0.00 in0.0 mm 0.00 in0.0 mm 0.00 in0.0 mm
02:42 AM 49.7°F9.8°C 48.0°F8.9°C 94% 2.5 mph NE4.0 kmh NE 3.0 mph4.8 kmh 29.88 in1011.9 mb 0.00 in0.0 mm 0.00 in0.0 mm 0.00 in0.0 mm
02:43 AM 49.6°F9.8°C 47.9°F8.8°C 94% 2.6 mph NE4.2 kmh NE 4.0 mph6.4 kmh 29.88 in1011.9 mb 0.00 in0.0 mm 0.00 in0.0 mm 0.00 in0.0 mm
02:44 AM 49.6°F9.8°C 47.9°F8.8°C 94% 2.9 mph NE4.7 kmh NE 4.0 mph6.4 kmh 29.88 in1011.9 mb 0.00 in0.0 mm 0.00 in0.0 mm 0.00 in0.0 mm
02:45 AM 49.6°F9.8°C 47.9°F8.8°C 94% 2.6 mph NE4.2 kmh NE 3.0 mph4.8 kmh 29.88 in1011.9 mb 0.00 in0.0 mm 0.00 in0.0 mm 0.00 in0.0 mm
02:46 AM 49.6°F9.8°C 47.9°F8.8°C 94% 2.5 mph NE4.0 kmh NE 3.0 mph4.8 kmh 29.88 in1011.9 mb 0.00 in0.0 mm 0.00 in0.0 mm 0.00 in0.0 mm
02:47 AM 49.6°F9.8°C 47.9°F8.8°C 94% 2.4 mph NE3.9 kmh NE 3.0 mph4.8 kmh 29.88 in1011.9 mb 0.00 in0.0 mm 0.00 in0.0 mm 0.00 in0.0 mm
02:48 AM 49.6°F9.8°C 47.9°F8.8°C 94% 1.9 mph NE3.1 kmh NE 3.0 mph4.8 kmh 29.88 in1011.9 mb 0.00 in0.0 mm 0.00 in0.0 mm 0.00 in0.0 mm
02:49 AM 49.6°F9.8°C 47.9°F8.8°C 94% 2.0 mph NE3.2 kmh NE 3.0 mph4.8 kmh 29.88 in1011.9 mb 0.00 in0.0 mm 0.00 in0.0 mm 0.00 in0.0 mm
02:50 AM 49.6°F9.8°C 47.9°F8.8°C 94% 2.0 mph NE3.2 kmh NE 3.0 mph4.8 kmh 29.88 in1011.9 mb 0.00 in0.0 mm 0.00 in0.0 mm 0.00 in0.0 mm
02:51 AM 49.5°F9.7°C 47.8°F8.8°C 94% 1.5 mph NE2.4 kmh NE 3.0 mph4.8 kmh 29.88 in1011.9 mb 0.00 in0.0 mm 0.00 in0.0 mm 0.00 in0.0 mm
02:52 AM 49.5°F9.7°C 47.8°F8.8°C 94% 1.2 mph NE1.9 kmh NE 2.0 mph3.2 kmh 29.88 in1011.9 mb 0.00 in0.0 mm 0.00 in0.0 mm 0.00 in0.0 mm
02:53 AM 49.5°F9.7°C 47.8°F8.8°C 94% 1.0 mph NE1.6 kmh NE 2.0 mph3.2 kmh 29.88 in1011.9 mb 0.00 in0.0 mm 0.00 in0.0 mm 0.00 in0.0 mm
02:54 AM 49.5°F9.7°C 47.8°F8.8°C 94% 0.8 mph NE1.3 kmh NE 2.0 mph3.2 kmh 29.88 in1011.9 mb 0.00 in0.0 mm 0.00 in0.0 mm 0.00 in0.0 mm
02:55 AM 49.5°F9.7°C 47.8°F8.8°C 94% 1.0 mph NE1.6 kmh NE 1.0 mph1.6 kmh 29.88 in1011.9 mb 0.00 in0.0 mm 0.00 in0.0 mm 0.00 in0.0 mm
02:56 AM 49.4°F9.7°C 47.7°F8.7°C 94% 0.6 mph NE1.0 kmh NE 1.0 mph1.6 kmh 29.88 in1011.9 mb 0.00 in0.0 mm 0.00 in0.0 mm 0.00 in0.0 mm
02:57 AM 49.4°F9.7°C 47.7°F8.7°C 94% 0.7 mph NE1.1 kmh NE 1.0 mph1.6 kmh 29.88 in1011.9 mb 0.00 in0.0 mm 0.00 in0.0 mm 0.00 in0.0 mm
02:58 AM 49.3°F9.6°C 47.6°F8.7°C 94% 0.7 mph NE1.1 kmh NE 1.0 mph1.6 kmh 29.88 in1011.9 mb 0.00 in0.0 mm 0.00 in0.0 mm 0.00 in0.0 mm
02:59 AM 49.3°F9.6°C 47.6°F8.7°C 94% 0.8 mph NE1.3 kmh NE 1.0 mph1.6 kmh 29.88 in1011.9 mb 0.00 in0.0 mm 0.00 in0.0 mm 0.00 in0.0 mm
03:00 AM 49.2°F9.6°C 47.5°F8.6°C 94% 0.4 mph NE0.6 kmh NE 1.0 mph1.6 kmh 29.88 in1011.9 mb 0.00 in0.0 mm 0.00 in0.0 mm 0.00 in0.0 mm
03:01 AM 49.1°F9.5°C 47.4°F8.6°C 94% Calm Calm 1.0 mph1.6 kmh 29.88 in1011.9 mb 0.00 in0.0 mm 0.00 in0.0 mm 0.00 in0.0 mm
03:02 AM 49.0°F9.4°C 47.3°F8.5°C 94% Calm Calm -- 29.88 in1011.9 mb 0.00 in0.0 mm 0.00 in0.0 mm 0.00 in0.0 mm
03:03 AM 49.0°F9.4°C 47.3°F8.5°C 94% Calm Calm -- 29.88 in1011.9 mb 0.00 in0.0 mm 0.00 in0.0 mm 0.00 in0.0 mm
03:04 AM 49.0°F9.4°C 47.3°F8.5°C 94% Calm Calm -- 29.88 in1011.9 mb 0.00 in0.0 mm 0.00 in0.0 mm 0.00 in0.0 mm
03:05 AM 48.9°F9.4°C 47.2°F8.4°C 94% Calm Calm -- 29.88 in1011.9 mb 0.00 in0.0 mm 0.00 in0.0 mm 0.00 in0.0 mm
03:06 AM 48.9°F9.4°C 47.2°F8.4°C 94% Calm Calm -- 29.88 in1011.9 mb 0.00 in0.0 mm 0.00 in0.0 mm 0.00 in0.0 mm
03:07 AM 48.9°F9.4°C 47.2°F8.4°C 94% Calm Calm -- 29.88 in1011.9 mb 0.00 in0.0 mm 0.00 in0.0 mm 0.00 in0.0 mm
03:08 AM 48.8°F9.3°C 47.2°F8.4°C 94% Calm Calm -- 29.88 in1011.9 mb 0.00 in0.0 mm 0.00 in0.0 mm 0.00 in0.0 mm
03:09 AM 48.8°F9.3°C 47.2°F8.4°C 94% Calm Calm -- 29.88 in1011.9 mb 0.00 in0.0 mm 0.00 in0.0 mm 0.00 in0.0 mm
03:10 AM 48.8°F9.3°C 47.2°F8.4°C 94% Calm Calm -- 29.88 in1011.9 mb 0.00 in0.0 mm 0.00 in0.0 mm 0.00 in0.0 mm
03:11 AM 48.8°F9.3°C 47.2°F8.4°C 94% Calm Calm -- 29.88 in1011.9 mb 0.00 in0.0 mm 0.00 in0.0 mm 0.00 in0.0 mm
03:12 AM 48.7°F9.3°C 47.1°F8.4°C 94% Calm Calm -- 29.89 in1012.2 mb 0.00 in0.0 mm 0.00 in0.0 mm 0.00 in0.0 mm
03:13 AM 48.7°F9.3°C 47.1°F8.4°C 94% 1.3 mph NE2.1 kmh NE 2.0 mph3.2 kmh 29.88 in1011.9 mb 0.00 in0.0 mm 0.00 in0.0 mm 0.00 in0.0 mm
03:14 AM 48.7°F9.3°C 47.1°F8.4°C 94% 1.8 mph NE2.9 kmh NE 2.0 mph3.2 kmh 29.89 in1012.2 mb 0.00 in0.0 mm 0.00 in0.0 mm 0.00 in0.0 mm
03:15 AM 48.7°F9.3°C 47.1°F8.4°C 94% 2.0 mph NE3.2 kmh NE 3.0 mph4.8 kmh 29.89 in1012.2 mb 0.00 in0.0 mm 0.00 in0.0 mm 0.00 in0.0 mm
03:16 AM 48.7°F9.3°C 47.1°F8.4°C 94% 2.0 mph NE3.2 kmh NE 3.0 mph4.8 kmh 29.89 in1012.2 mb 0.00 in0.0 mm 0.00 in0.0 mm 0.00 in0.0 mm
03:17 AM 48.7°F9.3°C 47.1°F8.4°C 94% 1.7 mph NE2.7 kmh NE 2.0 mph3.2 kmh 29.89 in1012.2 mb 0.00 in0.0 mm 0.00 in0.0 mm 0.00 in0.0 mm
03:18 AM 48.7°F9.3°C 47.1°F8.4°C 94% 2.5 mph NE4.0 kmh NE 3.0 mph4.8 kmh 29.89 in1012.2 mb 0.00 in0.0 mm 0.00 in0.0 mm 0.00 in0.0 mm
03:19 AM 48.7°F9.3°C 47.3°F8.5°C 95% 2.4 mph NE3.9 kmh NE 3.0 mph4.8 kmh 29.89 in1012.2 mb 0.00 in0.0 mm 0.00 in0.0 mm 0.00 in0.0 mm
03:20 AM 48.8°F9.3°C 47.4°F8.6°C 95% 2.5 mph NE4.0 kmh NE 3.0 mph4.8 kmh 29.89 in1012.2 mb 0.00 in0.0 mm 0.00 in0.0 mm 0.00 in0.0 mm
03:21 AM 48.8°F9.3°C 47.4°F8.6°C 95% 3.0 mph NE4.8 kmh NE 4.0 mph6.4 kmh 29.89 in1012.2 mb 0.00 in0.0 mm 0.00 in0.0 mm 0.00 in0.0 mm
03:22 AM 48.9°F9.4°C 47.5°F8.6°C 95% 2.9 mph NE4.7 kmh NE 4.0 mph6.4 kmh 29.89 in1012.2 mb 0.00 in0.0 mm 0.00 in0.0 mm 0.00 in0.0 mm
03:23 AM 48.9°F9.4°C 47.5°F8.6°C 95% 3.0 mph NE4.8 kmh NE 4.0 mph6.4 kmh 29.89 in1012.2 mb 0.00 in0.0 mm 0.00 in0.0 mm 0.00 in0.0 mm
03:24 AM 48.9°F9.4°C 47.5°F8.6°C 95% 2.5 mph NE4.0 kmh NE 4.0 mph6.4 kmh 29.89 in1012.2 mb 0.00 in0.0 mm 0.00 in0.0 mm 0.00 in0.0 mm
03:25 AM 48.9°F9.4°C 47.5°F8.6°C 95% 2.4 mph NE3.9 kmh NE 3.0 mph4.8 kmh 29.89 in1012.2 mb 0.00 in0.0 mm 0.00 in0.0 mm 0.00 in0.0 mm
03:26 AM 48.9°F9.4°C 47.5°F8.6°C 95% 2.2 mph NE3.5 kmh NE 3.0 mph4.8 kmh 29.89 in1012.2 mb 0.00 in0.0 mm 0.00 in0.0 mm 0.00 in0.0 mm
03:27 AM 48.9°F9.4°C 47.5°F8.6°C 95% 2.0 mph NE3.2 kmh NE 3.0 mph4.8 kmh 29.89 in1012.2 mb 0.00 in0.0 mm 0.00 in0.0 mm 0.00 in0.0 mm
03:28 AM 48.9°F9.4°C 47.5°F8.6°C 95% 2.6 mph NE4.2 kmh NE 3.0 mph4.8 kmh 29.89 in1012.2 mb 0.00 in0.0 mm 0.00 in0.0 mm 0.00 in0.0 mm
03:29 AM 48.9°F9.4°C 47.5°F8.6°C 95% 2.5 mph NE4.0 kmh NE 4.0 mph6.4 kmh 29.89 in1012.2 mb 0.00 in0.0 mm 0.00 in0.0 mm 0.00 in0.0 mm
03:30 AM 49.0°F9.4°C 47.6°F8.7°C 95% 2.1 mph NE3.4 kmh NE 4.0 mph6.4 kmh 29.89 in1012.2 mb 0.00 in0.0 mm 0.00 in0.0 mm 0.00 in0.0 mm
03:31 AM 49.0°F9.4°C 47.6°F8.7°C 95% 2.2 mph NE3.5 kmh NE 3.0 mph4.8 kmh 29.89 in1012.2 mb 0.00 in0.0 mm 0.00 in0.0 mm 0.00 in0.0 mm
03:32 AM 49.0°F9.4°C 47.6°F8.7°C 95% 2.0 mph NE3.2 kmh NE 3.0 mph4.8 kmh 29.89 in1012.2 mb 0.00 in0.0 mm 0.00 in0.0 mm 0.00 in0.0 mm
03:33 AM 49.0°F9.4°C 47.6°F8.7°C 95% 2.4 mph NE3.9 kmh NE 3.0 mph4.8 kmh 29.89 in1012.2 mb 0.00 in0.0 mm 0.00 in0.0 mm 0.00 in0.0 mm
03:34 AM 49.0°F9.4°C 47.6°F8.7°C 95% 2.0 mph NE3.2 kmh NE 3.0 mph4.8 kmh 29.89 in1012.2 mb 0.00 in0.0 mm 0.00 in0.0 mm 0.00 in0.0 mm
03:35 AM 49.0°F9.4°C 47.6°F8.7°C 95% 2.1 mph NE3.4 kmh NE 3.0 mph4.8 kmh 29.89 in1012.2 mb 0.00 in0.0 mm 0.00 in0.0 mm 0.00 in0.0 mm
03:36 AM 49.0°F9.4°C 47.6°F8.7°C 95% 2.1 mph NE3.4 kmh NE 3.0 mph4.8 kmh 29.89 in1012.2 mb 0.00 in0.0 mm 0.00 in0.0 mm 0.00 in0.0 mm
03:37 AM 49.1°F9.5°C 47.7°F8.7°C 95% 2.0 mph NE3.2 kmh NE 3.0 mph4.8 kmh 29.89 in1012.2 mb 0.00 in0.0 mm 0.00 in0.0 mm 0.00 in0.0 mm
03:38 AM 49.0°F9.4°C 47.6°F8.7°C 95% 2.0 mph NE3.2 kmh NE 3.0 mph4.8 kmh 29.89 in1012.2 mb 0.00 in0.0 mm 0.00 in0.0 mm 0.00 in0.0 mm
03:39 AM 49.0°F9.4°C 47.6°F8.7°C 95% 1.7 mph NE2.7 kmh NE 3.0 mph4.8 kmh 29.89 in1012.2 mb 0.00 in0.0 mm 0.00 in0.0 mm 0.00 in0.0 mm
03:40 AM 49.0°F9.4°C 47.6°F8.7°C 95% 1.9 mph NE3.1 kmh NE 2.0 mph3.2 kmh 29.89 in1012.2 mb 0.01 in0.3 mm 0.60 in15.2 mm 0.01 in0.3 mm
03:41 AM 49.0°F9.4°C 47.3°F8.5°C 94% 1.6 mph NE2.6 kmh NE 2.0 mph3.2 kmh 29.89 in1012.2 mb 0.01 in0.3 mm 0.00 in0.0 mm 0.01 in0.3 mm
03:42 AM 48.9°F9.4°C 47.2°F8.4°C 94% 2.1 mph NE3.4 kmh NE 3.0 mph4.8 kmh 29.89 in1012.2 mb 0.01 in0.3 mm 0.00 in0.0 mm 0.01 in0.3 mm
03:43 AM 48.9°F9.4°C 47.2°F8.4°C 94% 2.7 mph NE4.3 kmh NE 3.0 mph4.8 kmh 29.89 in1012.2 mb 0.01 in0.3 mm 0.00 in0.0 mm 0.01 in0.3 mm
03:44 AM 48.8°F9.3°C 47.4°F8.6°C 95% 3.8 mph NE6.1 kmh NE 5.0 mph8.0 kmh 29.89 in1012.2 mb 0.01 in0.3 mm 0.00 in0.0 mm 0.01 in0.3 mm
03:45 AM 48.8°F9.3°C 47.4°F8.6°C 95% 4.0 mph NE6.4 kmh NE 5.0 mph8.0 kmh 29.89 in1012.2 mb 0.01 in0.3 mm 0.00 in0.0 mm 0.01 in0.3 mm
03:46 AM 48.7°F9.3°C 47.3°F8.5°C 95% 3.6 mph NE5.8 kmh NE 4.0 mph6.4 kmh 29.89 in1012.2 mb 0.01 in0.3 mm 0.00 in0.0 mm 0.01 in0.3 mm
03:47 AM 48.6°F9.2°C 47.0°F8.3°C 94% 3.4 mph NE5.5 kmh NE 4.0 mph6.4 kmh 29.89 in1012.2 mb 0.01 in0.3 mm 0.00 in0.0 mm 0.01 in0.3 mm
03:48 AM 48.6°F9.2°C 47.0°F8.3°C 94% 3.4 mph NE5.5 kmh NE 4.0 mph6.4 kmh 29.89 in1012.2 mb 0.01 in0.3 mm 0.00 in0.0 mm 0.01 in0.3 mm
03:49 AM 48.4°F9.1°C 46.8°F8.2°C 94% 3.2 mph ENE5.1 kmh ENE 4.0 mph6.4 kmh 29.89 in1012.2 mb 0.01 in0.3 mm 0.00 in0.0 mm 0.01 in0.3 mm
03:50 AM 48.3°F9.1°C 46.7°F8.2°C 94% 3.3 mph E5.3 kmh E 4.0 mph6.4 kmh 29.89 in1012.2 mb 0.01 in0.3 mm 0.00 in0.0 mm 0.01 in0.3 mm
03:51 AM 48.2°F9.0°C 46.6°F8.1°C 94% 2.9 mph E4.7 kmh E 4.0 mph6.4 kmh 29.89 in1012.2 mb 0.01 in0.3 mm 0.00 in0.0 mm 0.01 in0.3 mm
03:52 AM 48.1°F8.9°C 46.5°F8.1°C 94% 2.9 mph E4.7 kmh E 4.0 mph6.4 kmh 29.89 in1012.2 mb 0.01 in0.3 mm 0.00 in0.0 mm 0.01 in0.3 mm
03:53 AM 48.1°F8.9°C 46.5°F8.1°C 94% 2.7 mph E4.3 kmh E 4.0 mph6.4 kmh 29.89 in1012.2 mb 0.01 in0.3 mm 0.00 in0.0 mm 0.01 in0.3 mm
03:54 AM 48.1°F8.9°C 46.7°F8.2°C 95% 2.9 mph E4.7 kmh E 4.0 mph6.4 kmh 29.89 in1012.2 mb 0.01 in0.3 mm 0.00 in0.0 mm 0.01 in0.3 mm
03:55 AM 48.2°F9.0°C 46.8°F8.2°C 95% 3.3 mph ENE5.3 kmh ENE 4.0 mph6.4 kmh 29.89 in1012.2 mb 0.01 in0.3 mm 0.00 in0.0 mm 0.01 in0.3 mm
03:56 AM 48.3°F9.1°C 46.9°F8.3°C 95% 2.8 mph ENE4.5 kmh ENE 4.0 mph6.4 kmh 29.89 in1012.2 mb 0.01 in0.3 mm 0.00 in0.0 mm 0.01 in0.3 mm
03:57 AM 48.2°F9.0°C 46.8°F8.2°C 95% 3.3 mph ENE5.3 kmh ENE 4.0 mph6.4 kmh 29.89 in1012.2 mb 0.01 in0.3 mm 0.00 in0.0 mm 0.01 in0.3 mm
03:58 AM 48.3°F9.1°C 46.9°F8.3°C 95% 3.4 mph ENE5.5 kmh ENE 4.0 mph6.4 kmh 29.89 in1012.2 mb 0.01 in0.3 mm 0.00 in0.0 mm 0.01 in0.3 mm
03:59 AM 48.3°F9.1°C 46.9°F8.3°C 95% 3.4 mph ENE5.5 kmh ENE 4.0 mph6.4 kmh 29.89 in1012.2 mb 0.01 in0.3 mm 0.00 in0.0 mm 0.01 in0.3 mm
04:00 AM 48.4°F9.1°C 47.0°F8.3°C 95% 3.5 mph ENE5.6 kmh ENE 4.0 mph6.4 kmh 29.89 in1012.2 mb 0.01 in0.3 mm 0.00 in0.0 mm 0.01 in0.3 mm
04:01 AM 48.4°F9.1°C 47.0°F8.3°C 95% 3.9 mph ENE6.3 kmh ENE 4.0 mph6.4 kmh 29.89 in1012.2 mb 0.01 in0.3 mm 0.00 in0.0 mm 0.01 in0.3 mm
04:02 AM 48.4°F9.1°C 47.0°F8.3°C 95% 3.8 mph ENE6.1 kmh ENE 4.0 mph6.4 kmh 29.89 in1012.2 mb 0.01 in0.3 mm 0.00 in0.0 mm 0.01 in0.3 mm
04:03 AM 48.4°F9.1°C 47.0°F8.3°C 95% 3.9 mph ENE6.3 kmh ENE 4.0 mph6.4 kmh 29.89 in1012.2 mb 0.01 in0.3 mm 0.00 in0.0 mm 0.01 in0.3 mm
04:04 AM 48.4°F9.1°C 47.0°F8.3°C 95% 4.2 mph ENE6.8 kmh ENE 5.0 mph8.0 kmh 29.89 in1012.2 mb 0.01 in0.3 mm 0.00 in0.0 mm 0.01 in0.3 mm
04:05 AM 48.4°F9.1°C 47.0°F8.3°C 95% 4.0 mph ENE6.4 kmh ENE 5.0 mph8.0 kmh 29.89 in1012.2 mb 0.01 in0.3 mm 0.00 in0.0 mm 0.01 in0.3 mm
04:06 AM 48.4°F9.1°C 47.0°F8.3°C 95% 4.0 mph ENE6.4 kmh ENE 5.0 mph8.0 kmh 29.89 in1012.2 mb 0.01 in0.3 mm 0.00 in0.0 mm 0.01 in0.3 mm
04:07 AM 48.4°F9.1°C 47.0°F8.3°C 95% 3.5 mph ENE5.6 kmh ENE 5.0 mph8.0 kmh 29.89 in1012.2 mb 0.01 in0.3 mm 0.00 in0.0 mm 0.01 in0.3 mm
04:08 AM 48.3°F9.1°C 46.9°F8.3°C 95% 3.6 mph ENE5.8 kmh ENE 5.0 mph8.0 kmh 29.89 in1012.2 mb 0.01 in0.3 mm 0.00 in0.0 mm 0.01 in0.3 mm
04:09 AM 48.3°F9.1°C 46.9°F8.3°C 95% 3.8 mph ENE6.1 kmh ENE 5.0 mph8.0 kmh 29.89 in1012.2 mb 0.01 in0.3 mm 0.00 in0.0 mm 0.01 in0.3 mm
04:10 AM 48.3°F9.1°C 46.9°F8.3°C 95% 3.4 mph ENE5.5 kmh ENE 5.0 mph8.0 kmh 29.89 in1012.2 mb 0.01 in0.3 mm 0.00 in0.0 mm 0.01 in0.3 mm
04:11 AM 48.3°F9.1°C 46.9°F8.3°C 95% 3.5 mph NE5.6 kmh NE 4.0 mph6.4 kmh 29.89 in1012.2 mb 0.01 in0.3 mm 0.00 in0.0 mm 0.01 in0.3 mm
04:12 AM 48.3°F9.1°C 46.9°F8.3°C 95% 2.6 mph NE4.2 kmh NE 4.0 mph6.4 kmh 29.89 in1012.2 mb 0.01 in0.3 mm 0.00 in0.0 mm 0.01 in0.3 mm
04:13 AM 48.3°F9.1°C 46.9°F8.3°C 95% 2.7 mph NE4.3 kmh NE 4.0 mph6.4 kmh 29.89 in1012.2 mb 0.01 in0.3 mm 0.00 in0.0 mm 0.01 in0.3 mm
04:14 AM 48.2°F9.0°C 46.8°F8.2°C 95% 2.4 mph NE3.9 kmh NE 4.0 mph6.4 kmh 29.89 in1012.2 mb 0.01 in0.3 mm 0.00 in0.0 mm 0.01 in0.3 mm
04:15 AM 48.2°F9.0°C 46.8°F8.2°C 95% 1.7 mph NE2.7 kmh NE 3.0 mph4.8 kmh 29.89 in1012.2 mb 0.01 in0.3 mm 0.00 in0.0 mm 0.01 in0.3 mm
04:16 AM 48.2°F9.0°C 46.8°F8.2°C 95% 2.3 mph NE3.7 kmh NE 3.0 mph4.8 kmh 29.89 in1012.2 mb 0.01 in0.3 mm 0.00 in0.0 mm 0.01 in0.3 mm
04:17 AM 48.1°F8.9°C 46.7°F8.2°C 95% 2.1 mph NE3.4 kmh NE 3.0 mph4.8 kmh 29.90 in1012.5 mb 0.01 in0.3 mm 0.00 in0.0 mm 0.01 in0.3 mm
04:18 AM 48.1°F8.9°C 46.7°F8.2°C 95% 2.2 mph NE3.5 kmh NE 3.0 mph4.8 kmh 29.90 in1012.5 mb 0.01 in0.3 mm 0.00 in0.0 mm 0.01 in0.3 mm
04:19 AM 48.1°F8.9°C 46.7°F8.2°C 95% 2.6 mph NE4.2 kmh NE 3.0 mph4.8 kmh 29.90 in1012.5 mb 0.01 in0.3 mm 0.00 in0.0 mm 0.01 in0.3 mm
04:20 AM 48.0°F8.9°C 46.6°F8.1°C 95% 2.7 mph NE4.3 kmh NE 3.0 mph4.8 kmh 29.90 in1012.5 mb 0.01 in0.3 mm 0.00 in0.0 mm 0.01 in0.3 mm
04:21 AM 48.0°F8.9°C 46.6°F8.1°C 95% 2.8 mph NE4.5 kmh NE 3.0 mph4.8 kmh 29.89 in1012.2 mb 0.01 in0.3 mm 0.00 in0.0 mm 0.01 in0.3 mm
04:22 AM 48.0°F8.9°C 46.6°F8.1°C 95% 2.5 mph NE4.0 kmh NE 4.0 mph6.4 kmh 29.89 in1012.2 mb 0.01 in0.3 mm 0.00 in0.0 mm 0.01 in0.3 mm
04:23 AM 48.0°F8.9°C 46.6°F8.1°C 95% 2.9 mph ENE4.7 kmh ENE 4.0 mph6.4 kmh 29.89 in1012.2 mb 0.01 in0.3 mm 0.00 in0.0 mm 0.01 in0.3 mm
04:24 AM 48.0°F8.9°C 46.6°F8.1°C 95% 2.9 mph ENE4.7 kmh ENE 4.0 mph6.4 kmh 29.89 in1012.2 mb 0.01 in0.3 mm 0.00 in0.0 mm 0.01 in0.3 mm
04:25 AM 48.0°F8.9°C 46.6°F8.1°C 95% 3.4 mph ENE5.5 kmh ENE 4.0 mph6.4 kmh 29.89 in1012.2 mb 0.01 in0.3 mm 0.00 in0.0 mm 0.01 in0.3 mm
04:26 AM 47.9°F8.8°C 46.5°F8.1°C 95% 2.6 mph ENE4.2 kmh ENE 4.0 mph6.4 kmh 29.89 in1012.2 mb 0.01 in0.3 mm 0.00 in0.0 mm 0.01 in0.3 mm
04:27 AM 47.9°F8.8°C 46.5°F8.1°C 95% 2.7 mph ENE4.3 kmh ENE 4.0 mph6.4 kmh 29.89 in1012.2 mb 0.01 in0.3 mm 0.00 in0.0 mm 0.01 in0.3 mm
04:28 AM 47.9°F8.8°C 46.5°F8.1°C 95% 2.5 mph ENE4.0 kmh ENE 4.0 mph6.4 kmh 29.89 in1012.2 mb 0.01 in0.3 mm 0.00 in0.0 mm 0.01 in0.3 mm
04:29 AM 47.9°F8.8°C 46.5°F8.1°C 95% 2.4 mph ENE3.9 kmh ENE 3.0 mph4.8 kmh 29.89 in1012.2 mb 0.01 in0.3 mm 0.00 in0.0 mm 0.01 in0.3 mm
04:30 AM 48.0°F8.9°C 46.6°F8.1°C 95% 2.4 mph ENE3.9 kmh ENE 3.0 mph4.8 kmh 29.89 in1012.2 mb 0.01 in0.3 mm 0.00 in0.0 mm 0.01 in0.3 mm
04:31 AM 47.9°F8.8°C 46.5°F8.1°C 95% 2.4 mph ENE3.9 kmh ENE 3.0 mph4.8 kmh 29.89 in1012.2 mb 0.01 in0.3 mm 0.00 in0.0 mm 0.01 in0.3 mm
04:32 AM 48.0°F8.9°C 46.6°F8.1°C 95% 2.5 mph ENE4.0 kmh ENE 3.0 mph4.8 kmh 29.89 in1012.2 mb 0.01 in0.3 mm 0.00 in0.0 mm 0.01 in0.3 mm
04:33 AM 48.0°F8.9°C 46.6°F8.1°C 95% 2.2 mph ENE3.5 kmh ENE 3.0 mph4.8 kmh 29.89 in1012.2 mb 0.01 in0.3 mm 0.00 in0.0 mm 0.01 in0.3 mm
04:34 AM 48.0°F8.9°C 46.6°F8.1°C 95% 2.5 mph E4.0 kmh E 3.0 mph4.8 kmh 29.89 in1012.2 mb 0.01 in0.3 mm 0.00 in0.0 mm 0.01 in0.3 mm
04:35 AM 48.0°F8.9°C 46.6°F8.1°C 95% 2.7 mph E4.3 kmh E 4.0 mph6.4 kmh 29.89 in1012.2 mb 0.01 in0.3 mm 0.00 in0.0 mm 0.01 in0.3 mm
04:36 AM 48.0°F8.9°C 46.6°F8.1°C 95% 2.2 mph E3.5 kmh E 4.0 mph6.4 kmh 29.89 in1012.2 mb 0.01 in0.3 mm 0.00 in0.0 mm 0.01 in0.3 mm
04:37 AM 48.0°F8.9°C 46.6°F8.1°C 95% 2.6 mph E4.2 kmh E 3.0 mph4.8 kmh 29.89 in1012.2 mb 0.01 in0.3 mm 0.00 in0.0 mm 0.01 in0.3 mm
04:38 AM 48.0°F8.9°C 46.6°F8.1°C 95% 2.5 mph E4.0 kmh E 3.0 mph4.8 kmh 29.89 in1012.2 mb 0.01 in0.3 mm 0.00 in0.0 mm 0.01 in0.3 mm
04:39 AM 48.0°F8.9°C 46.6°F8.1°C 95% 2.2 mph E3.5 kmh E 3.0 mph4.8 kmh 29.89 in1012.2 mb 0.01 in0.3 mm 0.00 in0.0 mm 0.01 in0.3 mm
04:40 AM 48.0°F8.9°C 46.6°F8.1°C 95% 2.3 mph E3.7 kmh E 3.0 mph4.8 kmh 29.89 in1012.2 mb 0.00 in0.0 mm 0.00 in0.0 mm 0.01 in0.3 mm
04:41 AM 48.0°F8.9°C 46.6°F8.1°C 95% 2.3 mph E3.7 kmh E 3.0 mph4.8 kmh 29.89 in1012.2 mb 0.00 in0.0 mm 0.00 in0.0 mm 0.01 in0.3 mm
04:42 AM 48.0°F8.9°C 46.6°F8.1°C 95% 2.5 mph E4.0 kmh E 3.0 mph4.8 kmh 29.89 in1012.2 mb 0.00 in0.0 mm 0.00 in0.0 mm 0.01 in0.3 mm
04:43 AM 48.0°F8.9°C 46.6°F8.1°C 95% 2.7 mph E4.3 kmh E 4.0 mph6.4 kmh 29.89 in1012.2 mb 0.00 in0.0 mm 0.00 in0.0 mm 0.01 in0.3 mm
04:44 AM 48.0°F8.9°C 46.6°F8.1°C 95% 2.8 mph E4.5 kmh E 4.0 mph6.4 kmh 29.89 in1012.2 mb 0.00 in0.0 mm 0.00 in0.0 mm 0.01 in0.3 mm
04:45 AM 48.0°F8.9°C 46.6°F8.1°C 95% 3.2 mph E5.1 kmh E 4.0 mph6.4 kmh 29.89 in1012.2 mb 0.00 in0.0 mm 0.00 in0.0 mm 0.01 in0.3 mm
04:46 AM 48.1°F8.9°C 46.7°F8.2°C 95% 2.9 mph E4.7 kmh E 4.0 mph6.4 kmh 29.89 in1012.2 mb 0.00 in0.0 mm 0.00 in0.0 mm 0.01 in0.3 mm
04:47 AM 48.1°F8.9°C 46.7°F8.2°C 95% 2.8 mph E4.5 kmh E 4.0 mph6.4 kmh 29.89 in1012.2 mb 0.00 in0.0 mm 0.00 in0.0 mm 0.01 in0.3 mm
04:48 AM 48.2°F9.0°C 46.8°F8.2°C 95% 3.4 mph E5.5 kmh E 4.0 mph6.4 kmh 29.89 in1012.2 mb 0.00 in0.0 mm 0.00 in0.0 mm 0.01 in0.3 mm
04:49 AM 48.3°F9.1°C 46.9°F8.3°C 95% 4.6 mph E7.4 kmh E 6.0 mph9.7 kmh 29.89 in1012.2 mb 0.00 in0.0 mm 0.00 in0.0 mm 0.01 in0.3 mm
04:50 AM 48.3°F9.1°C 46.9°F8.3°C 95% 4.4 mph E7.1 kmh E 6.0 mph9.7 kmh 29.89 in1012.2 mb 0.00 in0.0 mm 0.00 in0.0 mm 0.01 in0.3 mm
04:51 AM 48.3°F9.1°C 47.2°F8.4°C 96% 3.8 mph E6.1 kmh E 6.0 mph9.7 kmh 29.89 in1012.2 mb 0.00 in0.0 mm 0.00 in0.0 mm 0.01 in0.3 mm
04:52 AM 48.4°F9.1°C 47.3°F8.5°C 96% 4.4 mph E7.1 kmh E 6.0 mph9.7 kmh 29.89 in1012.2 mb 0.00 in0.0 mm 0.00 in0.0 mm 0.01 in0.3 mm
04:53 AM 48.5°F9.2°C 47.4°F8.6°C 96% 4.3 mph E6.9 kmh E 6.0 mph9.7 kmh 29.89 in1012.2 mb 0.00 in0.0 mm 0.00 in0.0 mm 0.01 in0.3 mm
04:54 AM 48.5°F9.2°C 47.4°F8.6°C 96% 3.4 mph E5.5 kmh E 7.0 mph11.3 kmh 29.89 in1012.2 mb 0.00 in0.0 mm 0.00 in0.0 mm 0.01 in0.3 mm
04:55 AM 48.6°F9.2°C 47.5°F8.6°C 96% 3.3 mph ESE5.3 kmh ESE 7.0 mph11.3 kmh 29.89 in1012.2 mb 0.00 in0.0 mm 0.00 in0.0 mm 0.01 in0.3 mm
04:56 AM 48.6°F9.2°C 47.5°F8.6°C 96% 3.8 mph ESE6.1 kmh ESE 6.0 mph9.7 kmh 29.89 in1012.2 mb 0.00 in0.0 mm 0.00 in0.0 mm 0.01 in0.3 mm
04:57 AM 48.7°F9.3°C 47.6°F8.7°C 96% 4.7 mph ESE7.6 kmh ESE 6.0 mph9.7 kmh 29.89 in1012.2 mb 0.00 in0.0 mm 0.00 in0.0 mm 0.01 in0.3 mm
04:58 AM 48.8°F9.3°C 47.7°F8.7°C 96% 3.8 mph ESE6.1 kmh ESE 6.0 mph9.7 kmh 29.89 in1012.2 mb 0.00 in0.0 mm 0.00 in0.0 mm 0.01 in0.3 mm
04:59 AM 48.9°F9.4°C 47.8°F8.8°C 96% 3.4 mph ESE5.5 kmh ESE 6.0 mph9.7 kmh 29.89 in1012.2 mb 0.00 in0.0 mm 0.00 in0.0 mm 0.01 in0.3 mm
05:00 AM 48.9°F9.4°C 47.5°F8.6°C 95% 3.8 mph ESE6.1 kmh ESE 6.0 mph9.7 kmh 29.89 in1012.2 mb 0.00 in0.0 mm 0.00 in0.0 mm 0.01 in0.3 mm
05:01 AM 49.0°F9.4°C 47.6°F8.7°C 95% 5.2 mph ESE8.4 kmh ESE 7.0 mph11.3 kmh 29.88 in1011.9 mb 0.00 in0.0 mm 0.00 in0.0 mm 0.01 in0.3 mm
05:02 AM 49.0°F9.4°C 47.9°F8.8°C 96% 4.8 mph ESE7.7 kmh ESE 7.0 mph11.3 kmh 29.88 in1011.9 mb 0.00 in0.0 mm 0.00 in0.0 mm 0.01 in0.3 mm
05:03 AM 49.1°F9.5°C 48.0°F8.9°C 96% 3.9 mph E6.3 kmh E 7.0 mph11.3 kmh 29.88 in1011.9 mb 0.00 in0.0 mm 0.00 in0.0 mm 0.01 in0.3 mm
05:04 AM 49.1°F9.5°C 48.0°F8.9°C 96% 4.5 mph E7.2 kmh E 8.0 mph12.9 kmh 29.88 in1011.9 mb 0.00 in0.0 mm 0.00 in0.0 mm 0.01 in0.3 mm
05:05 AM 49.2°F9.6°C 47.8°F8.8°C 95% 6.1 mph E9.8 kmh E 8.0 mph12.9 kmh 29.88 in1011.9 mb 0.00 in0.0 mm 0.00 in0.0 mm 0.01 in0.3 mm
05:06 AM 49.2°F9.6°C 47.8°F8.8°C 95% 5.2 mph E8.4 kmh E 8.0 mph12.9 kmh 29.89 in1012.2 mb 0.00 in0.0 mm 0.00 in0.0 mm 0.01 in0.3 mm
05:07 AM 49.3°F9.6°C 47.9°F8.8°C 95% 4.2 mph ESE6.8 kmh ESE 7.0 mph11.3 kmh 29.89 in1012.2 mb 0.00 in0.0 mm 0.00 in0.0 mm 0.01 in0.3 mm
05:08 AM 49.3°F9.6°C 47.9°F8.8°C 95% 4.9 mph E7.9 kmh E 8.0 mph12.9 kmh 29.89 in1012.2 mb 0.00 in0.0 mm 0.00 in0.0 mm 0.01 in0.3 mm
05:09 AM 49.4°F9.7°C 48.0°F8.9°C 95% 5.2 mph E8.4 kmh E 8.0 mph12.9 kmh 29.89 in1012.2 mb 0.00 in0.0 mm 0.00 in0.0 mm 0.01 in0.3 mm
05:10 AM 49.4°F9.7°C 48.0°F8.9°C 95% 4.6 mph ESE7.4 kmh ESE 8.0 mph12.9 kmh 29.89 in1012.2 mb 0.00 in0.0 mm 0.00 in0.0 mm 0.01 in0.3 mm
05:11 AM 49.4°F9.7°C 48.0°F8.9°C 95% 4.7 mph ESE7.6 kmh ESE 6.0 mph9.7 kmh 29.89 in1012.2 mb 0.00 in0.0 mm 0.00 in0.0 mm 0.01 in0.3 mm
05:12 AM 49.5°F9.7°C 48.1°F8.9°C 95% 5.4 mph E8.7 kmh E 7.0 mph11.3 kmh 29.89 in1012.2 mb 0.00 in0.0 mm 0.00 in0.0 mm 0.01 in0.3 mm
05:13 AM 49.5°F9.7°C 48.1°F8.9°C 95% 4.3 mph E6.9 kmh E 7.0 mph11.3 kmh 29.88 in1011.9 mb 0.00 in0.0 mm 0.00 in0.0 mm 0.01 in0.3 mm
05:14 AM 49.6°F9.8°C 48.2°F9.0°C 95% 5.0 mph E8.0 kmh E 7.0 mph11.3 kmh 29.89 in1012.2 mb 0.00 in0.0 mm 0.00 in0.0 mm 0.01 in0.3 mm
05:15 AM 49.6°F9.8°C 48.2°F9.0°C 95% 4.5 mph E7.2 kmh E 7.0 mph11.3 kmh 29.89 in1012.2 mb 0.00 in0.0 mm 0.00 in0.0 mm 0.01 in0.3 mm
05:16 AM 49.6°F9.8°C 48.2°F9.0°C 95% 4.1 mph E6.6 kmh E 7.0 mph11.3 kmh 29.89 in1012.2 mb 0.00 in0.0 mm 0.00 in0.0 mm 0.01 in0.3 mm
05:17 AM 49.6°F9.8°C 47.9°F8.8°C 94% 4.6 mph E7.4 kmh E 7.0 mph11.3 kmh 29.89 in1012.2 mb 0.00 in0.0 mm 0.00 in0.0 mm 0.01 in0.3 mm
05:18 AM 49.6°F9.8°C 47.9°F8.8°C 94% 5.4 mph E8.7 kmh E 7.0 mph11.3 kmh 29.89 in1012.2 mb 0.00 in0.0 mm 0.00 in0.0 mm 0.01 in0.3 mm
05:19 AM 49.6°F9.8°C 47.9°F8.8°C 94% 4.6 mph E7.4 kmh E 7.0 mph11.3 kmh 29.89 in1012.2 mb 0.00 in0.0 mm 0.00 in0.0 mm 0.01 in0.3 mm
05:20 AM 49.6°F9.8°C 47.9°F8.8°C 94% 5.3 mph E8.5 kmh E 8.0 mph12.9 kmh 29.89 in1012.2 mb 0.00 in0.0 mm 0.00 in0.0 mm 0.01 in0.3 mm
05:21 AM 49.6°F9.8°C 47.9°F8.8°C 94% 4.8 mph E7.7 kmh E 8.0 mph12.9 kmh 29.89 in1012.2 mb 0.00 in0.0 mm 0.00 in0.0 mm 0.01 in0.3 mm
05:22 AM 49.6°F9.8°C 47.9°F8.8°C 94% 7.2 mph E11.6 kmh E 9.0 mph14.5 kmh 29.89 in1012.2 mb 0.00 in0.0 mm 0.00 in0.0 mm 0.01 in0.3 mm
05:23 AM 49.6°F9.8°C 47.9°F8.8°C 94% 5.9 mph E9.5 kmh E 9.0 mph14.5 kmh 29.89 in1012.2 mb 0.00 in0.0 mm 0.00 in0.0 mm 0.01 in0.3 mm
05:24 AM 49.7°F9.8°C 48.0°F8.9°C 94% 7.7 mph E12.4 kmh E 9.0 mph14.5 kmh 29.89 in1012.2 mb 0.00 in0.0 mm 0.00 in0.0 mm 0.01 in0.3 mm
05:25 AM 49.7°F9.8°C 48.0°F8.9°C 94% 7.7 mph E12.4 kmh E 10.0 mph16.1 kmh 29.89 in1012.2 mb 0.00 in0.0 mm 0.00 in0.0 mm 0.01 in0.3 mm
05:26 AM 49.7°F9.8°C 48.0°F8.9°C 94% 6.8 mph E10.9 kmh E 10.0 mph16.1 kmh 29.89 in1012.2 mb 0.00 in0.0 mm 0.00 in0.0 mm 0.01 in0.3 mm
05:27 AM 49.6°F9.8°C 47.9°F8.8°C 94% 7.5 mph E12.1 kmh E 9.0 mph14.5 kmh 29.89 in1012.2 mb 0.00 in0.0 mm 0.00 in0.0 mm 0.01 in0.3 mm
05:28 AM 49.6°F9.8°C 47.9°F8.8°C 94% 7.7 mph E12.4 kmh E 10.0 mph16.1 kmh 29.89 in1012.2 mb 0.00 in0.0 mm 0.00 in0.0 mm 0.01 in0.3 mm
05:29 AM 49.7°F9.8°C 48.0°F8.9°C 94% 7.3 mph E11.7 kmh E 10.0 mph16.1 kmh 29.89 in1012.2 mb 0.00 in0.0 mm 0.00 in0.0 mm 0.01 in0.3 mm
05:30 AM 49.6°F9.8°C 47.9°F8.8°C 94% 6.8 mph E10.9 kmh E 9.0 mph14.5 kmh 29.89 in1012.2 mb 0.00 in0.0 mm 0.00 in0.0 mm 0.01 in0.3 mm
05:31 AM 49.6°F9.8°C 47.9°F8.8°C 94% 6.7 mph E10.8 kmh E 8.0 mph12.9 kmh 29.89 in1012.2 mb 0.00 in0.0 mm 0.00 in0.0 mm 0.01 in0.3 mm
05:32 AM 49.6°F9.8°C 47.9°F8.8°C 94% 7.0 mph E11.3 kmh E 10.0 mph16.1 kmh 29.89 in1012.2 mb 0.00 in0.0 mm 0.00 in0.0 mm 0.01 in0.3 mm
05:33 AM 49.6°F9.8°C 47.9°F8.8°C 94% 7.7 mph E12.4 kmh E 10.0 mph16.1 kmh 29.89 in1012.2 mb 0.00 in0.0 mm 0.00 in0.0 mm 0.01 in0.3 mm
05:34 AM 49.6°F9.8°C 47.9°F8.8°C 94% 7.1 mph E11.4 kmh E 10.0 mph16.1 kmh 29.89 in1012.2 mb 0.00 in0.0 mm 0.00 in0.0 mm 0.01 in0.3 mm
05:35 AM 49.6°F9.8°C 47.9°F8.8°C 94% 8.1 mph E13.0 kmh E 10.0 mph16.1 kmh 29.89 in1012.2 mb 0.00 in0.0 mm 0.00 in0.0 mm 0.01 in0.3 mm
05:36 AM 49.6°F9.8°C 47.9°F8.8°C 94% 7.1 mph E11.4 kmh E 10.0 mph16.1 kmh 29.89 in1012.2 mb 0.00 in0.0 mm 0.00 in0.0 mm 0.01 in0.3 mm
05:37 AM 49.6°F9.8°C 47.9°F8.8°C 94% 7.8 mph E12.6 kmh E 9.0 mph14.5 kmh 29.89 in1012.2 mb 0.00 in0.0 mm 0.00 in0.0 mm 0.01 in0.3 mm
05:38 AM 49.6°F9.8°C 47.7°F8.7°C 93% 6.6 mph E10.6 kmh E 9.0 mph14.5 kmh 29.89 in1012.2 mb 0.00 in0.0 mm 0.00 in0.0 mm 0.01 in0.3 mm
05:39 AM 49.6°F9.8°C 47.7°F8.7°C 93% 6.0 mph E9.7 kmh E 9.0 mph14.5 kmh 29.89 in1012.2 mb 0.00 in0.0 mm 0.00 in0.0 mm 0.01 in0.3 mm
05:40 AM 49.6°F9.8°C 47.7°F8.7°C 93% 6.9 mph E11.1 kmh E 10.0 mph16.1 kmh 29.89 in1012.2 mb 0.00 in0.0 mm 0.00 in0.0 mm 0.01 in0.3 mm
05:41 AM 49.5°F9.7°C 47.6°F8.7°C 93% 5.6 mph ESE9.0 kmh ESE 10.0 mph16.1 kmh 29.89 in1012.2 mb 0.00 in0.0 mm 0.00 in0.0 mm 0.01 in0.3 mm
05:42 AM 49.5°F9.7°C 47.6°F8.7°C 93% 5.8 mph E9.3 kmh E 7.0 mph11.3 kmh 29.89 in1012.2 mb 0.00 in0.0 mm 0.00 in0.0 mm 0.01 in0.3 mm
05:43 AM 49.5°F9.7°C 47.6°F8.7°C 93% 5.7 mph ESE9.2 kmh ESE 8.0 mph12.9 kmh 29.89 in1012.2 mb 0.00 in0.0 mm 0.00 in0.0 mm 0.01 in0.3 mm
05:44 AM 49.4°F9.7°C 47.5°F8.6°C 93% 4.9 mph E7.9 kmh E 8.0 mph12.9 kmh 29.89 in1012.2 mb 0.00 in0.0 mm 0.00 in0.0 mm 0.01 in0.3 mm
05:45 AM 49.4°F9.7°C 47.5°F8.6°C 93% 3.8 mph ESE6.1 kmh ESE 7.0 mph11.3 kmh 29.89 in1012.2 mb 0.00 in0.0 mm 0.00 in0.0 mm 0.01 in0.3 mm
05:46 AM 49.4°F9.7°C 47.5°F8.6°C 93% 4.9 mph ESE7.9 kmh ESE 7.0 mph11.3 kmh 29.90 in1012.5 mb 0.00 in0.0 mm 0.00 in0.0 mm 0.01 in0.3 mm
05:47 AM 49.4°F9.7°C 47.5°F8.6°C 93% 3.3 mph E5.3 kmh E 7.0 mph11.3 kmh 29.90 in1012.5 mb 0.00 in0.0 mm 0.00 in0.0 mm 0.01 in0.3 mm
05:48 AM 49.4°F9.7°C 47.5°F8.6°C 93% 3.6 mph ESE5.8 kmh ESE 7.0 mph11.3 kmh 29.90 in1012.5 mb 0.00 in0.0 mm 0.00 in0.0 mm 0.01 in0.3 mm
05:49 AM 49.4°F9.7°C 47.5°F8.6°C 93% 3.4 mph ESE5.5 kmh ESE 7.0 mph11.3 kmh 29.90 in1012.5 mb 0.00 in0.0 mm 0.00 in0.0 mm 0.01 in0.3 mm
05:50 AM 49.4°F9.7°C 47.5°F8.6°C 93% 4.3 mph ESE6.9 kmh ESE 6.0 mph9.7 kmh 29.90 in1012.5 mb 0.00 in0.0 mm 0.00 in0.0 mm 0.01 in0.3 mm
05:51 AM 49.4°F9.7°C 47.5°F8.6°C 93% 4.4 mph E7.1 kmh E 6.0 mph9.7 kmh 29.90 in1012.5 mb 0.00 in0.0 mm 0.00 in0.0 mm 0.01 in0.3 mm
05:52 AM 49.4°F9.7°C 47.5°F8.6°C 93% 3.9 mph ESE6.3 kmh ESE 6.0 mph9.7 kmh 29.90 in1012.5 mb 0.00 in0.0 mm 0.00 in0.0 mm 0.01 in0.3 mm
05:53 AM 49.4°F9.7°C 47.5°F8.6°C 93% 3.3 mph ESE5.3 kmh ESE 6.0 mph9.7 kmh 29.90 in1012.5 mb 0.00 in0.0 mm 0.00 in0.0 mm 0.01 in0.3 mm
05:54 AM 49.3°F9.6°C 47.4°F8.6°C 93% 3.8 mph ESE6.1 kmh ESE 6.0 mph9.7 kmh 29.90 in1012.5 mb 0.00 in0.0 mm 0.00 in0.0 mm 0.01 in0.3 mm
05:55 AM 49.4°F9.7°C 47.5°F8.6°C 93% 3.5 mph ESE5.6 kmh ESE 6.0 mph9.7 kmh 29.90 in1012.5 mb 0.00 in0.0 mm 0.00 in0.0 mm 0.01 in0.3 mm
05:56 AM 49.3°F9.6°C 47.4°F8.6°C 93% 4.3 mph ESE6.9 kmh ESE 6.0 mph9.7 kmh 29.90 in1012.5 mb 0.00 in0.0 mm 0.00 in0.0 mm 0.01 in0.3 mm
05:57 AM 49.3°F9.6°C 47.4°F8.6°C 93% 4.4 mph ESE7.1 kmh ESE 6.0 mph9.7 kmh 29.90 in1012.5 mb 0.00 in0.0 mm 0.00 in0.0 mm 0.01 in0.3 mm
05:58 AM 49.3°F9.6°C 47.4°F8.6°C 93% 4.4 mph SE7.1 kmh SE 6.0 mph9.7 kmh 29.90 in1012.5 mb 0.00 in0.0 mm 0.00 in0.0 mm 0.01 in0.3 mm
05:59 AM 49.3°F9.6°C 47.4°F8.6°C 93% 4.0 mph ESE6.4 kmh ESE 6.0 mph9.7 kmh 29.90 in1012.5 mb 0.00 in0.0 mm 0.00 in0.0 mm 0.01 in0.3 mm
06:00 AM 49.3°F9.6°C 47.4°F8.6°C 93% 5.0 mph ESE8.0 kmh ESE 7.0 mph11.3 kmh 29.90 in1012.5 mb 0.00 in0.0 mm 0.00 in0.0 mm 0.01 in0.3 mm
06:01 AM 49.3°F9.6°C 47.4°F8.6°C 93% 3.9 mph ESE6.3 kmh ESE 7.0 mph11.3 kmh 29.91 in1012.9 mb 0.00 in0.0 mm 0.00 in0.0 mm 0.01 in0.3 mm
06:02 AM 49.3°F9.6°C 47.4°F8.6°C 93% 4.0 mph ESE6.4 kmh ESE 6.0 mph9.7 kmh 29.90 in1012.5 mb 0.00 in0.0 mm 0.00 in0.0 mm 0.01 in0.3 mm
06:03 AM 49.3°F9.6°C 47.4°F8.6°C 93% 3.8 mph ESE6.1 kmh ESE 5.0 mph8.0 kmh 29.91 in1012.9 mb 0.00 in0.0 mm 0.00 in0.0 mm 0.01 in0.3 mm
06:04 AM 49.3°F9.6°C 47.4°F8.6°C 93% 3.7 mph ESE6.0 kmh ESE 6.0 mph9.7 kmh 29.91 in1012.9 mb 0.00 in0.0 mm 0.00 in0.0 mm 0.01 in0.3 mm
06:05 AM 49.3°F9.6°C 47.4°F8.6°C 93% 5.2 mph ESE8.4 kmh ESE 7.0 mph11.3 kmh 29.91 in1012.9 mb 0.00 in0.0 mm 0.00 in0.0 mm 0.01 in0.3 mm
06:06 AM 49.3°F9.6°C 47.4°F8.6°C 93% 4.1 mph ESE6.6 kmh ESE 7.0 mph11.3 kmh 29.91 in1012.9 mb 0.00 in0.0 mm 0.00 in0.0 mm 0.01 in0.3 mm
06:07 AM 49.3°F9.6°C 47.4°F8.6°C 93% 3.4 mph ESE5.5 kmh ESE 6.0 mph9.7 kmh 29.91 in1012.9 mb 0.00 in0.0 mm 0.00 in0.0 mm 0.01 in0.3 mm
06:08 AM 49.3°F9.6°C 47.4°F8.6°C 93% 3.6 mph ESE5.8 kmh ESE 6.0 mph9.7 kmh 29.91 in1012.9 mb 0.00 in0.0 mm 0.00 in0.0 mm 0.01 in0.3 mm
06:09 AM 49.3°F9.6°C 47.4°F8.6°C 93% 3.1 mph ESE5.0 kmh ESE 6.0 mph9.7 kmh 29.91 in1012.9 mb 0.00 in0.0 mm 0.00 in0.0 mm 0.01 in0.3 mm
06:10 AM 49.3°F9.6°C 47.4°F8.6°C 93% 3.1 mph E5.0 kmh E 4.0 mph6.4 kmh 29.91 in1012.9 mb 0.00 in0.0 mm 0.00 in0.0 mm 0.01 in0.3 mm
06:11 AM 49.2°F9.6°C 47.3°F8.5°C 93% 2.9 mph ESE4.7 kmh ESE 4.0 mph6.4 kmh 29.91 in1012.9 mb 0.00 in0.0 mm 0.00 in0.0 mm 0.01 in0.3 mm
06:12 AM 49.3°F9.6°C 47.4°F8.6°C 93% 3.0 mph ESE4.8 kmh ESE 4.0 mph6.4 kmh 29.91 in1012.9 mb 0.00 in0.0 mm 0.00 in0.0 mm 0.01 in0.3 mm
06:13 AM 49.3°F9.6°C 47.4°F8.6°C 93% 2.3 mph E3.7 kmh E 4.0 mph6.4 kmh 29.91 in1012.9 mb 0.00 in0.0 mm 0.00 in0.0 mm 0.01 in0.3 mm
06:14 AM 49.3°F9.6°C 47.4°F8.6°C 93% 2.7 mph E4.3 kmh E 4.0 mph6.4 kmh 29.91 in1012.9 mb 0.00 in0.0 mm 0.00 in0.0 mm 0.01 in0.3 mm
06:15 AM 49.2°F9.6°C 47.3°F8.5°C 93% 2.3 mph E3.7 kmh E 4.0 mph6.4 kmh 29.91 in1012.9 mb 0.00 in0.0 mm 0.00 in0.0 mm 0.01 in0.3 mm
06:16 AM 49.2°F9.6°C 47.3°F8.5°C 93% 2.2 mph E3.5 kmh E 4.0 mph6.4 kmh 29.91 in1012.9 mb 0.00 in0.0 mm 0.00 in0.0 mm 0.01 in0.3 mm
06:17 AM 49.2°F9.6°C 47.3°F8.5°C 93% 1.9 mph E3.1 kmh E 4.0 mph6.4 kmh 29.91 in1012.9 mb 0.00 in0.0 mm 0.00 in0.0 mm 0.01 in0.3 mm
06:18 AM 49.2°F9.6°C 47.3°F8.5°C 93% 1.8 mph E2.9 kmh E 3.0 mph4.8 kmh 29.91 in1012.9 mb 0.00 in0.0 mm 0.00 in0.0 mm 0.01 in0.3 mm
06:19 AM 49.2°F9.6°C 47.3°F8.5°C 93% 1.4 mph E2.3 kmh E 3.0 mph4.8 kmh 29.91 in1012.9 mb 0.00 in0.0 mm 0.00 in0.0 mm 0.01 in0.3 mm
06:20 AM 49.1°F9.5°C 47.2°F8.4°C 93% 1.6 mph E2.6 kmh E 2.0 mph3.2 kmh 29.91 in1012.9 mb 0.00 in0.0 mm 0.00 in0.0 mm 0.01 in0.3 mm
06:21 AM 49.1°F9.5°C 47.2°F8.4°C 93% 1.9 mph E3.1 kmh E 3.0 mph4.8 kmh 29.91 in1012.9 mb 0.00 in0.0 mm 0.00 in0.0 mm 0.01 in0.3 mm
06:22 AM 49.1°F9.5°C 47.2°F8.4°C 93% 2.4 mph E3.9 kmh E 3.0 mph4.8 kmh 29.91 in1012.9 mb 0.00 in0.0 mm 0.00 in0.0 mm 0.01 in0.3 mm
06:23 AM 49.0°F9.4°C 47.1°F8.4°C 93% 2.1 mph E3.4 kmh E 3.0 mph4.8 kmh 29.91 in1012.9 mb 0.00 in0.0 mm 0.00 in0.0 mm 0.01 in0.3 mm
06:24 AM 49.1°F9.5°C 47.2°F8.4°C 93% 1.8 mph E2.9 kmh E 3.0 mph4.8 kmh 29.91 in1012.9 mb 0.00 in0.0 mm 0.00 in0.0 mm 0.01 in0.3 mm
06:25 AM 49.0°F9.4°C 47.1°F8.4°C 93% 2.1 mph ESE3.4 kmh ESE 3.0 mph4.8 kmh 29.91 in1012.9 mb 0.00 in0.0 mm 0.00 in0.0 mm 0.01 in0.3 mm
06:26 AM 49.0°F9.4°C 47.1°F8.4°C 93% 2.4 mph ESE3.9 kmh ESE 3.0 mph4.8 kmh 29.91 in1012.9 mb 0.00 in0.0 mm 0.00 in0.0 mm 0.01 in0.3 mm
06:27 AM 49.0°F9.4°C 47.1°F8.4°C 93% 2.9 mph ESE4.7 kmh ESE 4.0 mph6.4 kmh 29.91 in1012.9 mb 0.00 in0.0 mm 0.00 in0.0 mm 0.01 in0.3 mm
06:28 AM 49.0°F9.4°C 47.1°F8.4°C 93% 3.4 mph ESE5.5 kmh ESE 4.0 mph6.4 kmh 29.91 in1012.9 mb 0.00 in0.0 mm 0.00 in0.0 mm 0.01 in0.3 mm
06:29 AM 49.0°F9.4°C 47.1°F8.4°C 93% 3.4 mph ESE5.5 kmh ESE 4.0 mph6.4 kmh 29.91 in1012.9 mb 0.00 in0.0 mm 0.00 in0.0 mm 0.01 in0.3 mm
06:30 AM 49.0°F9.4°C 47.1°F8.4°C 93% 3.0 mph E4.8 kmh E 4.0 mph6.4 kmh 29.91 in1012.9 mb 0.00 in0.0 mm 0.00 in0.0 mm 0.01 in0.3 mm
06:31 AM 48.9°F9.4°C 47.0°F8.3°C 93% 2.5 mph ESE4.0 kmh ESE 4.0 mph6.4 kmh 29.90 in1012.5 mb 0.00 in0.0 mm 0.00 in0.0 mm 0.01 in0.3 mm
06:32 AM 48.9°F9.4°C 47.0°F8.3°C 93% 2.5 mph ESE4.0 kmh ESE 3.0 mph4.8 kmh 29.91 in1012.9 mb 0.00 in0.0 mm 0.00 in0.0 mm 0.01 in0.3 mm
06:33 AM 49.0°F9.4°C 47.1°F8.4°C 93% 2.2 mph ESE3.5 kmh ESE 3.0 mph4.8 kmh 29.91 in1012.9 mb 0.00 in0.0 mm 0.00 in0.0 mm 0.01 in0.3 mm
06:34 AM 49.0°F9.4°C 47.1°F8.4°C 93% 3.0 mph ESE4.8 kmh ESE 4.0 mph6.4 kmh 29.91 in1012.9 mb 0.00 in0.0 mm 0.00 in0.0 mm 0.01 in0.3 mm
06:35 AM 49.0°F9.4°C 47.1°F8.4°C 93% 3.2 mph SE5.1 kmh SE 4.0 mph6.4 kmh 29.91 in1012.9 mb 0.00 in0.0 mm 0.00 in0.0 mm 0.01 in0.3 mm
06:36 AM 49.0°F9.4°C 47.1°F8.4°C 93% 3.7 mph ESE6.0 kmh ESE 6.0 mph9.7 kmh 29.91 in1012.9 mb 0.00 in0.0 mm 0.00 in0.0 mm 0.01 in0.3 mm
06:37 AM 49.1°F9.5°C 47.2°F8.4°C 93% 3.2 mph SE5.1 kmh SE 6.0 mph9.7 kmh 29.91 in1012.9 mb 0.00 in0.0 mm 0.00 in0.0 mm 0.01 in0.3 mm
06:38 AM 49.1°F9.5°C 47.2°F8.4°C 93% 3.7 mph SE6.0 kmh SE 6.0 mph9.7 kmh 29.91 in1012.9 mb 0.00 in0.0 mm 0.00 in0.0 mm 0.01 in0.3 mm
06:39 AM 49.2°F9.6°C 47.3°F8.5°C 93% 3.5 mph SE5.6 kmh SE 6.0 mph9.7 kmh 29.91 in1012.9 mb 0.00 in0.0 mm 0.00 in0.0 mm 0.01 in0.3 mm
06:40 AM 49.3°F9.6°C 47.4°F8.6°C 93% 2.4 mph SE3.9 kmh SE 4.0 mph6.4 kmh 29.91 in1012.9 mb 0.00 in0.0 mm 0.00 in0.0 mm 0.01 in0.3 mm
06:41 AM 49.3°F9.6°C 47.4°F8.6°C 93% 1.5 mph SE2.4 kmh SE 4.0 mph6.4 kmh 29.91 in1012.9 mb 0.00 in0.0 mm 0.00 in0.0 mm 0.01 in0.3 mm
06:42 AM 49.4°F9.7°C 47.5°F8.6°C 93% 0.9 mph SE1.4 kmh SE 2.0 mph3.2 kmh 29.91 in1012.9 mb 0.00 in0.0 mm 0.00 in0.0 mm 0.01 in0.3 mm
06:43 AM 49.4°F9.7°C 47.5°F8.6°C 93% 1.0 mph SE1.6 kmh SE 2.0 mph3.2 kmh 29.91 in1012.9 mb 0.00 in0.0 mm 0.00 in0.0 mm 0.01 in0.3 mm
06:44 AM 49.4°F9.7°C 47.5°F8.6°C 93% 0.8 mph SE1.3 kmh SE 2.0 mph3.2 kmh 29.91 in1012.9 mb 0.00 in0.0 mm 0.00 in0.0 mm 0.01 in0.3 mm
06:45 AM 49.4°F9.7°C 47.2°F8.4°C 92% 1.7 mph SE2.7 kmh SE 3.0 mph4.8 kmh 29.91 in1012.9 mb 0.00 in0.0 mm 0.00 in0.0 mm 0.01 in0.3 mm
06:46 AM 49.4°F9.7°C 47.2°F8.4°C 92% 1.5 mph SE2.4 kmh SE 3.0 mph4.8 kmh 29.91 in1012.9 mb 0.00 in0.0 mm 0.00 in0.0 mm 0.01 in0.3 mm
06:47 AM 49.4°F9.7°C 47.5°F8.6°C 93% 0.6 mph SE1.0 kmh SE 2.0 mph3.2 kmh 29.91 in1012.9 mb 0.00 in0.0 mm 0.00 in0.0 mm 0.01 in0.3 mm
06:48 AM 49.5°F9.7°C 47.6°F8.7°C 93% 1.2 mph SE1.9 kmh SE 2.0 mph3.2 kmh 29.91 in1012.9 mb 0.00 in0.0 mm 0.00 in0.0 mm 0.01 in0.3 mm
06:49 AM 49.5°F9.7°C 47.6°F8.7°C 93% 1.6 mph SE2.6 kmh SE 2.0 mph3.2 kmh 29.91 in1012.9 mb 0.00 in0.0 mm 0.00 in0.0 mm 0.01 in0.3 mm
06:50 AM 49.5°F9.7°C 47.6°F8.7°C 93% 1.4 mph SE2.3 kmh SE 2.0 mph3.2 kmh 29.91 in1012.9 mb 0.00 in0.0 mm 0.00 in0.0 mm 0.01 in0.3 mm
06:51 AM 49.6°F9.8°C 47.7°F8.7°C 93% 0.9 mph SE1.4 kmh SE 2.0 mph3.2 kmh 29.91 in1012.9 mb 0.00 in0.0 mm 0.00 in0.0 mm 0.01 in0.3 mm
06:52 AM 49.6°F9.8°C 47.7°F8.7°C 93% Calm Calm 2.0 mph3.2 kmh 29.91 in1012.9 mb 0.00 in0.0 mm 0.00 in0.0 mm 0.01 in0.3 mm
06:53 AM 49.6°F9.8°C 47.7°F8.7°C 93% 0.7 mph SE1.1 kmh SE 2.0 mph3.2 kmh 29.91 in1012.9 mb 0.00 in0.0 mm 0.00 in0.0 mm 0.01 in0.3 mm
06:54 AM 49.6°F9.8°C 47.7°F8.7°C 93% 1.3 mph SE2.1 kmh SE 2.0 mph3.2 kmh 29.91 in1012.9 mb 0.00 in0.0 mm 0.00 in0.0 mm 0.01 in0.3 mm
06:55 AM 49.7°F9.8°C 47.8°F8.8°C 93% 2.1 mph S3.4 kmh S 4.0 mph6.4 kmh 29.91 in1012.9 mb 0.00 in0.0 mm 0.00 in0.0 mm 0.01 in0.3 mm
06:56 AM 49.7°F9.8°C 47.8°F8.8°C 93% 2.9 mph SW4.7 kmh SW 4.0 mph6.4 kmh 29.91 in1012.9 mb 0.00 in0.0 mm 0.00 in0.0 mm 0.01 in0.3 mm
06:57 AM 49.8°F9.9°C 47.9°F8.8°C 93% 2.9 mph SW4.7 kmh SW 4.0 mph6.4 kmh 29.92 in1013.2 mb 0.00 in0.0 mm 0.00 in0.0 mm 0.01 in0.3 mm
06:58 AM 49.8°F9.9°C 47.9°F8.8°C 93% 2.1 mph SW3.4 kmh SW 3.0 mph4.8 kmh 29.92 in1013.2 mb 0.00 in0.0 mm 0.00 in0.0 mm 0.01 in0.3 mm
06:59 AM 49.9°F9.9°C 48.0°F8.9°C 93% 1.4 mph SW2.3 kmh SW 3.0 mph4.8 kmh 29.92 in1013.2 mb 0.00 in0.0 mm 0.00 in0.0 mm 0.01 in0.3 mm
07:00 AM 49.9°F9.9°C 48.0°F8.9°C 93% 0.8 mph SW1.3 kmh SW 3.0 mph4.8 kmh 29.91 in1012.9 mb 0.00 in0.0 mm 0.00 in0.0 mm 0.01 in0.3 mm
07:01 AM 49.9°F9.9°C 48.0°F8.9°C 93% 1.0 mph SW1.6 kmh SW 2.0 mph3.2 kmh 29.91 in1012.9 mb 0.00 in0.0 mm 0.00 in0.0 mm 0.01 in0.3 mm
07:02 AM 49.9°F9.9°C 48.0°F8.9°C 93% 1.4 mph SW2.3 kmh SW 2.0 mph3.2 kmh 29.92 in1013.2 mb 0.00 in0.0 mm 0.00 in0.0 mm 0.01 in0.3 mm
07:03 AM 49.9°F9.9°C 48.0°F8.9°C 93% 1.4 mph SW2.3 kmh SW 2.0 mph3.2 kmh 29.92 in1013.2 mb 0.00 in0.0 mm 0.00 in0.0 mm 0.01 in0.3 mm
07:04 AM 49.9°F9.9°C 48.0°F8.9°C 93% 1.3 mph SW2.1 kmh SW 2.0 mph3.2 kmh 29.92 in1013.2 mb 0.00 in0.0 mm 0.00 in0.0 mm 0.01 in0.3 mm
07:05 AM 49.9°F9.9°C 48.0°F8.9°C 93% 1.6 mph SW2.6 kmh SW 2.0 mph3.2 kmh 29.92 in1013.2 mb 0.00 in0.0 mm 0.00 in0.0 mm 0.01 in0.3 mm
07:06 AM 49.9°F9.9°C 48.0°F8.9°C 93% 2.3 mph SW3.7 kmh SW 3.0 mph4.8 kmh 29.92 in1013.2 mb 0.00 in0.0 mm 0.00 in0.0 mm 0.01 in0.3 mm
07:07 AM 50.0°F10.0°C 48.1°F8.9°C 93% 1.9 mph SW3.1 kmh SW 3.0 mph4.8 kmh 29.92 in1013.2 mb 0.00 in0.0 mm 0.00 in0.0 mm 0.01 in0.3 mm
07:08 AM 50.0°F10.0°C 47.8°F8.8°C 92% 1.8 mph SW2.9 kmh SW 3.0 mph4.8 kmh 29.92 in1013.2 mb 0.00 in0.0 mm 0.00 in0.0 mm 0.01 in0.3 mm
07:09 AM 50.0°F10.0°C 48.1°F8.9°C 93% 1.6 mph SW2.6 kmh SW 3.0 mph4.8 kmh 29.92 in1013.2 mb 0.00 in0.0 mm 0.00 in0.0 mm 0.01 in0.3 mm
07:10 AM 50.1°F10.1°C 48.2°F9.0°C 93% 1.5 mph SW2.4 kmh SW 2.0 mph3.2 kmh 29.92 in1013.2 mb 0.00 in0.0 mm 0.00 in0.0 mm 0.01 in0.3 mm
07:11 AM 50.1°F10.1°C 48.2°F9.0°C 93% 1.8 mph SW2.9 kmh SW 3.0 mph4.8 kmh 29.92 in1013.2 mb 0.00 in0.0 mm 0.00 in0.0 mm 0.01 in0.3 mm
07:12 AM 50.1°F10.1°C 48.2°F9.0°C 93% 1.5 mph SW2.4 kmh SW 3.0 mph4.8 kmh 29.92 in1013.2 mb 0.00 in0.0 mm 0.00 in0.0 mm 0.01 in0.3 mm
07:13 AM 50.1°F10.1°C 48.2°F9.0°C 93% 1.1 mph SW1.8 kmh SW 2.0 mph3.2 kmh 29.92 in1013.2 mb 0.00 in0.0 mm 0.00 in0.0 mm 0.01 in0.3 mm
07:14 AM 50.1°F10.1°C 48.2°F9.0°C 93% 1.0 mph SW1.6 kmh SW 2.0 mph3.2 kmh 29.92 in1013.2 mb 0.00 in0.0 mm 0.00 in0.0 mm 0.01 in0.3 mm
07:15 AM 50.2°F10.1°C 48.3°F9.1°C 93% 1.6 mph S2.6 kmh S 4.0 mph6.4 kmh 29.92 in1013.2 mb 0.00 in0.0 mm 0.00 in0.0 mm 0.01 in0.3 mm
07:16 AM 50.3°F10.2°C 48.4°F9.1°C 93% 1.9 mph SSE3.1 kmh SSE 4.0 mph6.4 kmh 29.92 in1013.2 mb 0.00 in0.0 mm 0.00 in0.0 mm 0.01 in0.3 mm
07:17 AM 50.3°F10.2°C 48.4°F9.1°C 93% 1.3 mph SSE2.1 kmh SSE 4.0 mph6.4 kmh 29.92 in1013.2 mb 0.00 in0.0 mm 0.00 in0.0 mm 0.01 in0.3 mm
07:18 AM 50.4°F10.2°C 48.5°F9.2°C 93% 1.8 mph SSE2.9 kmh SSE 3.0 mph4.8 kmh 29.92 in1013.2 mb 0.00 in0.0 mm 0.00 in0.0 mm 0.01 in0.3 mm
07:19 AM 50.4°F10.2°C 48.5°F9.2°C 93% 1.7 mph SSE2.7 kmh SSE 3.0 mph4.8 kmh 29.92 in1013.2 mb 0.00 in0.0 mm 0.00 in0.0 mm 0.01 in0.3 mm
07:20 AM 50.5°F10.3°C 48.6°F9.2°C 93% 1.8 mph SSE2.9 kmh SSE 2.0 mph3.2 kmh 29.92 in1013.2 mb 0.00 in0.0 mm 0.00 in0.0 mm 0.01 in0.3 mm
07:21 AM 50.6°F10.3°C 48.7°F9.3°C 93% 2.0 mph SSE3.2 kmh SSE 3.0 mph4.8 kmh 29.92 in1013.2 mb 0.00 in0.0 mm 0.00 in0.0 mm 0.01 in0.3 mm
07:22 AM 50.6°F10.3°C 48.7°F9.3°C 93% 1.7 mph SSE2.7 kmh SSE 3.0 mph4.8 kmh 29.92 in1013.2 mb 0.00 in0.0 mm 0.00 in0.0 mm 0.01 in0.3 mm
07:23 AM 50.6°F10.3°C 48.7°F9.3°C 93% 2.0 mph SSE3.2 kmh SSE 3.0 mph4.8 kmh 29.92 in1013.2 mb 0.00 in0.0 mm 0.00 in0.0 mm 0.01 in0.3 mm
07:24 AM 50.7°F10.4°C 48.8°F9.3°C 93% 2.4 mph SSE3.9 kmh SSE 3.0 mph4.8 kmh 29.92 in1013.2 mb 0.00 in0.0 mm 0.00 in0.0 mm 0.01 in0.3 mm
07:25 AM 50.7°F10.4°C 48.8°F9.3°C 93% 1.8 mph SSE2.9 kmh SSE 3.0 mph4.8 kmh 29.92 in1013.2 mb 0.00 in0.0 mm 0.00 in0.0 mm 0.01 in0.3 mm
07:26 AM 50.8°F10.4°C 48.8°F9.3°C 93% 2.1 mph SSE3.4 kmh SSE 3.0 mph4.8 kmh 29.92 in1013.2 mb 0.00 in0.0 mm 0.00 in0.0 mm 0.01 in0.3 mm
07:27 AM 50.9°F10.5°C 48.9°F9.4°C 93% 2.3 mph SSE3.7 kmh SSE 3.0 mph4.8 kmh 29.92 in1013.2 mb 0.00 in0.0 mm 0.00 in0.0 mm 0.01 in0.3 mm
07:28 AM 50.9°F10.5°C 48.7°F9.3°C 92% 2.6 mph SE4.2 kmh SE 3.0 mph4.8 kmh 29.92 in1013.2 mb 0.00 in0.0 mm 0.00 in0.0 mm 0.01 in0.3 mm
07:29 AM 51.0°F10.6°C 48.8°F9.3°C 92% 2.5 mph SE4.0 kmh SE 3.0 mph4.8 kmh 29.92 in1013.2 mb 0.00 in0.0 mm 0.00 in0.0 mm 0.01 in0.3 mm
07:30 AM 51.0°F10.6°C 48.8°F9.3°C 92% 2.2 mph SE3.5 kmh SE 3.0 mph4.8 kmh 29.92 in1013.2 mb 0.00 in0.0 mm 0.00 in0.0 mm 0.01 in0.3 mm
07:31 AM 51.1°F10.6°C 48.9°F9.4°C 92% 1.9 mph SE3.1 kmh SE 3.0 mph4.8 kmh 29.92 in1013.2 mb 0.00 in0.0 mm 0.00 in0.0 mm 0.01 in0.3 mm
07:32 AM 51.2°F10.7°C 49.0°F9.4°C 92% 2.0 mph SE3.2 kmh SE 3.0 mph4.8 kmh 29.92 in1013.2 mb 0.00 in0.0 mm 0.00 in0.0 mm 0.01 in0.3 mm
07:33 AM 51.2°F10.7°C 49.0°F9.4°C 92% 1.9 mph SE3.1 kmh SE 3.0 mph4.8 kmh 29.92 in1013.2 mb 0.00 in0.0 mm 0.00 in0.0 mm 0.01 in0.3 mm
07:34 AM 51.2°F10.7°C 49.0°F9.4°C 92% 2.3 mph SE3.7 kmh SE 3.0 mph4.8 kmh 29.92 in1013.2 mb 0.00 in0.0 mm 0.00 in0.0 mm 0.01 in0.3 mm
07:35 AM 51.3°F10.7°C 49.1°F9.5°C 92% 2.1 mph SE3.4 kmh SE 3.0 mph4.8 kmh 29.92 in1013.2 mb 0.00 in0.0 mm 0.00 in0.0 mm 0.01 in0.3 mm
07:36 AM 51.3°F10.7°C 49.1°F9.5°C 92% 2.1 mph SE3.4 kmh SE 3.0 mph4.8 kmh 29.92 in1013.2 mb 0.00 in0.0 mm 0.00 in0.0 mm 0.01 in0.3 mm
07:37 AM 51.4°F10.8°C 49.2°F9.6°C 92% 2.3 mph SE3.7 kmh SE 3.0 mph4.8 kmh 29.92 in1013.2 mb 0.00 in0.0 mm 0.00 in0.0 mm 0.01 in0.3 mm
07:38 AM 51.5°F10.8°C 49.3°F9.6°C 92% 2.2 mph SE3.5 kmh SE 3.0 mph4.8 kmh 29.92 in1013.2 mb 0.00 in0.0 mm 0.00 in0.0 mm 0.01 in0.3 mm
07:39 AM 51.5°F10.8°C 49.3°F9.6°C 92% 3.4 mph SE5.5 kmh SE 4.0 mph6.4 kmh 29.92 in1013.2 mb 0.00 in0.0 mm 0.00 in0.0 mm 0.01 in0.3 mm
07:40 AM 51.4°F10.8°C 48.9°F9.4°C 91% 2.7 mph SE4.3 kmh SE 4.0 mph6.4 kmh 29.92 in1013.2 mb 0.00 in0.0 mm 0.00 in0.0 mm 0.01 in0.3 mm
07:41 AM 51.4°F10.8°C 48.9°F9.4°C 91% 2.7 mph SE4.3 kmh SE 4.0 mph6.4 kmh 29.92 in1013.2 mb 0.00 in0.0 mm 0.00 in0.0 mm 0.01 in0.3 mm
07:42 AM 51.4°F10.8°C 48.9°F9.4°C 91% 2.7 mph SE4.3 kmh SE 4.0 mph6.4 kmh 29.92 in1013.2 mb 0.00 in0.0 mm 0.00 in0.0 mm 0.01 in0.3 mm
07:43 AM 51.4°F10.8°C 48.9°F9.4°C 91% 3.2 mph SE5.1 kmh SE 4.0 mph6.4 kmh 29.92 in1013.2 mb 0.00 in0.0 mm 0.00 in0.0 mm 0.01 in0.3 mm
07:44 AM 51.3°F10.7°C 48.8°F9.3°C 91% 3.0 mph SE4.8 kmh SE 4.0 mph6.4 kmh 29.91 in1012.9 mb 0.00 in0.0 mm 0.00 in0.0 mm 0.01 in0.3 mm
07:45 AM 51.4°F10.8°C 48.9°F9.4°C 91% 2.6 mph SE4.2 kmh SE 4.0 mph6.4 kmh 29.92 in1013.2 mb 0.00 in0.0 mm 0.00 in0.0 mm 0.01 in0.3 mm
07:46 AM 51.3°F10.7°C 48.8°F9.3°C 91% 2.2 mph SSE3.5 kmh SSE 3.0 mph4.8 kmh 29.92 in1013.2 mb 0.00 in0.0 mm 0.00 in0.0 mm 0.01 in0.3 mm
07:47 AM 51.3°F10.7°C 48.8°F9.3°C 91% 3.8 mph SSE6.1 kmh SSE 5.0 mph8.0 kmh 29.92 in1013.2 mb 0.00 in0.0 mm 0.00 in0.0 mm 0.01 in0.3 mm
07:48 AM 51.3°F10.7°C 48.8°F9.3°C 91% 3.2 mph SSE5.1 kmh SSE 5.0 mph8.0 kmh 29.92 in1013.2 mb 0.00 in0.0 mm 0.00 in0.0 mm 0.01 in0.3 mm
07:49 AM 51.2°F10.7°C 48.7°F9.3°C 91% 2.4 mph SSE3.9 kmh SSE 5.0 mph8.0 kmh 29.92 in1013.2 mb 0.00 in0.0 mm 0.00 in0.0 mm 0.01 in0.3 mm
07:50 AM 51.3°F10.7°C 48.8°F9.3°C 91% 1.8 mph SSE2.9 kmh SSE 4.0 mph6.4 kmh 29.92 in1013.2 mb 0.00 in0.0 mm 0.00 in0.0 mm 0.01 in0.3 mm
07:51 AM 51.2°F10.7°C 48.7°F9.3°C 91% 2.7 mph SSE4.3 kmh SSE 4.0 mph6.4 kmh 29.92 in1013.2 mb 0.00 in0.0 mm 0.00 in0.0 mm 0.01 in0.3 mm
07:52 AM 51.2°F10.7°C 48.7°F9.3°C 91% 1.2 mph SSE1.9 kmh SSE 4.0 mph6.4 kmh 29.92 in1013.2 mb 0.00 in0.0 mm 0.00 in0.0 mm 0.01 in0.3 mm
07:53 AM 51.2°F10.7°C 48.7°F9.3°C 91% 1.8 mph SSE2.9 kmh SSE 3.0 mph4.8 kmh 29.92 in1013.2 mb 0.00 in0.0 mm 0.00 in0.0 mm 0.01 in0.3 mm
07:54 AM 51.2°F10.7°C 48.7°F9.3°C 91% 2.2 mph SSE3.5 kmh SSE 3.0 mph4.8 kmh 29.92 in1013.2 mb 0.00 in0.0 mm 0.00 in0.0 mm 0.01 in0.3 mm
07:55 AM 51.2°F10.7°C 48.7°F9.3°C 91% 1.6 mph SSE2.6 kmh SSE 3.0 mph4.8 kmh 29.92 in1013.2 mb 0.00 in0.0 mm 0.00 in0.0 mm 0.01 in0.3 mm
07:56 AM 51.2°F10.7°C 48.7°F9.3°C 91% 2.8 mph SSE4.5 kmh SSE 4.0 mph6.4 kmh 29.92 in1013.2 mb 0.00 in0.0 mm 0.00 in0.0 mm 0.01 in0.3 mm
07:57 AM 51.2°F10.7°C 48.7°F9.3°C 91% 1.8 mph S2.9 kmh S 4.0 mph6.4 kmh 29.92 in1013.2 mb 0.00 in0.0 mm 0.00 in0.0 mm 0.01 in0.3 mm
07:58 AM 51.2°F10.7°C 48.7°F9.3°C 91% 2.2 mph S3.5 kmh S 5.0 mph8.0 kmh 29.92 in1013.2 mb 0.00 in0.0 mm 0.00 in0.0 mm 0.01 in0.3 mm
07:59 AM 51.2°F10.7°C 48.7°F9.3°C 91% 3.0 mph SSE4.8 kmh SSE 5.0 mph8.0 kmh 29.92 in1013.2 mb 0.00 in0.0 mm 0.00 in0.0 mm 0.01 in0.3 mm
08:00 AM 51.3°F10.7°C 48.8°F9.3°C 91% 1.8 mph SSE2.9 kmh SSE 5.0 mph8.0 kmh 29.92 in1013.2 mb 0.00 in0.0 mm 0.00 in0.0 mm 0.01 in0.3 mm
08:01 AM 51.2°F10.7°C 48.7°F9.3°C 91% 1.4 mph SSE2.3 kmh SSE 3.0 mph4.8 kmh 29.92 in1013.2 mb 0.00 in0.0 mm 0.00 in0.0 mm 0.01 in0.3 mm
08:02 AM 51.3°F10.7°C 48.8°F9.3°C 91% 2.8 mph S4.5 kmh S 4.0 mph6.4 kmh 29.92 in1013.2 mb 0.00 in0.0 mm 0.00 in0.0 mm 0.01 in0.3 mm
08:03 AM 51.2°F10.7°C 48.7°F9.3°C 91% 2.0 mph S3.2 kmh S 5.0 mph8.0 kmh 29.92 in1013.2 mb 0.00 in0.0 mm 0.00 in0.0 mm 0.01 in0.3 mm
08:04 AM 51.3°F10.7°C 48.8°F9.3°C 91% 3.3 mph S5.3 kmh S 5.0 mph8.0 kmh 29.92 in1013.2 mb 0.00 in0.0 mm 0.00 in0.0 mm 0.01 in0.3 mm
08:05 AM 51.3°F10.7°C 48.8°F9.3°C 91% 3.7 mph S6.0 kmh S 5.0 mph8.0 kmh 29.92 in1013.2 mb 0.00 in0.0 mm 0.00 in0.0 mm 0.01 in0.3 mm
08:06 AM 51.3°F10.7°C 48.8°F9.3°C 91% 2.6 mph S4.2 kmh S 5.0 mph8.0 kmh 29.92 in1013.2 mb 0.00 in0.0 mm 0.00 in0.0 mm 0.01 in0.3 mm
08:07 AM 51.3°F10.7°C 48.8°F9.3°C 91% 3.0 mph S4.8 kmh S 4.0 mph6.4 kmh 29.92 in1013.2 mb 0.00 in0.0 mm 0.00 in0.0 mm 0.01 in0.3 mm
08:08 AM 51.3°F10.7°C 48.8°F9.3°C 91% 3.8 mph S6.1 kmh S 5.0 mph8.0 kmh 29.92 in1013.2 mb 0.00 in0.0 mm 0.00 in0.0 mm 0.01 in0.3 mm
08:09 AM 51.3°F10.7°C 48.8°F9.3°C 91% 3.5 mph S5.6 kmh S 5.0 mph8.0 kmh 29.92 in1013.2 mb 0.00 in0.0 mm 0.00 in0.0 mm 0.01 in0.3 mm
08:10 AM 51.4°F10.8°C 48.9°F9.4°C 91% 1.8 mph S2.9 kmh S 5.0 mph8.0 kmh 29.92 in1013.2 mb 0.00 in0.0 mm 0.00 in0.0 mm 0.01 in0.3 mm
08:11 AM 51.4°F10.8°C 48.9°F9.4°C 91% 1.2 mph S1.9 kmh S 3.0 mph4.8 kmh 29.92 in1013.2 mb 0.00 in0.0 mm 0.00 in0.0 mm 0.01 in0.3 mm
08:12 AM 51.5°F10.8°C 49.0°F9.4°C 91% 2.8 mph SSE4.5 kmh SSE 5.0 mph8.0 kmh 29.92 in1013.2 mb 0.00 in0.0 mm 0.00 in0.0 mm 0.01 in0.3 mm
08:13 AM 51.5°F10.8°C 49.0°F9.4°C 91% 3.9 mph SSE6.3 kmh SSE 5.0 mph8.0 kmh 29.93 in1013.5 mb 0.00 in0.0 mm 0.00 in0.0 mm 0.01 in0.3 mm
08:14 AM 51.7°F10.9°C 49.2°F9.6°C 91% 2.7 mph SSE4.3 kmh SSE 5.0 mph8.0 kmh 29.92 in1013.2 mb 0.00 in0.0 mm 0.00 in0.0 mm 0.01 in0.3 mm
08:15 AM 51.7°F10.9°C 49.2°F9.6°C 91% 1.6 mph SSE2.6 kmh SSE 4.0 mph6.4 kmh 29.93 in1013.5 mb 0.00 in0.0 mm 0.00 in0.0 mm 0.01 in0.3 mm
08:16 AM 51.8°F11.0°C 49.3°F9.6°C 91% 3.7 mph SE6.0 kmh SE 5.0 mph8.0 kmh 29.92 in1013.2 mb 0.00 in0.0 mm 0.00 in0.0 mm 0.01 in0.3 mm
08:17 AM 51.8°F11.0°C 49.3°F9.6°C 91% 4.4 mph SE7.1 kmh SE 5.0 mph8.0 kmh 29.92 in1013.2 mb 0.00 in0.0 mm 0.00 in0.0 mm 0.01 in0.3 mm
08:18 AM 51.7°F10.9°C 49.2°F9.6°C 91% 4.3 mph SE6.9 kmh SE 5.0 mph8.0 kmh 29.93 in1013.5 mb 0.00 in0.0 mm 0.00 in0.0 mm 0.01 in0.3 mm
08:19 AM 51.8°F11.0°C 49.3°F9.6°C 91% 4.6 mph SE7.4 kmh SE 6.0 mph9.7 kmh 29.92 in1013.2 mb 0.00 in0.0 mm 0.00 in0.0 mm 0.01 in0.3 mm
08:20 AM 51.8°F11.0°C 49.3°F9.6°C 91% 3.9 mph SE6.3 kmh SE 6.0 mph9.7 kmh 29.92 in1013.2 mb 0.00 in0.0 mm 0.00 in0.0 mm 0.01 in0.3 mm
08:21 AM 51.9°F11.1°C 49.4°F9.7°C 91% 4.2 mph SE6.8 kmh SE 6.0 mph9.7 kmh 29.92 in1013.2 mb 0.00 in0.0 mm 0.00 in0.0 mm 0.01 in0.3 mm
08:22 AM 51.9°F11.1°C 49.4°F9.7°C 91% 3.8 mph SE6.1 kmh SE 6.0 mph9.7 kmh 29.93 in1013.5 mb 0.00 in0.0 mm 0.00 in0.0 mm 0.01 in0.3 mm
08:23 AM 51.9°F11.1°C 49.4°F9.7°C 91% 2.7 mph SE4.3 kmh SE 4.0 mph6.4 kmh 29.93 in1013.5 mb 0.00 in0.0 mm 0.00 in0.0 mm 0.01 in0.3 mm
08:24 AM 52.0°F11.1°C 49.5°F9.7°C 91% 2.3 mph SE3.7 kmh SE 4.0 mph6.4 kmh 29.93 in1013.5 mb 0.00 in0.0 mm 0.00 in0.0 mm 0.01 in0.3 mm
08:25 AM 52.0°F11.1°C 49.5°F9.7°C 91% 2.3 mph SE3.7 kmh SE 3.0 mph4.8 kmh 29.93 in1013.5 mb 0.00 in0.0 mm 0.00 in0.0 mm 0.01 in0.3 mm
08:26 AM 52.0°F11.1°C 49.5°F9.7°C 91% 2.3 mph SE3.7 kmh SE 3.0 mph4.8 kmh 29.93 in1013.5 mb 0.00 in0.0 mm 0.00 in0.0 mm 0.01 in0.3 mm
08:27 AM 52.2°F11.2°C 49.7°F9.8°C 91% 2.5 mph SE4.0 kmh SE 3.0 mph4.8 kmh 29.93 in1013.5 mb 0.00 in0.0 mm 0.00 in0.0 mm 0.01 in0.3 mm
08:28 AM 52.1°F11.2°C 49.6°F9.8°C 91% 2.1 mph SE3.4 kmh SE 3.0 mph4.8 kmh 29.93 in1013.5 mb 0.00 in0.0 mm 0.00 in0.0 mm 0.01 in0.3 mm
08:29 AM 52.1°F11.2°C 49.6°F9.8°C 91% 2.4 mph SE3.9 kmh SE 3.0 mph4.8 kmh 29.93 in1013.5 mb 0.00 in0.0 mm 0.00 in0.0 mm 0.01 in0.3 mm
08:30 AM 52.2°F11.2°C 49.7°F9.8°C 91% 2.6 mph SE4.2 kmh SE 3.0 mph4.8 kmh 29.93 in1013.5 mb 0.00 in0.0 mm 0.00 in0.0 mm 0.01 in0.3 mm
08:31 AM 52.3°F11.3°C 49.8°F9.9°C 91% 1.9 mph SE3.1 kmh SE 3.0 mph4.8 kmh 29.93 in1013.5 mb 0.00 in0.0 mm 0.00 in0.0 mm 0.01 in0.3 mm
08:32 AM 52.3°F11.3°C 49.8°F9.9°C 91% 1.3 mph SE2.1 kmh SE 3.0 mph4.8 kmh 29.93 in1013.5 mb 0.00 in0.0 mm 0.00 in0.0 mm 0.01 in0.3 mm
08:33 AM 52.3°F11.3°C 49.8°F9.9°C 91% 2.5 mph SE4.0 kmh SE 3.0 mph4.8 kmh 29.93 in1013.5 mb 0.00 in0.0 mm 0.00 in0.0 mm 0.01 in0.3 mm
08:34 AM 52.3°F11.3°C 49.8°F9.9°C 91% 2.2 mph SE3.5 kmh SE 3.0 mph4.8 kmh 29.93 in1013.5 mb 0.00 in0.0 mm 0.00 in0.0 mm 0.01 in0.3 mm
08:35 AM 52.3°F11.3°C 49.8°F9.9°C 91% 2.3 mph SE3.7 kmh SE 3.0 mph4.8 kmh 29.93 in1013.5 mb 0.00 in0.0 mm 0.00 in0.0 mm 0.01 in0.3 mm
08:36 AM 52.4°F11.3°C 49.8°F9.9°C 91% 1.4 mph SE2.3 kmh SE 3.0 mph4.8 kmh 29.93 in1013.5 mb 0.00 in0.0 mm 0.00 in0.0 mm 0.01 in0.3 mm
08:37 AM 52.5°F11.4°C 49.9°F9.9°C 91% 1.2 mph SE1.9 kmh SE 3.0 mph4.8 kmh 29.93 in1013.5 mb 0.00 in0.0 mm 0.00 in0.0 mm 0.01 in0.3 mm
08:38 AM 52.6°F11.4°C 50.0°F10.0°C 91% 2.0 mph SE3.2 kmh SE 4.0 mph6.4 kmh 29.93 in1013.5 mb 0.00 in0.0 mm 0.00 in0.0 mm 0.01 in0.3 mm
08:39 AM 52.7°F11.5°C 49.8°F9.9°C 90% 2.2 mph ESE3.5 kmh ESE 4.0 mph6.4 kmh 29.93 in1013.5 mb 0.00 in0.0 mm 0.00 in0.0 mm 0.01 in0.3 mm
08:40 AM 52.9°F11.6°C 50.3°F10.2°C 91% 1.9 mph SE3.1 kmh SE 3.0 mph4.8 kmh 29.93 in1013.5 mb 0.00 in0.0 mm 0.00 in0.0 mm 0.01 in0.3 mm
08:41 AM 53.0°F11.7°C 50.4°F10.2°C 91% 0.8 mph SE1.3 kmh SE 3.0 mph4.8 kmh 29.93 in1013.5 mb 0.00 in0.0 mm 0.00 in0.0 mm 0.01 in0.3 mm
08:42 AM 53.2°F11.8°C 50.6°F10.3°C 91% 1.1 mph SE1.8 kmh SE 2.0 mph3.2 kmh 29.93 in1013.5 mb 0.00 in0.0 mm 0.00 in0.0 mm 0.01 in0.3 mm
08:43 AM 53.3°F11.8°C 50.4°F10.2°C 90% 2.1 mph SE3.4 kmh SE 3.0 mph4.8 kmh 29.93 in1013.5 mb 0.00 in0.0 mm 0.00 in0.0 mm 0.01 in0.3 mm
08:44 AM 53.5°F11.9°C 50.6°F10.3°C 90% 1.8 mph SE2.9 kmh SE 3.0 mph4.8 kmh 29.93 in1013.5 mb 0.00 in0.0 mm 0.00 in0.0 mm 0.01 in0.3 mm
08:45 AM 53.7°F12.1°C 50.8°F10.4°C 90% 1.5 mph SE2.4 kmh SE 3.0 mph4.8 kmh 29.93 in1013.5 mb 0.00 in0.0 mm 0.00 in0.0 mm 0.01 in0.3 mm
08:46 AM 53.8°F12.1°C 50.6°F10.3°C 89% 0.8 mph SE1.3 kmh SE 2.0 mph3.2 kmh 29.93 in1013.5 mb 0.00 in0.0 mm 0.00 in0.0 mm 0.01 in0.3 mm
08:47 AM 54.0°F12.2°C 50.8°F10.4°C 89% 1.1 mph SE1.8 kmh SE 2.0 mph3.2 kmh 29.93 in1013.5 mb 0.00 in0.0 mm 0.00 in0.0 mm 0.01 in0.3 mm
08:48 AM 54.1°F12.3°C 50.9°F10.5°C 89% 2.0 mph SE3.2 kmh SE 3.0 mph4.8 kmh 29.93 in1013.5 mb 0.00 in0.0 mm 0.00 in0.0 mm 0.01 in0.3 mm
08:49 AM 54.1°F12.3°C 50.6°F10.3°C 88% 1.8 mph SE2.9 kmh SE 3.0 mph4.8 kmh 29.93 in1013.5 mb 0.00 in0.0 mm 0.00 in0.0 mm 0.01 in0.3 mm
08:50 AM 54.1°F12.3°C 50.6°F10.3°C 88% 0.7 mph SE1.1 kmh SE 3.0 mph4.8 kmh 29.93 in1013.5 mb 0.00 in0.0 mm 0.00 in0.0 mm 0.01 in0.3 mm
08:51 AM 54.1°F12.3°C 50.3°F10.2°C 87% 1.2 mph SE1.9 kmh SE 2.0 mph3.2 kmh 29.93 in1013.5 mb 0.00 in0.0 mm 0.00 in0.0 mm 0.01 in0.3 mm
08:52 AM 54.1°F12.3°C 50.3°F10.2°C 87% 1.5 mph SE2.4 kmh SE 2.0 mph3.2 kmh 29.93 in1013.5 mb 0.00 in0.0 mm 0.00 in0.0 mm 0.01 in0.3 mm
08:53 AM 54.1°F12.3°C 50.3°F10.2°C 87% 0.6 mph SE1.0 kmh SE 2.0 mph3.2 kmh 29.93 in1013.5 mb 0.00 in0.0 mm 0.00 in0.0 mm 0.01 in0.3 mm
08:54 AM 54.1°F12.3°C 50.6°F10.3°C 88% 1.8 mph SE2.9 kmh SE 3.0 mph4.8 kmh 29.93 in1013.5 mb 0.00 in0.0 mm 0.00 in0.0 mm 0.01 in0.3 mm
08:55 AM 54.1°F12.3°C 50.3°F10.2°C 87% 2.6 mph E4.2 kmh E 4.0 mph6.4 kmh 29.93 in1013.5 mb 0.00 in0.0 mm 0.00 in0.0 mm 0.01 in0.3 mm
08:56 AM 54.0°F12.2°C 50.2°F10.1°C 87% 2.5 mph ESE4.0 kmh ESE 4.0 mph6.4 kmh 29.93 in1013.5 mb 0.00 in0.0 mm 0.00 in0.0 mm 0.01 in0.3 mm
08:57 AM 54.0°F12.2°C 50.2°F10.1°C 87% 2.4 mph SE3.9 kmh SE 3.0 mph4.8 kmh 29.93 in1013.5 mb 0.00 in0.0 mm 0.00 in0.0 mm 0.01 in0.3 mm
08:58 AM 53.9°F12.2°C 50.1°F10.1°C 87% 2.4 mph ESE3.9 kmh ESE 3.0 mph4.8 kmh 29.93 in1013.5 mb 0.00 in0.0 mm 0.00 in0.0 mm 0.01 in0.3 mm
08:59 AM 53.9°F12.2°C 50.1°F10.1°C 87% 2.2 mph ESE3.5 kmh ESE 3.0 mph4.8 kmh 29.93 in1013.5 mb 0.00 in0.0 mm 0.00 in0.0 mm 0.01 in0.3 mm
09:00 AM 53.8°F12.1°C 50.3°F10.2°C 88% 2.7 mph ESE4.3 kmh ESE 3.0 mph4.8 kmh 29.93 in1013.5 mb 0.00 in0.0 mm 0.00 in0.0 mm 0.01 in0.3 mm
09:01 AM 53.8°F12.1°C 50.3°F10.2°C 88% 3.3 mph SE5.3 kmh SE 4.0 mph6.4 kmh 29.93 in1013.5 mb 0.00 in0.0 mm 0.00 in0.0 mm 0.01 in0.3 mm
09:02 AM 53.7°F12.1°C 50.2°F10.1°C 88% 2.5 mph SE4.0 kmh SE 4.0 mph6.4 kmh 29.93 in1013.5 mb 0.00 in0.0 mm 0.00 in0.0 mm 0.01 in0.3 mm
09:03 AM 53.7°F12.1°C 50.2°F10.1°C 88% 2.4 mph SE3.9 kmh SE 4.0 mph6.4 kmh 29.93 in1013.5 mb 0.00 in0.0 mm 0.00 in0.0 mm 0.01 in0.3 mm
09:04 AM 53.6°F12.0°C 50.1°F10.1°C 88% 1.6 mph SE2.6 kmh SE 4.0 mph6.4 kmh 29.93 in1013.5 mb 0.00 in0.0 mm 0.00 in0.0 mm 0.01 in0.3 mm
09:05 AM 53.6°F12.0°C 50.1°F10.1°C 88% 1.2 mph SE1.9 kmh SE 2.0 mph3.2 kmh 29.93 in1013.5 mb 0.00 in0.0 mm 0.00 in0.0 mm 0.01 in0.3 mm
09:06 AM 53.7°F12.1°C 50.2°F10.1°C 88% 2.4 mph SE3.9 kmh SE 3.0 mph4.8 kmh 29.93 in1013.5 mb 0.00 in0.0 mm 0.00 in0.0 mm 0.01 in0.3 mm
09:07 AM 53.6°F12.0°C 50.1°F10.1°C 88% 3.0 mph SE4.8 kmh SE 4.0 mph6.4 kmh 29.93 in1013.5 mb 0.00 in0.0 mm 0.00 in0.0 mm 0.01 in0.3 mm
09:08 AM 53.6°F12.0°C 50.1°F10.1°C 88% 2.4 mph SE3.9 kmh SE 4.0 mph6.4 kmh 29.93 in1013.5 mb 0.00 in0.0 mm 0.00 in0.0 mm 0.01 in0.3 mm
09:09 AM 53.6°F12.0°C 50.1°F10.1°C 88% 2.3 mph SE3.7 kmh SE 3.0 mph4.8 kmh 29.93 in1013.5 mb 0.00 in0.0 mm 0.00 in0.0 mm 0.01 in0.3 mm
09:10 AM 53.6°F12.0°C 50.1°F10.1°C 88% 1.5 mph SE2.4 kmh SE 3.0 mph4.8 kmh 29.93 in1013.5 mb 0.00 in0.0 mm 0.00 in0.0 mm 0.01 in0.3 mm
09:11 AM 53.7°F12.1°C 50.2°F10.1°C 88% 1.5 mph SE2.4 kmh SE 2.0 mph3.2 kmh 29.93 in1013.5 mb 0.00 in0.0 mm 0.00 in0.0 mm 0.01 in0.3 mm
09:12 AM 53.6°F12.0°C 50.1°F10.1°C 88% 1.3 mph SE2.1 kmh SE 2.0 mph3.2 kmh 29.93 in1013.5 mb 0.00 in0.0 mm 0.00 in0.0 mm 0.01 in0.3 mm
09:13 AM 53.7°F12.1°C 50.5°F10.3°C 89% 0.7 mph SE1.1 kmh SE 2.0 mph3.2 kmh 29.93 in1013.5 mb 0.00 in0.0 mm 0.00 in0.0 mm 0.01 in0.3 mm
09:14 AM 53.7°F12.1°C 50.5°F10.3°C 89% 1.5 mph SE2.4 kmh SE 2.0 mph3.2 kmh 29.93 in1013.5 mb 0.00 in0.0 mm 0.00 in0.0 mm 0.01 in0.3 mm
09:15 AM 53.8°F12.1°C 50.6°F10.3°C 89% 1.0 mph SE1.6 kmh SE 2.0 mph3.2 kmh 29.93 in1013.5 mb 0.00 in0.0 mm 0.00 in0.0 mm 0.01 in0.3 mm
09:16 AM 53.9°F12.2°C 50.4°F10.2°C 88% 1.0 mph SE1.6 kmh SE 2.0 mph3.2 kmh 29.93 in1013.5 mb 0.00 in0.0 mm 0.00 in0.0 mm 0.01 in0.3 mm
09:17 AM 53.9°F12.2°C 50.7°F10.4°C 89% 0.7 mph SE1.1 kmh SE 2.0 mph3.2 kmh 29.93 in1013.5 mb 0.00 in0.0 mm 0.00 in0.0 mm 0.01 in0.3 mm
09:18 AM 54.1°F12.3°C 50.9°F10.5°C 89% 0.6 mph SE1.0 kmh SE 2.0 mph3.2 kmh 29.93 in1013.5 mb 0.00 in0.0 mm 0.00 in0.0 mm 0.01 in0.3 mm
09:19 AM 54.2°F12.3°C 51.0°F10.6°C 89% 1.1 mph SE1.8 kmh SE 2.0 mph3.2 kmh 29.93 in1013.5 mb 0.00 in0.0 mm 0.00 in0.0 mm 0.01 in0.3 mm
09:20 AM 54.4°F12.4°C 51.2°F10.7°C 89% 1.3 mph SE2.1 kmh SE 2.0 mph3.2 kmh 29.93 in1013.5 mb 0.00 in0.0 mm 0.00 in0.0 mm 0.01 in0.3 mm
09:21 AM 54.5°F12.5°C 51.0°F10.6°C 88% 2.3 mph SE3.7 kmh SE 3.0 mph4.8 kmh 29.93 in1013.5 mb 0.00 in0.0 mm 0.00 in0.0 mm 0.01 in0.3 mm
09:22 AM 54.6°F12.6°C 50.8°F10.4°C 87% 1.8 mph SE2.9 kmh SE 3.0 mph4.8 kmh 29.93 in1013.5 mb 0.00 in0.0 mm 0.00 in0.0 mm 0.01 in0.3 mm
09:23 AM 54.7°F12.6°C 50.9°F10.5°C 87% 2.5 mph SE4.0 kmh SE 3.0 mph4.8 kmh 29.93 in1013.5 mb 0.00 in0.0 mm 0.00 in0.0 mm 0.01 in0.3 mm
09:24 AM 54.8°F12.7°C 50.7°F10.4°C 86% 2.2 mph SE3.5 kmh SE 3.0 mph4.8 kmh 29.93 in1013.5 mb 0.00 in0.0 mm 0.00 in0.0 mm 0.01 in0.3 mm
09:25 AM 54.8°F12.7°C 50.7°F10.4°C 86% 2.7 mph E4.3 kmh E 3.0 mph4.8 kmh 29.93 in1013.5 mb 0.00 in0.0 mm 0.00 in0.0 mm 0.01 in0.3 mm
09:26 AM 54.9°F12.7°C 50.8°F10.4°C 86% 3.1 mph ESE5.0 kmh ESE 4.0 mph6.4 kmh 29.93 in1013.5 mb 0.00 in0.0 mm 0.00 in0.0 mm 0.01 in0.3 mm
09:27 AM 54.9°F12.7°C 50.8°F10.4°C 86% 3.1 mph E5.0 kmh E 4.0 mph6.4 kmh 29.93 in1013.5 mb 0.00 in0.0 mm 0.00 in0.0 mm 0.01 in0.3 mm
09:28 AM 54.9°F12.7°C 50.8°F10.4°C 86% 2.8 mph E4.5 kmh E 4.0 mph6.4 kmh 29.93 in1013.5 mb 0.00 in0.0 mm 0.00 in0.0 mm 0.01 in0.3 mm
09:29 AM 54.9°F12.7°C 50.8°F10.4°C 86% 1.1 mph E1.8 kmh E 4.0 mph6.4 kmh 29.93 in1013.5 mb 0.00 in0.0 mm 0.00 in0.0 mm 0.01 in0.3 mm
09:30 AM 55.0°F12.8°C 50.9°F10.5°C 86% 2.4 mph E3.9 kmh E 3.0 mph4.8 kmh 29.93 in1013.5 mb 0.00 in0.0 mm 0.00 in0.0 mm 0.01 in0.3 mm
09:31 AM 55.1°F12.8°C 50.7°F10.4°C 85% 3.2 mph E5.1 kmh E 4.0 mph6.4 kmh 29.93 in1013.5 mb 0.00 in0.0 mm 0.00 in0.0 mm 0.01 in0.3 mm
09:32 AM 55.1°F12.8°C 51.0°F10.6°C 86% 2.3 mph ESE3.7 kmh ESE 4.0 mph6.4 kmh 29.93 in1013.5 mb 0.00 in0.0 mm 0.00 in0.0 mm 0.01 in0.3 mm
09:33 AM 55.2°F12.9°C 51.1°F10.6°C 86% 1.6 mph SE2.6 kmh SE 3.0 mph4.8 kmh 29.93 in1013.5 mb 0.00 in0.0 mm 0.00 in0.0 mm 0.01 in0.3 mm
09:34 AM 55.3°F12.9°C 50.9°F10.5°C 85% 2.9 mph E4.7 kmh E 4.0 mph6.4 kmh 29.93 in1013.5 mb 0.00 in0.0 mm 0.00 in0.0 mm 0.01 in0.3 mm
09:35 AM 55.4°F13.0°C 50.6°F10.3°C 84% 2.7 mph E4.3 kmh E 4.0 mph6.4 kmh 29.93 in1013.5 mb 0.00 in0.0 mm 0.00 in0.0 mm 0.01 in0.3 mm
09:36 AM 55.5°F13.1°C 50.7°F10.4°C 84% 2.9 mph E4.7 kmh E 4.0 mph6.4 kmh 29.93 in1013.5 mb 0.00 in0.0 mm 0.00 in0.0 mm 0.01 in0.3 mm
09:37 AM 55.6°F13.1°C 50.8°F10.4°C 84% 2.4 mph E3.9 kmh E 4.0 mph6.4 kmh 29.93 in1013.5 mb 0.00 in0.0 mm 0.00 in0.0 mm 0.01 in0.3 mm
09:38 AM 55.6°F13.1°C 50.8°F10.4°C 84% 2.2 mph E3.5 kmh E 3.0 mph4.8 kmh 29.93 in1013.5 mb 0.00 in0.0 mm 0.00 in0.0 mm 0.01 in0.3 mm
09:39 AM 55.7°F13.2°C 50.9°F10.5°C 84% 1.5 mph E2.4 kmh E 3.0 mph4.8 kmh 29.93 in1013.5 mb 0.00 in0.0 mm 0.00 in0.0 mm 0.01 in0.3 mm
09:40 AM 55.8°F13.2°C 51.0°F10.6°C 84% 1.4 mph E2.3 kmh E 3.0 mph4.8 kmh 29.93 in1013.5 mb 0.00 in0.0 mm 0.00 in0.0 mm 0.01 in0.3 mm
09:41 AM 55.9°F13.3°C 51.1°F10.6°C 84% 1.9 mph SE3.1 kmh SE 3.0 mph4.8 kmh 29.93 in1013.5 mb 0.00 in0.0 mm 0.00 in0.0 mm 0.01 in0.3 mm
09:42 AM 56.0°F13.3°C 51.2°F10.7°C 84% 2.1 mph ESE3.4 kmh ESE 3.0 mph4.8 kmh 29.93 in1013.5 mb 0.00 in0.0 mm 0.00 in0.0 mm 0.01 in0.3 mm
09:43 AM 56.1°F13.4°C 51.0°F10.6°C 83% 1.6 mph E2.6 kmh E 3.0 mph4.8 kmh 29.93 in1013.5 mb 0.00 in0.0 mm 0.00 in0.0 mm 0.01 in0.3 mm
09:44 AM 56.2°F13.4°C 51.1°F10.6°C 83% 1.7 mph E2.7 kmh E 3.0 mph4.8 kmh 29.93 in1013.5 mb 0.00 in0.0 mm 0.00 in0.0 mm 0.01 in0.3 mm
09:45 AM 56.3°F13.5°C 51.2°F10.7°C 83% 1.9 mph E3.1 kmh E 3.0 mph4.8 kmh 29.93 in1013.5 mb 0.00 in0.0 mm 0.00 in0.0 mm 0.01 in0.3 mm
09:46 AM 56.4°F13.6°C 51.0°F10.6°C 82% 2.3 mph E3.7 kmh E 3.0 mph4.8 kmh 29.93 in1013.5 mb 0.00 in0.0 mm 0.00 in0.0 mm 0.01 in0.3 mm
09:47 AM 56.5°F13.6°C 51.1°F10.6°C 82% 2.6 mph E4.2 kmh E 4.0 mph6.4 kmh 29.93 in1013.5 mb 0.00 in0.0 mm 0.00 in0.0 mm 0.01 in0.3 mm
09:48 AM 56.5°F13.6°C 50.7°F10.4°C 81% 2.8 mph SE4.5 kmh SE 4.0 mph6.4 kmh 29.93 in1013.5 mb 0.00 in0.0 mm 0.00 in0.0 mm 0.01 in0.3 mm
09:49 AM 56.5°F13.6°C 50.7°F10.4°C 81% 3.4 mph SE5.5 kmh SE 5.0 mph8.0 kmh 29.93 in1013.5 mb 0.00 in0.0 mm 0.00 in0.0 mm 0.01 in0.3 mm
09:50 AM 56.4°F13.6°C 50.3°F10.2°C 80% 3.6 mph SE5.8 kmh SE 5.0 mph8.0 kmh 29.93 in1013.5 mb 0.00 in0.0 mm 0.00 in0.0 mm 0.01 in0.3 mm
09:51 AM 56.4°F13.6°C 50.3°F10.2°C 80% 3.7 mph SE6.0 kmh SE 5.0 mph8.0 kmh 29.93 in1013.5 mb 0.00 in0.0 mm 0.00 in0.0 mm 0.01 in0.3 mm
09:52 AM 56.3°F13.5°C 50.2°F10.1°C 80% 3.3 mph SE5.3 kmh SE 5.0 mph8.0 kmh 29.93 in1013.5 mb 0.00 in0.0 mm 0.00 in0.0 mm 0.01 in0.3 mm
09:53 AM 56.2°F13.4°C 50.4°F10.2°C 81% 2.1 mph SE3.4 kmh SE 4.0 mph6.4 kmh 29.93 in1013.5 mb 0.00 in0.0 mm 0.00 in0.0 mm 0.01 in0.3 mm
09:54 AM 56.1°F13.4°C 50.7°F10.4°C 82% 2.1 mph SE3.4 kmh SE 4.0 mph6.4 kmh 29.93 in1013.5 mb 0.00 in0.0 mm 0.00 in0.0 mm 0.01 in0.3 mm
09:55 AM 56.2°F13.4°C 50.8°F10.4°C 82% 3.0 mph SE4.8 kmh SE 4.0 mph6.4 kmh 29.93 in1013.5 mb 0.00 in0.0 mm 0.00 in0.0 mm 0.01 in0.3 mm
09:56 AM 56.2°F13.4°C 51.1°F10.6°C 83% 4.0 mph S6.4 kmh S 6.0 mph9.7 kmh 29.93 in1013.5 mb 0.00 in0.0 mm 0.00 in0.0 mm 0.01 in0.3 mm
09:57 AM 56.2°F13.4°C 51.1°F10.6°C 83% 3.3 mph SSE5.3 kmh SSE 6.0 mph9.7 kmh 29.93 in1013.5 mb 0.00 in0.0 mm 0.00 in0.0 mm 0.01 in0.3 mm
09:58 AM 56.1°F13.4°C 50.7°F10.4°C 82% 4.7 mph SE7.6 kmh SE 7.0 mph11.3 kmh 29.93 in1013.5 mb 0.00 in0.0 mm 0.00 in0.0 mm 0.01 in0.3 mm
09:59 AM 56.2°F13.4°C 50.8°F10.4°C 82% 3.5 mph SE5.6 kmh SE 7.0 mph11.3 kmh 29.93 in1013.5 mb 0.00 in0.0 mm 0.00 in0.0 mm 0.01 in0.3 mm
10:00 AM 56.1°F13.4°C 51.0°F10.6°C 83% 6.2 mph SE10.0 kmh SE 7.0 mph11.3 kmh 29.93 in1013.5 mb 0.00 in0.0 mm 0.00 in0.0 mm 0.01 in0.3 mm
10:01 AM 56.1°F13.4°C 50.7°F10.4°C 82% 5.0 mph SSE8.0 kmh SSE 7.0 mph11.3 kmh 29.93 in1013.5 mb 0.00 in0.0 mm 0.00 in0.0 mm 0.01 in0.3 mm
10:02 AM 56.0°F13.3°C 50.9°F10.5°C 83% 3.5 mph SE5.6 kmh SE 6.0 mph9.7 kmh 29.93 in1013.5 mb 0.00 in0.0 mm 0.00 in0.0 mm 0.01 in0.3 mm
10:03 AM 56.0°F13.3°C 50.9°F10.5°C 83% 3.8 mph SSE6.1 kmh SSE 5.0 mph8.0 kmh 29.93 in1013.5 mb 0.00 in0.0 mm 0.00 in0.0 mm 0.01 in0.3 mm
10:04 AM 56.0°F13.3°C 50.9°F10.5°C 83% 4.6 mph SE7.4 kmh SE 6.0 mph9.7 kmh 29.93 in1013.5 mb 0.00 in0.0 mm 0.00 in0.0 mm 0.01 in0.3 mm
10:05 AM 56.0°F13.3°C 50.9°F10.5°C 83% 3.7 mph SE6.0 kmh SE 6.0 mph9.7 kmh 29.93 in1013.5 mb 0.00 in0.0 mm 0.00 in0.0 mm 0.01 in0.3 mm
10:06 AM 56.0°F13.3°C 50.3°F10.2°C 81% 2.3 mph SE3.7 kmh SE 5.0 mph8.0 kmh 29.93 in1013.5 mb 0.00 in0.0 mm 0.00 in0.0 mm 0.01 in0.3 mm
10:07 AM 56.0°F13.3°C 50.3°F10.2°C 81% 1.9 mph SE3.1 kmh SE 3.0 mph4.8 kmh 29.93 in1013.5 mb 0.00 in0.0 mm 0.00 in0.0 mm 0.01 in0.3 mm
10:08 AM 56.2°F13.4°C 50.8°F10.4°C 82% 3.1 mph SE5.0 kmh SE 5.0 mph8.0 kmh 29.93 in1013.5 mb 0.00 in0.0 mm 0.00 in0.0 mm 0.01 in0.3 mm
10:09 AM 56.2°F13.4°C 50.1°F10.1°C 80% 2.9 mph ESE4.7 kmh ESE 5.0 mph8.0 kmh 29.93 in1013.5 mb 0.00 in0.0 mm 0.00 in0.0 mm 0.01 in0.3 mm
10:10 AM 56.2°F13.4°C 50.4°F10.2°C 81% 3.2 mph ESE5.1 kmh ESE 4.0 mph6.4 kmh 29.93 in1013.5 mb 0.00 in0.0 mm 0.00 in0.0 mm 0.01 in0.3 mm
10:11 AM 56.2°F13.4°C 50.4°F10.2°C 81% 3.2 mph SE5.1 kmh SE 5.0 mph8.0 kmh 29.93 in1013.5 mb 0.00 in0.0 mm 0.00 in0.0 mm 0.01 in0.3 mm
10:12 AM 56.3°F13.5°C 50.2°F10.1°C 80% 1.4 mph SE2.3 kmh SE 5.0 mph8.0 kmh 29.93 in1013.5 mb 0.00 in0.0 mm 0.00 in0.0 mm 0.01 in0.3 mm
10:13 AM 56.3°F13.5°C 50.2°F10.1°C 80% 1.5 mph SE2.4 kmh SE 3.0 mph4.8 kmh 29.93 in1013.5 mb 0.00 in0.0 mm 0.00 in0.0 mm 0.01 in0.3 mm
10:14 AM 56.3°F13.5°C 50.2°F10.1°C 80% 2.5 mph SSE4.0 kmh SSE 5.0 mph8.0 kmh 29.93 in1013.5 mb 0.00 in0.0 mm 0.00 in0.0 mm 0.01 in0.3 mm
10:15 AM 56.4°F13.6°C 50.3°F10.2°C 80% 3.2 mph S5.1 kmh S 5.0 mph8.0 kmh 29.93 in1013.5 mb 0.00 in0.0 mm 0.00 in0.0 mm 0.01 in0.3 mm
10:16 AM 56.5°F13.6°C 50.7°F10.4°C 81% 2.7 mph S4.3 kmh S 4.0 mph6.4 kmh 29.93 in1013.5 mb 0.00 in0.0 mm 0.00 in0.0 mm 0.01 in0.3 mm
10:17 AM 56.5°F13.6°C 50.7°F10.4°C 81% 1.9 mph S3.1 kmh S 4.0 mph6.4 kmh 29.93 in1013.5 mb 0.00 in0.0 mm 0.00 in0.0 mm 0.01 in0.3 mm
10:18 AM 56.6°F13.7°C 50.8°F10.4°C 81% 1.1 mph S1.8 kmh S 3.0 mph4.8 kmh 29.93 in1013.5 mb 0.00 in0.0 mm 0.00 in0.0 mm 0.01 in0.3 mm
10:19 AM 56.6°F13.7°C 50.8°F10.4°C 81% 2.3 mph SSE3.7 kmh SSE 4.0 mph6.4 kmh 29.93 in1013.5 mb 0.00 in0.0 mm 0.00 in0.0 mm 0.01 in0.3 mm
10:20 AM 56.8°F13.8°C 51.0°F10.6°C 81% 1.9 mph S3.1 kmh S 4.0 mph6.4 kmh 29.93 in1013.5 mb 0.00 in0.0 mm 0.00 in0.0 mm 0.01 in0.3 mm
10:21 AM 56.9°F13.8°C 51.1°F10.6°C 81% 2.5 mph SE4.0 kmh SE 4.0 mph6.4 kmh 29.93 in1013.5 mb 0.00 in0.0 mm 0.00 in0.0 mm 0.01 in0.3 mm
10:22 AM 56.9°F13.8°C 50.8°F10.4°C 80% 4.5 mph SSE7.2 kmh SSE 6.0 mph9.7 kmh 29.93 in1013.5 mb 0.00 in0.0 mm 0.00 in0.0 mm 0.01 in0.3 mm
10:23 AM 57.0°F13.9°C 50.9°F10.5°C 80% 3.0 mph S4.8 kmh S 6.0 mph9.7 kmh 29.93 in1013.5 mb 0.00 in0.0 mm 0.00 in0.0 mm 0.01 in0.3 mm
10:24 AM 57.0°F13.9°C 50.9°F10.5°C 80% 2.8 mph S4.5 kmh S 5.0 mph8.0 kmh 29.93 in1013.5 mb 0.00 in0.0 mm 0.00 in0.0 mm 0.01 in0.3 mm
10:25 AM 57.0°F13.9°C 50.9°F10.5°C 80% 2.9 mph SSW4.7 kmh SSW 4.0 mph6.4 kmh 29.93 in1013.5 mb 0.00 in0.0 mm 0.00 in0.0 mm 0.01 in0.3 mm
10:26 AM 57.0°F13.9°C 50.9°F10.5°C 80% 3.5 mph SSW5.6 kmh SSW 4.0 mph6.4 kmh 29.93 in1013.5 mb 0.00 in0.0 mm 0.00 in0.0 mm 0.01 in0.3 mm
10:27 AM 56.9°F13.8°C 50.5°F10.3°C 79% 3.4 mph S5.5 kmh S 5.0 mph8.0 kmh 29.94 in1013.9 mb 0.00 in0.0 mm 0.00 in0.0 mm 0.01 in0.3 mm
10:28 AM 57.0°F13.9°C 50.9°F10.5°C 80% 3.8 mph S6.1 kmh S 6.0 mph9.7 kmh 29.93 in1013.5 mb 0.00 in0.0 mm 0.00 in0.0 mm 0.01 in0.3 mm
10:29 AM 57.0°F13.9°C 50.9°F10.5°C 80% 3.2 mph S5.1 kmh S 6.0 mph9.7 kmh 29.94 in1013.9 mb 0.00 in0.0 mm 0.00 in0.0 mm 0.01 in0.3 mm
10:30 AM 56.9°F13.8°C 50.8°F10.4°C 80% 2.3 mph S3.7 kmh S 4.0 mph6.4 kmh 29.94 in1013.9 mb 0.00 in0.0 mm 0.00 in0.0 mm 0.01 in0.3 mm
10:31 AM 56.9°F13.8°C 51.1°F10.6°C 81% 4.1 mph SSE6.6 kmh SSE 6.0 mph9.7 kmh 29.94 in1013.9 mb 0.00 in0.0 mm 0.00 in0.0 mm 0.01 in0.3 mm
10:32 AM 56.9°F13.8°C 50.8°F10.4°C 80% 3.7 mph SSE6.0 kmh SSE 6.0 mph9.7 kmh 29.94 in1013.9 mb 0.00 in0.0 mm 0.00 in0.0 mm 0.01 in0.3 mm
10:33 AM 56.9°F13.8°C 50.5°F10.3°C 79% 2.5 mph S4.0 kmh S 4.0 mph6.4 kmh 29.94 in1013.9 mb 0.00 in0.0 mm 0.00 in0.0 mm 0.01 in0.3 mm
10:34 AM 56.9°F13.8°C 50.8°F10.4°C 80% 2.8 mph S4.5 kmh S 4.0 mph6.4 kmh 29.94 in1013.9 mb 0.00 in0.0 mm 0.00 in0.0 mm 0.01 in0.3 mm
10:35 AM 56.9°F13.8°C 50.8°F10.4°C 80% 2.4 mph S3.9 kmh S 5.0 mph8.0 kmh 29.94 in1013.9 mb 0.00 in0.0 mm 0.00 in0.0 mm 0.01 in0.3 mm
10:36 AM 57.0°F13.9°C 51.2°F10.7°C 81% 3.2 mph S5.1 kmh S 5.0 mph8.0 kmh 29.94 in1013.9 mb 0.00 in0.0 mm 0.00 in0.0 mm 0.01 in0.3 mm
10:37 AM 57.1°F13.9°C 51.0°F10.6°C 80% 2.4 mph SE3.9 kmh SE 4.0 mph6.4 kmh 29.94 in1013.9 mb 0.00 in0.0 mm 0.00 in0.0 mm 0.01 in0.3 mm
10:38 AM 57.1°F13.9°C 51.0°F10.6°C 80% 3.0 mph S4.8 kmh S 4.0 mph6.4 kmh 29.94 in1013.9 mb 0.00 in0.0 mm 0.00 in0.0 mm 0.01 in0.3 mm
10:39 AM 57.2°F14.0°C 51.4°F10.8°C 81% 2.6 mph SE4.2 kmh SE 4.0 mph6.4 kmh 29.94 in1013.9 mb 0.00 in0.0 mm 0.00 in0.0 mm 0.01 in0.3 mm
10:40 AM 57.3°F14.1°C 51.2°F10.7°C 80% 3.3 mph SE5.3 kmh SE 4.0 mph6.4 kmh 29.94 in1013.9 mb 0.00 in0.0 mm 0.00 in0.0 mm 0.01 in0.3 mm
10:41 AM 57.4°F14.1°C 51.6°F10.9°C 81% 3.7 mph S6.0 kmh S 5.0 mph8.0 kmh 29.94 in1013.9 mb 0.00 in0.0 mm 0.00 in0.0 mm 0.01 in0.3 mm
10:42 AM 57.4°F14.1°C 51.3°F10.7°C 80% 2.6 mph S4.2 kmh S 5.0 mph8.0 kmh 29.94 in1013.9 mb 0.00 in0.0 mm 0.00 in0.0 mm 0.01 in0.3 mm
10:43 AM 57.4°F14.1°C 51.3°F10.7°C 80% 3.5 mph S5.6 kmh S 6.0 mph9.7 kmh 29.94 in1013.9 mb 0.00 in0.0 mm 0.00 in0.0 mm 0.01 in0.3 mm
10:44 AM 57.4°F14.1°C 51.3°F10.7°C 80% 3.4 mph SSE5.5 kmh SSE 6.0 mph9.7 kmh 29.94 in1013.9 mb 0.00 in0.0 mm 0.00 in0.0 mm 0.01 in0.3 mm
10:45 AM 57.5°F14.2°C 51.7°F10.9°C 81% 2.7 mph SE4.3 kmh SE 6.0 mph9.7 kmh 29.94 in1013.9 mb 0.00 in0.0 mm 0.00 in0.0 mm 0.01 in0.3 mm
10:46 AM 57.5°F14.2°C 51.4°F10.8°C 80% 2.1 mph S3.4 kmh S 4.0 mph6.4 kmh 29.94 in1013.9 mb 0.00 in0.0 mm 0.00 in0.0 mm 0.01 in0.3 mm
10:47 AM 57.6°F14.2°C 51.1°F10.6°C 79% 5.2 mph SE8.4 kmh SE 8.0 mph12.9 kmh 29.94 in1013.9 mb 0.00 in0.0 mm 0.00 in0.0 mm 0.01 in0.3 mm
10:48 AM 57.5°F14.2°C 51.0°F10.6°C 79% 4.0 mph SE6.4 kmh SE 8.0 mph12.9 kmh 29.94 in1013.9 mb 0.00 in0.0 mm 0.00 in0.0 mm 0.01 in0.3 mm
10:49 AM 57.5°F14.2°C 50.7°F10.4°C 78% 4.3 mph SE6.9 kmh SE 6.0 mph9.7 kmh 29.94 in1013.9 mb 0.00 in0.0 mm 0.00 in0.0 mm 0.01 in0.3 mm
10:50 AM 57.5°F14.2°C 51.0°F10.6°C 79% 3.0 mph SE4.8 kmh SE 6.0 mph9.7 kmh 29.93 in1013.5 mb 0.00 in0.0 mm 0.00 in0.0 mm 0.01 in0.3 mm
10:51 AM 57.4°F14.1°C 50.9°F10.5°C 79% 5.4 mph SE8.7 kmh SE 7.0 mph11.3 kmh 29.94 in1013.9 mb 0.00 in0.0 mm 0.00 in0.0 mm 0.01 in0.3 mm
10:52 AM 57.4°F14.1°C 50.9°F10.5°C 79% 5.5 mph SE8.9 kmh SE 7.0 mph11.3 kmh 29.94 in1013.9 mb 0.00 in0.0 mm 0.00 in0.0 mm 0.01 in0.3 mm
10:53 AM 57.4°F14.1°C 51.3°F10.7°C 80% 3.9 mph SE6.3 kmh SE 7.0 mph11.3 kmh 29.93 in1013.5 mb 0.00 in0.0 mm 0.00 in0.0 mm 0.01 in0.3 mm
10:54 AM 57.4°F14.1°C 50.9°F10.5°C 79% 4.1 mph SE6.6 kmh SE 7.0 mph11.3 kmh 29.94 in1013.9 mb 0.00 in0.0 mm 0.00 in0.0 mm 0.01 in0.3 mm
10:55 AM 57.3°F14.1°C 50.8°F10.4°C 79% 5.1 mph SE8.2 kmh SE 7.0 mph11.3 kmh 29.93 in1013.5 mb 0.00 in0.0 mm 0.00 in0.0 mm 0.01 in0.3 mm
10:56 AM 57.3°F14.1°C 50.8°F10.4°C 79% 6.2 mph SE10.0 kmh SE 8.0 mph12.9 kmh 29.93 in1013.5 mb 0.00 in0.0 mm 0.00 in0.0 mm 0.01 in0.3 mm
10:57 AM 57.2°F14.0°C 50.7°F10.4°C 79% 7.4 mph SE11.9 kmh SE 9.0 mph14.5 kmh 29.93 in1013.5 mb 0.00 in0.0 mm 0.00 in0.0 mm 0.01 in0.3 mm
10:58 AM 57.2°F14.0°C 50.7°F10.4°C 79% 5.8 mph SE9.3 kmh SE 9.0 mph14.5 kmh 29.93 in1013.5 mb 0.00 in0.0 mm 0.00 in0.0 mm 0.01 in0.3 mm
10:59 AM 57.1°F13.9°C 50.3°F10.2°C 78% 7.3 mph SSE11.7 kmh SSE 9.0 mph14.5 kmh 29.94 in1013.9 mb 0.00 in0.0 mm 0.00 in0.0 mm 0.01 in0.3 mm
11:00 AM 57.1°F13.9°C 50.3°F10.2°C 78% 4.7 mph SSE7.6 kmh SSE 9.0 mph14.5 kmh 29.93 in1013.5 mb 0.00 in0.0 mm 0.00 in0.0 mm 0.01 in0.3 mm
11:01 AM 57.1°F13.9°C 50.6°F10.3°C 79% 4.9 mph S7.9 kmh S 9.0 mph14.5 kmh 29.93 in1013.5 mb 0.00 in0.0 mm 0.00 in0.0 mm 0.01 in0.3 mm
11:02 AM 57.1°F13.9°C 50.6°F10.3°C 79% 5.9 mph S9.5 kmh S 9.0 mph14.5 kmh 29.93 in1013.5 mb 0.00 in0.0 mm 0.00 in0.0 mm 0.01 in0.3 mm
11:03 AM 57.1°F13.9°C 50.6°F10.3°C 79% 4.7 mph SSE7.6 kmh SSE 8.0 mph12.9 kmh 29.93 in1013.5 mb 0.00 in0.0 mm 0.00 in0.0 mm 0.01 in0.3 mm
11:04 AM 57.2°F14.0°C 50.4°F10.2°C 78% 6.3 mph SSE10.1 kmh SSE 8.0 mph12.9 kmh 29.93 in1013.5 mb 0.00 in0.0 mm 0.00 in0.0 mm 0.01 in0.3 mm
11:05 AM 57.1°F13.9°C 50.6°F10.3°C 79% 6.2 mph SSE10.0 kmh SSE 9.0 mph14.5 kmh 29.94 in1013.9 mb 0.00 in0.0 mm 0.00 in0.0 mm 0.01 in0.3 mm
11:06 AM 57.1°F13.9°C 50.6°F10.3°C 79% 4.5 mph SSE7.2 kmh SSE 8.0 mph12.9 kmh 29.94 in1013.9 mb 0.00 in0.0 mm 0.00 in0.0 mm 0.01 in0.3 mm
11:07 AM 57.2°F14.0°C 50.7°F10.4°C 79% 5.2 mph SSE8.4 kmh SSE 7.0 mph11.3 kmh 29.94 in1013.9 mb 0.00 in0.0 mm 0.00 in0.0 mm 0.01 in0.3 mm
11:08 AM 57.3°F14.1°C 51.2°F10.7°C 80% 3.6 mph SE5.8 kmh SE 7.0 mph11.3 kmh 29.94 in1013.9 mb 0.00 in0.0 mm 0.00 in0.0 mm 0.01 in0.3 mm
11:09 AM 57.4°F14.1°C 50.9°F10.5°C 79% 5.4 mph SSE8.7 kmh SSE 8.0 mph12.9 kmh 29.94 in1013.9 mb 0.00 in0.0 mm 0.00 in0.0 mm 0.01 in0.3 mm
11:10 AM 57.3°F14.1°C 50.5°F10.3°C 78% 5.0 mph SSE8.0 kmh SSE 8.0 mph12.9 kmh 29.94 in1013.9 mb 0.00 in0.0 mm 0.00 in0.0 mm 0.01 in0.3 mm
11:11 AM 57.4°F14.1°C 50.9°F10.5°C 79% 3.6 mph SE5.8 kmh SE 6.0 mph9.7 kmh 29.94 in1013.9 mb 0.00 in0.0 mm 0.00 in0.0 mm 0.01 in0.3 mm
11:12 AM 57.5°F14.2°C 51.0°F10.6°C 79% 4.7 mph SSE7.6 kmh SSE 7.0 mph11.3 kmh 29.94 in1013.9 mb 0.00 in0.0 mm 0.00 in0.0 mm 0.01 in0.3 mm
11:13 AM 57.6°F14.2°C 51.1°F10.6°C 79% 5.2 mph SSE8.4 kmh SSE 7.0 mph11.3 kmh 29.94 in1013.9 mb 0.00 in0.0 mm 0.00 in0.0 mm 0.01 in0.3 mm
11:14 AM 57.6°F14.2°C 50.8°F10.4°C 78% 5.4 mph SE8.7 kmh SE 8.0 mph12.9 kmh 29.94 in1013.9 mb 0.00 in0.0 mm 0.00 in0.0 mm 0.01 in0.3 mm
11:15 AM 57.6°F14.2°C 50.8°F10.4°C 78% 4.1 mph SE6.6 kmh SE 8.0 mph12.9 kmh 29.94 in1013.9 mb 0.00 in0.0 mm 0.00 in0.0 mm 0.01 in0.3 mm
11:16 AM 57.7°F14.3°C 50.9°F10.5°C 78% 3.6 mph SSE5.8 kmh SSE 5.0 mph8.0 kmh 29.93 in1013.5 mb 0.00 in0.0 mm 0.00 in0.0 mm 0.01 in0.3 mm
11:17 AM 57.8°F14.3°C 51.0°F10.6°C 78% 3.7 mph SSE6.0 kmh SSE 6.0 mph9.7 kmh 29.93 in1013.5 mb 0.00 in0.0 mm 0.00 in0.0 mm 0.01 in0.3 mm
11:18 AM 57.8°F14.3°C 50.6°F10.3°C 77% 4.2 mph S6.8 kmh S 7.0 mph11.3 kmh 29.94 in1013.9 mb 0.00 in0.0 mm 0.00 in0.0 mm 0.01 in0.3 mm
11:19 AM 57.9°F14.4°C 50.7°F10.4°C 77% 4.5 mph S7.2 kmh S 7.0 mph11.3 kmh 29.93 in1013.5 mb 0.00 in0.0 mm 0.00 in0.0 mm 0.01 in0.3 mm
11:20 AM 57.9°F14.4°C 50.7°F10.4°C 77% 4.4 mph SSE7.1 kmh SSE 7.0 mph11.3 kmh 29.93 in1013.5 mb 0.00 in0.0 mm 0.00 in0.0 mm 0.01 in0.3 mm
11:21 AM 58.0°F14.4°C 50.5°F10.3°C 76% 6.0 mph S9.7 kmh S 8.0 mph12.9 kmh 29.93 in1013.5 mb 0.00 in0.0 mm 0.00 in0.0 mm 0.01 in0.3 mm
11:22 AM 57.9°F14.4°C 50.4°F10.2°C 76% 4.6 mph S7.4 kmh S 8.0 mph12.9 kmh 29.93 in1013.5 mb 0.00 in0.0 mm 0.00 in0.0 mm 0.01 in0.3 mm
11:23 AM 57.9°F14.4°C 50.4°F10.2°C 76% 4.5 mph S7.2 kmh S 7.0 mph11.3 kmh 29.93 in1013.5 mb 0.00 in0.0 mm 0.00 in0.0 mm 0.01 in0.3 mm
11:24 AM 57.9°F14.4°C 50.7°F10.4°C 77% 5.5 mph S8.9 kmh S 8.0 mph12.9 kmh 29.93 in1013.5 mb 0.00 in0.0 mm 0.00 in0.0 mm 0.01 in0.3 mm
11:25 AM 57.9°F14.4°C 50.4°F10.2°C 76% 5.6 mph SSE9.0 kmh SSE 8.0 mph12.9 kmh 29.93 in1013.5 mb 0.00 in0.0 mm 0.00 in0.0 mm 0.01 in0.3 mm
11:26 AM 57.9°F14.4°C 50.7°F10.4°C 77% 4.1 mph SSE6.6 kmh SSE 8.0 mph12.9 kmh 29.94 in1013.9 mb 0.00 in0.0 mm 0.00 in0.0 mm 0.01 in0.3 mm
11:27 AM 57.9°F14.4°C 50.4°F10.2°C 76% 3.9 mph SE6.3 kmh SE 6.0 mph9.7 kmh 29.93 in1013.5 mb 0.00 in0.0 mm 0.00 in0.0 mm 0.01 in0.3 mm
11:28 AM 57.9°F14.4°C 50.4°F10.2°C 76% 3.7 mph SE6.0 kmh SE 6.0 mph9.7 kmh 29.93 in1013.5 mb 0.00 in0.0 mm 0.00 in0.0 mm 0.01 in0.3 mm
11:29 AM 58.0°F14.4°C 51.2°F10.7°C 78% 3.9 mph SE6.3 kmh SE 6.0 mph9.7 kmh 29.93 in1013.5 mb 0.00 in0.0 mm 0.00 in0.0 mm 0.01 in0.3 mm
11:30 AM 58.0°F14.4°C 50.8°F10.4°C 77% 5.7 mph SSE9.2 kmh SSE 8.0 mph12.9 kmh 29.94 in1013.9 mb 0.00 in0.0 mm 0.00 in0.0 mm 0.01 in0.3 mm
11:31 AM 58.1°F14.5°C 50.9°F10.5°C 77% 5.1 mph SSE8.2 kmh SSE 8.0 mph12.9 kmh 29.94 in1013.9 mb 0.00 in0.0 mm 0.00 in0.0 mm 0.01 in0.3 mm
11:32 AM 58.1°F14.5°C 50.6°F10.3°C 76% 4.3 mph SE6.9 kmh SE 7.0 mph11.3 kmh 29.94 in1013.9 mb 0.00 in0.0 mm 0.00 in0.0 mm 0.01 in0.3 mm
11:33 AM 58.1°F14.5°C 50.6°F10.3°C 76% 4.9 mph SE7.9 kmh SE 7.0 mph11.3 kmh 29.94 in1013.9 mb 0.00 in0.0 mm 0.00 in0.0 mm 0.01 in0.3 mm
11:34 AM 58.1°F14.5°C 51.3°F10.7°C 78% 3.5 mph SE5.6 kmh SE 7.0 mph11.3 kmh 29.94 in1013.9 mb 0.00 in0.0 mm 0.00 in0.0 mm 0.01 in0.3 mm
11:35 AM 58.2°F14.6°C 50.7°F10.4°C 76% 3.5 mph SE5.6 kmh SE 6.0 mph9.7 kmh 29.94 in1013.9 mb 0.00 in0.0 mm 0.00 in0.0 mm 0.01 in0.3 mm
11:36 AM 58.2°F14.6°C 50.7°F10.4°C 76% 4.3 mph S6.9 kmh S 6.0 mph9.7 kmh 29.94 in1013.9 mb 0.00 in0.0 mm 0.00 in0.0 mm 0.01 in0.3 mm
11:37 AM 58.2°F14.6°C 50.7°F10.4°C 76% 5.4 mph S8.7 kmh S 8.0 mph12.9 kmh 29.94 in1013.9 mb 0.00 in0.0 mm 0.00 in0.0 mm 0.01 in0.3 mm
11:38 AM 58.1°F14.5°C 50.9°F10.5°C 77% 4.5 mph SSE7.2 kmh SSE 9.0 mph14.5 kmh 29.94 in1013.9 mb 0.00 in0.0 mm 0.00 in0.0 mm 0.01 in0.3 mm
11:39 AM 58.1°F14.5°C 50.6°F10.3°C 76% 5.2 mph SSE8.4 kmh SSE 9.0 mph14.5 kmh 29.94 in1013.9 mb 0.00 in0.0 mm 0.00 in0.0 mm 0.01 in0.3 mm
11:40 AM 58.1°F14.5°C 50.6°F10.3°C 76% 2.5 mph SSE4.0 kmh SSE 6.0 mph9.7 kmh 29.94 in1013.9 mb 0.00 in0.0 mm 0.00 in0.0 mm 0.01 in0.3 mm
11:41 AM 58.1°F14.5°C 50.6°F10.3°C 76% 2.4 mph S3.9 kmh S 7.0 mph11.3 kmh 29.94 in1013.9 mb 0.00 in0.0 mm 0.00 in0.0 mm 0.01 in0.3 mm
11:42 AM 58.1°F14.5°C 50.9°F10.5°C 77% 3.3 mph S5.3 kmh S 7.0 mph11.3 kmh 29.94 in1013.9 mb 0.00 in0.0 mm 0.00 in0.0 mm 0.01 in0.3 mm
11:43 AM 58.2°F14.6°C 50.7°F10.4°C 76% 2.2 mph S3.5 kmh S 4.0 mph6.4 kmh 29.94 in1013.9 mb 0.00 in0.0 mm 0.00 in0.0 mm 0.01 in0.3 mm
11:44 AM 58.3°F14.6°C 51.5°F10.8°C 78% 1.8 mph SSE2.9 kmh SSE 4.0 mph6.4 kmh 29.94 in1013.9 mb 0.00 in0.0 mm 0.00 in0.0 mm 0.01 in0.3 mm
11:45 AM 58.4°F14.7°C 51.2°F10.7°C 77% 3.5 mph SE5.6 kmh SE 4.0 mph6.4 kmh 29.94 in1013.9 mb 0.00 in0.0 mm 0.00 in0.0 mm 0.01 in0.3 mm
11:46 AM 58.5°F14.7°C 51.0°F10.6°C 76% 4.5 mph S7.2 kmh S 6.0 mph9.7 kmh 29.94 in1013.9 mb 0.00 in0.0 mm 0.00 in0.0 mm 0.01 in0.3 mm
11:47 AM 58.5°F14.7°C 50.6°F10.3°C 75% 3.8 mph SSE6.1 kmh SSE 6.0 mph9.7 kmh 29.94 in1013.9 mb 0.00 in0.0 mm 0.00 in0.0 mm 0.01 in0.3 mm
11:48 AM 58.5°F14.7°C 50.6°F10.3°C 75% 5.5 mph S8.9 kmh S 8.0 mph12.9 kmh 29.94 in1013.9 mb 0.00 in0.0 mm 0.00 in0.0 mm 0.01 in0.3 mm
11:49 AM 58.5°F14.7°C 51.0°F10.6°C 76% 4.8 mph S7.7 kmh S 8.0 mph12.9 kmh 29.94 in1013.9 mb 0.00 in0.0 mm 0.00 in0.0 mm 0.01 in0.3 mm
11:50 AM 58.4°F14.7°C 50.5°F10.3°C 75% 5.1 mph S8.2 kmh S 7.0 mph11.3 kmh 29.94 in1013.9 mb 0.00 in0.0 mm 0.00 in0.0 mm 0.01 in0.3 mm
11:51 AM 58.4°F14.7°C 50.5°F10.3°C 75% 4.3 mph S6.9 kmh S 7.0 mph11.3 kmh 29.94 in1013.9 mb 0.00 in0.0 mm 0.00 in0.0 mm 0.01 in0.3 mm
11:52 AM 58.4°F14.7°C 50.5°F10.3°C 75% 4.6 mph S7.4 kmh S 7.0 mph11.3 kmh 29.94 in1013.9 mb 0.00 in0.0 mm 0.00 in0.0 mm 0.01 in0.3 mm
11:53 AM 58.4°F14.7°C 50.5°F10.3°C 75% 3.5 mph S5.6 kmh S 6.0 mph9.7 kmh 29.94 in1013.9 mb 0.00 in0.0 mm 0.00 in0.0 mm 0.01 in0.3 mm
11:54 AM 58.4°F14.7°C 50.5°F10.3°C 75% 2.4 mph S3.9 kmh S 5.0 mph8.0 kmh 29.94 in1013.9 mb 0.00 in0.0 mm 0.00 in0.0 mm 0.01 in0.3 mm
11:55 AM 58.4°F14.7°C 50.9°F10.5°C 76% 5.8 mph SE9.3 kmh SE 7.0 mph11.3 kmh 29.94 in1013.9 mb 0.00 in0.0 mm 0.00 in0.0 mm 0.01 in0.3 mm
11:56 AM 58.4°F14.7°C 50.5°F10.3°C 75% 5.8 mph SE9.3 kmh SE 8.0 mph12.9 kmh 29.94 in1013.9 mb 0.00 in0.0 mm 0.00 in0.0 mm 0.01 in0.3 mm
11:57 AM 58.4°F14.7°C 50.5°F10.3°C 75% 3.1 mph SE5.0 kmh SE 8.0 mph12.9 kmh 29.94 in1013.9 mb 0.00 in0.0 mm 0.00 in0.0 mm 0.01 in0.3 mm
11:58 AM 58.4°F14.7°C 50.5°F10.3°C 75% 4.1 mph SE6.6 kmh SE 6.0 mph9.7 kmh 29.94 in1013.9 mb 0.00 in0.0 mm 0.00 in0.0 mm 0.01 in0.3 mm
11:59 AM 58.3°F14.6°C 49.7°F9.8°C 73% 6.0 mph SE9.7 kmh SE 8.0 mph12.9 kmh 29.93 in1013.5 mb 0.00 in0.0 mm 0.00 in0.0 mm 0.01 in0.3 mm
12:00 PM 58.3°F14.6°C 50.4°F10.2°C 75% 5.4 mph SE8.7 kmh SE 8.0 mph12.9 kmh 29.94 in1013.9 mb 0.00 in0.0 mm 0.00 in0.0 mm 0.01 in0.3 mm
12:01 PM 58.4°F14.7°C 49.8°F9.9°C 73% 4.0 mph SE6.4 kmh SE 8.0 mph12.9 kmh 29.94 in1013.9 mb 0.00 in0.0 mm 0.00 in0.0 mm 0.01 in0.3 mm
12:02 PM 58.4°F14.7°C 49.8°F9.9°C 73% 3.1 mph S5.0 kmh S 6.0 mph9.7 kmh 29.94 in1013.9 mb 0.00 in0.0 mm 0.00 in0.0 mm 0.01 in0.3 mm
12:03 PM 58.4°F14.7°C 50.1°F10.1°C 74% 4.2 mph ESE6.8 kmh ESE 6.0 mph9.7 kmh 29.94 in1013.9 mb 0.00 in0.0 mm 0.00 in0.0 mm 0.01 in0.3 mm
12:04 PM 58.4°F14.7°C 49.8°F9.9°C 73% 5.8 mph ESE9.3 kmh ESE 7.0 mph11.3 kmh 29.94 in1013.9 mb 0.00 in0.0 mm 0.00 in0.0 mm 0.01 in0.3 mm
12:05 PM 58.4°F14.7°C 50.1°F10.1°C 74% 5.3 mph SE8.5 kmh SE 8.0 mph12.9 kmh 29.93 in1013.5 mb 0.00 in0.0 mm 0.00 in0.0 mm 0.01 in0.3 mm
12:06 PM 58.5°F14.7°C 50.2°F10.1°C 74% 4.9 mph SSE7.9 kmh SSE 8.0 mph12.9 kmh 29.94 in1013.9 mb 0.00 in0.0 mm 0.00 in0.0 mm 0.01 in0.3 mm
12:07 PM 58.5°F14.7°C 50.6°F10.3°C 75% 2.4 mph SE3.9 kmh SE 7.0 mph11.3 kmh 29.94 in1013.9 mb 0.00 in0.0 mm 0.00 in0.0 mm 0.01 in0.3 mm
12:08 PM 58.6°F14.8°C 50.3°F10.2°C 74% 4.2 mph SE6.8 kmh SE 7.0 mph11.3 kmh 29.94 in1013.9 mb 0.00 in0.0 mm 0.00 in0.0 mm 0.01 in0.3 mm
12:09 PM 58.6°F14.8°C 50.0°F10.0°C 73% 7.0 mph SE11.3 kmh SE 10.0 mph16.1 kmh 29.93 in1013.5 mb 0.00 in0.0 mm 0.00 in0.0 mm 0.01 in0.3 mm
12:10 PM 58.6°F14.8°C 49.2°F9.6°C 71% 6.6 mph SE10.6 kmh SE 10.0 mph16.1 kmh 29.94 in1013.9 mb 0.00 in0.0 mm 0.00 in0.0 mm 0.01 in0.3 mm
12:11 PM 58.4°F14.7°C 49.0°F9.4°C 71% 4.3 mph SE6.9 kmh SE 8.0 mph12.9 kmh 29.94 in1013.9 mb 0.00 in0.0 mm 0.00 in0.0 mm 0.01 in0.3 mm
12:12 PM 58.4°F14.7°C 49.4°F9.7°C 72% 3.4 mph ESE5.5 kmh ESE 5.0 mph8.0 kmh 29.94 in1013.9 mb 0.00 in0.0 mm 0.00 in0.0 mm 0.01 in0.3 mm
12:13 PM 58.5°F14.7°C 50.2°F10.1°C 74% 2.1 mph SE3.4 kmh SE 4.0 mph6.4 kmh 29.94 in1013.9 mb 0.00 in0.0 mm 0.00 in0.0 mm 0.01 in0.3 mm
12:14 PM 58.6°F14.8°C 50.7°F10.4°C 75% 1.7 mph SE2.7 kmh SE 3.0 mph4.8 kmh 29.94 in1013.9 mb 0.00 in0.0 mm 0.00 in0.0 mm 0.01 in0.3 mm
12:15 PM 58.6°F14.8°C 50.7°F10.4°C 75% 2.2 mph SE3.5 kmh SE 6.0 mph9.7 kmh 29.94 in1013.9 mb 0.00 in0.0 mm 0.00 in0.0 mm 0.01 in0.3 mm
12:16 PM 58.8°F14.9°C 50.9°F10.5°C 75% 2.1 mph SE3.4 kmh SE 6.0 mph9.7 kmh 29.94 in1013.9 mb 0.00 in0.0 mm 0.00 in0.0 mm 0.01 in0.3 mm
12:17 PM 58.9°F14.9°C 51.0°F10.6°C 75% 5.0 mph SSE8.0 kmh SSE 7.0 mph11.3 kmh 29.94 in1013.9 mb 0.00 in0.0 mm 0.00 in0.0 mm 0.01 in0.3 mm
12:18 PM 58.9°F14.9°C 49.9°F9.9°C 72% 4.4 mph S7.1 kmh S 7.0 mph11.3 kmh 29.94 in1013.9 mb 0.00 in0.0 mm 0.00 in0.0 mm 0.01 in0.3 mm
12:19 PM 58.9°F14.9°C 48.7°F9.3°C 69% 3.5 mph S5.6 kmh S 6.0 mph9.7 kmh 29.94 in1013.9 mb 0.00 in0.0 mm 0.00 in0.0 mm 0.01 in0.3 mm
12:20 PM 58.8°F14.9°C 49.0°F9.4°C 70% 3.1 mph SE5.0 kmh SE 5.0 mph8.0 kmh 29.94 in1013.9 mb 0.00 in0.0 mm 0.00 in0.0 mm 0.01 in0.3 mm
12:21 PM 58.8°F14.9°C 48.3°F9.1°C 68% 3.3 mph E5.3 kmh E 6.0 mph9.7 kmh 29.94 in1013.9 mb 0.00 in0.0 mm 0.00 in0.0 mm 0.01 in0.3 mm
12:22 PM 58.8°F14.9°C 49.4°F9.7°C 71% 2.7 mph E4.3 kmh E 6.0 mph9.7 kmh 29.94 in1013.9 mb 0.00 in0.0 mm 0.00 in0.0 mm 0.01 in0.3 mm
12:23 PM 58.9°F14.9°C 49.9°F9.9°C 72% 2.4 mph SSW3.9 kmh SSW 4.0 mph6.4 kmh 29.94 in1013.9 mb 0.00 in0.0 mm 0.00 in0.0 mm 0.01 in0.3 mm
12:24 PM 58.9°F14.9°C 50.3°F10.2°C 73% 2.5 mph S4.0 kmh S 4.0 mph6.4 kmh 29.94 in1013.9 mb 0.00 in0.0 mm 0.00 in0.0 mm 0.01 in0.3 mm
12:25 PM 58.9°F14.9°C 50.3°F10.2°C 73% 2.6 mph S4.2 kmh S 5.0 mph8.0 kmh 29.94 in1013.9 mb 0.00 in0.0 mm 0.00 in0.0 mm 0.01 in0.3 mm
12:26 PM 59.0°F15.0°C 50.0°F10.0°C 72% 2.6 mph SSE4.2 kmh SSE 5.0 mph8.0 kmh 29.94 in1013.9 mb 0.00 in0.0 mm 0.00 in0.0 mm 0.01 in0.3 mm
12:27 PM 59.1°F15.1°C 49.7°F9.8°C 71% 0.8 mph SSE1.3 kmh SSE 4.0 mph6.4 kmh 29.94 in1013.9 mb 0.00 in0.0 mm 0.00 in0.0 mm 0.01 in0.3 mm
12:28 PM 59.2°F15.1°C 49.8°F9.9°C 71% 1.5 mph SW2.4 kmh SW 4.0 mph6.4 kmh 29.94 in1013.9 mb 0.00 in0.0 mm 0.00 in0.0 mm 0.01 in0.3 mm
12:29 PM 59.2°F15.1°C 49.4°F9.7°C 70% 3.5 mph SW5.6 kmh SW 5.0 mph8.0 kmh 29.94 in1013.9 mb 0.00 in0.0 mm 0.00 in0.0 mm 0.01 in0.3 mm
12:30 PM 59.2°F15.1°C 49.4°F9.7°C 70% 5.8 mph SW9.3 kmh SW 8.0 mph12.9 kmh 29.94 in1013.9 mb 0.00 in0.0 mm 0.00 in0.0 mm 0.01 in0.3 mm
12:31 PM 59.2°F15.1°C 49.0°F9.4°C 69% 3.8 mph SW6.1 kmh SW 8.0 mph12.9 kmh 29.94 in1013.9 mb 0.00 in0.0 mm 0.00 in0.0 mm 0.01 in0.3 mm
12:32 PM 59.1°F15.1°C 48.9°F9.4°C 69% 1.5 mph SW2.4 kmh SW 6.0 mph9.7 kmh 29.94 in1013.9 mb 0.00 in0.0 mm 0.00 in0.0 mm 0.01 in0.3 mm
12:33 PM 59.1°F15.1°C 49.3°F9.6°C 70% 1.5 mph SW2.4 kmh SW 3.0 mph4.8 kmh 29.94 in1013.9 mb 0.00 in0.0 mm 0.00 in0.0 mm 0.01 in0.3 mm
12:34 PM 59.1°F15.1°C 49.7°F9.8°C 71% 4.6 mph SW7.4 kmh SW 6.0 mph9.7 kmh 29.94 in1013.9 mb 0.00 in0.0 mm 0.00 in0.0 mm 0.01 in0.3 mm
12:35 PM 59.1°F15.1°C 50.1°F10.1°C 72% 3.7 mph SSW6.0 kmh SSW 6.0 mph9.7 kmh 29.94 in1013.9 mb 0.00 in0.0 mm 0.00 in0.0 mm 0.01 in0.3 mm
12:36 PM 59.2°F15.1°C 50.5°F10.3°C 73% 2.3 mph SW3.7 kmh SW 5.0 mph8.0 kmh 29.94 in1013.9 mb 0.00 in0.0 mm 0.00 in0.0 mm 0.01 in0.3 mm
12:37 PM 59.2°F15.1°C 50.5°F10.3°C 73% 1.4 mph SW2.3 kmh SW 4.0 mph6.4 kmh 29.94 in1013.9 mb 0.00 in0.0 mm 0.00 in0.0 mm 0.01 in0.3 mm
12:38 PM 59.2°F15.1°C 50.9°F10.5°C 74% 3.7 mph WSW6.0 kmh WSW 6.0 mph9.7 kmh 29.94 in1013.9 mb 0.00 in0.0 mm 0.00 in0.0 mm 0.01 in0.3 mm
12:39 PM 59.0°F15.0°C 51.1°F10.6°C 75% 3.8 mph WNW6.1 kmh WNW 6.0 mph9.7 kmh 29.94 in1013.9 mb 0.00 in0.0 mm 0.00 in0.0 mm 0.01 in0.3 mm
12:40 PM 58.8°F14.9°C 50.5°F10.3°C 74% 2.7 mph WNW4.3 kmh WNW 6.0 mph9.7 kmh 29.94 in1013.9 mb 0.00 in0.0 mm 0.00 in0.0 mm 0.01 in0.3 mm
12:41 PM 58.7°F14.8°C 50.4°F10.2°C 74% 2.6 mph WNW4.2 kmh WNW 4.0 mph6.4 kmh 29.94 in1013.9 mb 0.00 in0.0 mm 0.00 in0.0 mm 0.01 in0.3 mm
12:42 PM 58.6°F14.8°C 50.3°F10.2°C 74% 1.9 mph WNW3.1 kmh WNW 4.0 mph6.4 kmh 29.94 in1013.9 mb 0.00 in0.0 mm 0.00 in0.0 mm 0.01 in0.3 mm
12:43 PM 58.5°F14.7°C 50.2°F10.1°C 74% 2.2 mph WNW3.5 kmh WNW 3.0 mph4.8 kmh 29.94 in1013.9 mb 0.00 in0.0 mm 0.00 in0.0 mm 0.01 in0.3 mm
12:44 PM 58.5°F14.7°C 50.6°F10.3°C 75% 2.8 mph WNW4.5 kmh WNW 4.0 mph6.4 kmh 29.94 in1013.9 mb 0.00 in0.0 mm 0.00 in0.0 mm 0.01 in0.3 mm
12:45 PM 58.4°F14.7°C 50.5°F10.3°C 75% 3.2 mph W5.1 kmh W 4.0 mph6.4 kmh 29.94 in1013.9 mb 0.00 in0.0 mm 0.00 in0.0 mm 0.01 in0.3 mm
12:46 PM 58.2°F14.6°C 50.7°F10.4°C 76% 2.9 mph WNW4.7 kmh WNW 4.0 mph6.4 kmh 29.94 in1013.9 mb 0.00 in0.0 mm 0.00 in0.0 mm 0.01 in0.3 mm
12:47 PM 58.2°F14.6°C 50.7°F10.4°C 76% 2.7 mph WNW4.3 kmh WNW 3.0 mph4.8 kmh 29.94 in1013.9 mb 0.00 in0.0 mm 0.00 in0.0 mm 0.01 in0.3 mm
12:48 PM 58.3°F14.6°C 51.1°F10.6°C 77% 2.5 mph W4.0 kmh W 3.0 mph4.8 kmh 29.94 in1013.9 mb 0.00 in0.0 mm 0.00 in0.0 mm 0.01 in0.3 mm
12:49 PM 58.3°F14.6°C 51.1°F10.6°C 77% 2.3 mph W3.7 kmh W 3.0 mph4.8 kmh 29.94 in1013.9 mb 0.00 in0.0 mm 0.00 in0.0 mm 0.01 in0.3 mm
12:50 PM 58.3°F14.6°C 50.8°F10.4°C 76% 1.6 mph W2.6 kmh W 3.0 mph4.8 kmh 29.94 in1013.9 mb 0.00 in0.0 mm 0.00 in0.0 mm 0.01 in0.3 mm
12:51 PM 58.3°F14.6°C 50.4°F10.2°C 75% 1.1 mph W1.8 kmh W 2.0 mph3.2 kmh 29.94 in1013.9 mb 0.00 in0.0 mm 0.00 in0.0 mm 0.01 in0.3 mm
12:52 PM 58.4°F14.7°C 50.9°F10.5°C 76% 1.1 mph W1.8 kmh W 2.0 mph3.2 kmh 29.94 in1013.9 mb 0.00 in0.0 mm 0.00 in0.0 mm 0.01 in0.3 mm
12:53 PM 58.4°F14.7°C 50.5°F10.3°C 75% 1.3 mph W2.1 kmh W 2.0 mph3.2 kmh 29.94 in1013.9 mb 0.00 in0.0 mm 0.00 in0.0 mm 0.01 in0.3 mm
12:54 PM 58.4°F14.7°C 50.5°F10.3°C 75% 1.1 mph W1.8 kmh W 2.0 mph3.2 kmh 29.94 in1013.9 mb 0.00 in0.0 mm 0.00 in0.0 mm 0.01 in0.3 mm
12:55 PM 58.3°F14.6°C 50.4°F10.2°C 75% 1.1 mph W1.8 kmh W 2.0 mph3.2 kmh 29.94 in1013.9 mb 0.00 in0.0 mm 0.00 in0.0 mm 0.01 in0.3 mm
12:56 PM 58.3°F14.6°C 50.4°F10.2°C 75% 0.6 mph W1.0 kmh W 2.0 mph3.2 kmh 29.94 in1013.9 mb 0.00 in0.0 mm 0.00 in0.0 mm 0.01 in0.3 mm
12:57 PM 58.3°F14.6°C 50.4°F10.2°C 75% 1.2 mph W1.9 kmh W 2.0 mph3.2 kmh 29.94 in1013.9 mb 0.00 in0.0 mm 0.00 in0.0 mm 0.01 in0.3 mm
12:58 PM 58.3°F14.6°C 50.8°F10.4°C 76% 1.0 mph W1.6 kmh W 2.0 mph3.2 kmh 29.94 in1013.9 mb 0.00 in0.0 mm 0.00 in0.0 mm 0.01 in0.3 mm
12:59 PM 58.3°F14.6°C 50.8°F10.4°C 76% 0.8 mph W1.3 kmh W 2.0 mph3.2 kmh 29.94 in1013.9 mb 0.00 in0.0 mm 0.00 in0.0 mm 0.01 in0.3 mm
01:00 PM 58.5°F14.7°C 51.0°F10.6°C 76% 1.1 mph W1.8 kmh W 2.0 mph3.2 kmh 29.94 in1013.9 mb 0.00 in0.0 mm 0.00 in0.0 mm 0.01 in0.3 mm
01:01 PM 58.5°F14.7°C 50.6°F10.3°C 75% 1.0 mph SW1.6 kmh SW 2.0 mph3.2 kmh 29.94 in1013.9 mb 0.00 in0.0 mm 0.00 in0.0 mm 0.01 in0.3 mm
01:02 PM 58.6°F14.8°C 51.1°F10.6°C 76% 2.4 mph E3.9 kmh E 4.0 mph6.4 kmh 29.94 in1013.9 mb 0.00 in0.0 mm 0.00 in0.0 mm 0.01 in0.3 mm
01:03 PM 58.6°F14.8°C 51.1°F10.6°C 76% 2.9 mph E4.7 kmh E 4.0 mph6.4 kmh 29.94 in1013.9 mb 0.00 in0.0 mm 0.00 in0.0 mm 0.01 in0.3 mm
01:04 PM 58.9°F14.9°C 51.7°F10.9°C 77% 0.6 mph NE1.0 kmh NE 4.0 mph6.4 kmh 29.94 in1013.9 mb 0.00 in0.0 mm 0.00 in0.0 mm 0.01 in0.3 mm
01:05 PM 59.0°F15.0°C 51.4°F10.8°C 76% 1.5 mph ENE2.4 kmh ENE 4.0 mph6.4 kmh 29.94 in1013.9 mb 0.00 in0.0 mm 0.00 in0.0 mm 0.01 in0.3 mm
01:06 PM 59.1°F15.1°C 51.2°F10.7°C 75% 2.1 mph E3.4 kmh E 4.0 mph6.4 kmh 29.94 in1013.9 mb 0.00 in0.0 mm 0.00 in0.0 mm 0.01 in0.3 mm
01:07 PM 59.2°F15.1°C 51.3°F10.7°C 75% 1.0 mph ENE1.6 kmh ENE 3.0 mph4.8 kmh 29.94 in1013.9 mb 0.00 in0.0 mm 0.00 in0.0 mm 0.01 in0.3 mm
01:08 PM 59.3°F15.2°C 51.4°F10.8°C 75% 2.6 mph NW4.2 kmh NW 4.0 mph6.4 kmh 29.94 in1013.9 mb 0.00 in0.0 mm 0.00 in0.0 mm 0.01 in0.3 mm
01:09 PM 59.2°F15.1°C 50.9°F10.5°C 74% 3.2 mph NW5.1 kmh NW 4.0 mph6.4 kmh 29.94 in1013.9 mb 0.00 in0.0 mm 0.00 in0.0 mm 0.01 in0.3 mm
01:10 PM 59.1°F15.1°C 51.2°F10.7°C 75% 3.0 mph NW4.8 kmh NW 4.0 mph6.4 kmh 29.94 in1013.9 mb 0.00 in0.0 mm 0.00 in0.0 mm 0.01 in0.3 mm
01:11 PM 58.9°F14.9°C 51.3°F10.7°C 76% 2.7 mph NW4.3 kmh NW 4.0 mph6.4 kmh 29.94 in1013.9 mb 0.00 in0.0 mm 0.00 in0.0 mm 0.01 in0.3 mm
01:12 PM 58.8°F14.9°C 50.9°F10.5°C 75% 2.6 mph NW4.2 kmh NW 3.0 mph4.8 kmh 29.94 in1013.9 mb 0.00 in0.0 mm 0.00 in0.0 mm 0.01 in0.3 mm
01:13 PM 58.7°F14.8°C 51.5°F10.8°C 77% 2.5 mph NW4.0 kmh NW 3.0 mph4.8 kmh 29.94 in1013.9 mb 0.00 in0.0 mm 0.00 in0.0 mm 0.01 in0.3 mm
01:14 PM 58.7°F14.8°C 51.5°F10.8°C 77% 2.3 mph NW3.7 kmh NW 3.0 mph4.8 kmh 29.94 in1013.9 mb 0.00 in0.0 mm 0.00 in0.0 mm 0.01 in0.3 mm
01:15 PM 58.6°F14.8°C 50.7°F10.4°C 75% 2.4 mph NW3.9 kmh NW 3.0 mph4.8 kmh 29.94 in1013.9 mb 0.00 in0.0 mm 0.00 in0.0 mm 0.01 in0.3 mm
01:16 PM 58.6°F14.8°C 51.1°F10.6°C 76% 2.1 mph NW3.4 kmh NW 3.0 mph4.8 kmh 29.94 in1013.9 mb 0.00 in0.0 mm 0.00 in0.0 mm 0.01 in0.3 mm
01:17 PM 58.5°F14.7°C 51.0°F10.6°C 76% 2.0 mph NW3.2 kmh NW 3.0 mph4.8 kmh 29.94 in1013.9 mb 0.00 in0.0 mm 0.00 in0.0 mm 0.01 in0.3 mm
01:18 PM 58.5°F14.7°C 51.0°F10.6°C 76% 2.0 mph NW3.2 kmh NW 3.0 mph4.8 kmh 29.94 in1013.9 mb 0.00 in0.0 mm 0.00 in0.0 mm 0.01 in0.3 mm
01:19 PM 58.5°F14.7°C 51.3°F10.7°C 77% 2.0 mph NW3.2 kmh NW 3.0 mph4.8 kmh 29.94 in1013.9 mb 0.00 in0.0 mm 0.00 in0.0 mm 0.01 in0.3 mm
01:20 PM 58.6°F14.8°C 51.4°F10.8°C 77% 1.7 mph NW2.7 kmh NW 3.0 mph4.8 kmh 29.94 in1013.9 mb 0.00 in0.0 mm 0.00 in0.0 mm 0.01 in0.3 mm
01:21 PM 58.5°F14.7°C 51.0°F10.6°C 76% 2.2 mph NW3.5 kmh NW 3.0 mph4.8 kmh 29.94 in1013.9 mb 0.00 in0.0 mm 0.00 in0.0 mm 0.01 in0.3 mm
01:22 PM 58.5°F14.7°C 51.0°F10.6°C 76% 2.2 mph NW3.5 kmh NW 3.0 mph4.8 kmh 29.94 in1013.9 mb 0.00 in0.0 mm 0.00 in0.0 mm 0.01 in0.3 mm
01:23 PM 58.5°F14.7°C 51.3°F10.7°C 77% 2.1 mph NW3.4 kmh NW 3.0 mph4.8 kmh 29.94 in1013.9 mb 0.00 in0.0 mm 0.00 in0.0 mm 0.01 in0.3 mm
01:24 PM 58.5°F14.7°C 51.0°F10.6°C 76% 2.7 mph NW4.3 kmh NW 3.0 mph4.8 kmh 29.94 in1013.9 mb 0.00 in0.0 mm 0.00 in0.0 mm 0.01 in0.3 mm
01:25 PM 58.5°F14.7°C 51.3°F10.7°C 77% 3.1 mph NW5.0 kmh NW 4.0 mph6.4 kmh 29.94 in1013.9 mb 0.00 in0.0 mm 0.00 in0.0 mm 0.01 in0.3 mm
01:26 PM 58.5°F14.7°C 51.0°F10.6°C 76% 2.7 mph NW4.3 kmh NW 4.0 mph6.4 kmh 29.94 in1013.9 mb 0.00 in0.0 mm 0.00 in0.0 mm 0.01 in0.3 mm
01:27 PM 58.5°F14.7°C 51.3°F10.7°C 77% 2.6 mph NW4.2 kmh NW 4.0 mph6.4 kmh 29.94 in1013.9 mb 0.00 in0.0 mm 0.00 in0.0 mm 0.01 in0.3 mm
01:28 PM 58.6°F14.8°C 51.8°F11.0°C 78% 0.6 mph WNW1.0 kmh WNW 4.0 mph6.4 kmh 29.94 in1013.9 mb 0.00 in0.0 mm 0.00 in0.0 mm 0.01 in0.3 mm
01:29 PM 58.7°F14.8°C 51.2°F10.7°C 76% 2.1 mph NW3.4 kmh NW 3.0 mph4.8 kmh 29.94 in1013.9 mb 0.00 in0.0 mm 0.00 in0.0 mm 0.01 in0.3 mm
01:30 PM 58.7°F14.8°C 51.5°F10.8°C 77% 2.7 mph NW4.3 kmh NW 4.0 mph6.4 kmh 29.94 in1013.9 mb 0.00 in0.0 mm 0.00 in0.0 mm 0.01 in0.3 mm
01:31 PM 58.8°F14.9°C 51.2°F10.7°C 76% 3.2 mph NW5.1 kmh NW 4.0 mph6.4 kmh 29.94 in1013.9 mb 0.00 in0.0 mm 0.00 in0.0 mm 0.01 in0.3 mm
01:32 PM 58.8°F14.9°C 51.6°F10.9°C 77% 3.0 mph NW4.8 kmh NW 4.0 mph6.4 kmh 29.94 in1013.9 mb 0.00 in0.0 mm 0.00 in0.0 mm 0.01 in0.3 mm
01:33 PM 58.8°F14.9°C 51.2°F10.7°C 76% 2.7 mph NW4.3 kmh NW 4.0 mph6.4 kmh 29.94 in1013.9 mb 0.00 in0.0 mm 0.00 in0.0 mm 0.01 in0.3 mm
01:34 PM 58.8°F14.9°C 51.6°F10.9°C 77% 2.9 mph NW4.7 kmh NW 4.0 mph6.4 kmh 29.94 in1013.9 mb 0.00 in0.0 mm 0.00 in0.0 mm 0.01 in0.3 mm
01:35 PM 58.7°F14.8°C 51.5°F10.8°C 77% 2.5 mph NW4.0 kmh NW 4.0 mph6.4 kmh 29.94 in1013.9 mb 0.00 in0.0 mm 0.00 in0.0 mm 0.01 in0.3 mm
01:36 PM 58.7°F14.8°C 51.2°F10.7°C 76% 2.4 mph NW3.9 kmh NW 3.0 mph4.8 kmh 29.94 in1013.9 mb 0.00 in0.0 mm 0.00 in0.0 mm 0.01 in0.3 mm
01:37 PM 58.7°F14.8°C 51.5°F10.8°C 77% 2.6 mph NW4.2 kmh NW 3.0 mph4.8 kmh 29.94 in1013.9 mb 0.00 in0.0 mm 0.00 in0.0 mm 0.01 in0.3 mm
01:38 PM 58.6°F14.8°C 51.1°F10.6°C 76% 2.5 mph NW4.0 kmh NW 3.0 mph4.8 kmh 29.94 in1013.9 mb 0.00 in0.0 mm 0.00 in0.0 mm 0.01 in0.3 mm
01:39 PM 58.6°F14.8°C 51.1°F10.6°C 76% 2.2 mph NW3.5 kmh NW 3.0 mph4.8 kmh 29.94 in1013.9 mb 0.00 in0.0 mm 0.00 in0.0 mm 0.01 in0.3 mm
01:40 PM 58.5°F14.7°C 51.3°F10.7°C 77% 2.3 mph NW3.7 kmh NW 3.0 mph4.8 kmh 29.94 in1013.9 mb 0.00 in0.0 mm 0.00 in0.0 mm 0.01 in0.3 mm
01:41 PM 58.5°F14.7°C 51.0°F10.6°C 76% 2.4 mph NW3.9 kmh NW 3.0 mph4.8 kmh 29.94 in1013.9 mb 0.00 in0.0 mm 0.00 in0.0 mm 0.01 in0.3 mm
01:42 PM 58.5°F14.7°C 51.3°F10.7°C 77% 2.3 mph NW3.7 kmh NW 3.0 mph4.8 kmh 29.94 in1013.9 mb 0.00 in0.0 mm 0.00 in0.0 mm 0.01 in0.3 mm
01:43 PM 58.6°F14.8°C 51.4°F10.8°C 77% 2.7 mph NW4.3 kmh NW 3.0 mph4.8 kmh 29.94 in1013.9 mb 0.00 in0.0 mm 0.00 in0.0 mm 0.01 in0.3 mm
01:44 PM 58.6°F14.8°C 51.4°F10.8°C 77% 2.8 mph NW4.5 kmh NW 4.0 mph6.4 kmh 29.94 in1013.9 mb 0.00 in0.0 mm 0.00 in0.0 mm 0.01 in0.3 mm
01:45 PM 58.6°F14.8°C 51.8°F11.0°C 78% 2.7 mph NW4.3 kmh NW 4.0 mph6.4 kmh 29.94 in1013.9 mb 0.00 in0.0 mm 0.00 in0.0 mm 0.01 in0.3 mm
01:46 PM 58.6°F14.8°C 51.4°F10.8°C 77% 2.4 mph NW3.9 kmh NW 3.0 mph4.8 kmh 29.94 in1013.9 mb 0.00 in0.0 mm 0.00 in0.0 mm 0.01 in0.3 mm
01:47 PM 58.6°F14.8°C 51.1°F10.6°C 76% 2.5 mph NW4.0 kmh NW 4.0 mph6.4 kmh 29.94 in1013.9 mb 0.00 in0.0 mm 0.00 in0.0 mm 0.01 in0.3 mm
01:48 PM 58.6°F14.8°C 51.1°F10.6°C 76% 2.1 mph NW3.4 kmh NW 4.0 mph6.4 kmh 29.94 in1013.9 mb 0.00 in0.0 mm 0.00 in0.0 mm 0.01 in0.3 mm
01:49 PM 58.7°F14.8°C 51.2°F10.7°C 76% 2.0 mph NW3.2 kmh NW 3.0 mph4.8 kmh 29.94 in1013.9 mb 0.00 in0.0 mm 0.00 in0.0 mm 0.01 in0.3 mm
01:50 PM 58.7°F14.8°C 51.2°F10.7°C 76% 2.4 mph NW3.9 kmh NW 3.0 mph4.8 kmh 29.94 in1013.9 mb 0.00 in0.0 mm 0.00 in0.0 mm 0.01 in0.3 mm
01:51 PM 58.7°F14.8°C 51.2°F10.7°C 76% 2.6 mph NNW4.2 kmh NNW 3.0 mph4.8 kmh 29.94 in1013.9 mb 0.00 in0.0 mm 0.00 in0.0 mm 0.01 in0.3 mm
01:52 PM 58.7°F14.8°C 51.2°F10.7°C 76% 2.2 mph NNW3.5 kmh NNW 3.0 mph4.8 kmh 29.94 in1013.9 mb 0.00 in0.0 mm 0.00 in0.0 mm 0.01 in0.3 mm
01:53 PM 58.7°F14.8°C 51.2°F10.7°C 76% 2.5 mph NNW4.0 kmh NNW 4.0 mph6.4 kmh 29.94 in1013.9 mb 0.00 in0.0 mm 0.00 in0.0 mm 0.01 in0.3 mm
01:54 PM 58.7°F14.8°C 51.2°F10.7°C 76% 2.1 mph NNW3.4 kmh NNW 4.0 mph6.4 kmh 29.95 in1014.2 mb 0.00 in0.0 mm 0.00 in0.0 mm 0.01 in0.3 mm
01:55 PM 58.8°F14.9°C 51.6°F10.9°C 77% 2.6 mph NNW4.2 kmh NNW 3.0 mph4.8 kmh 29.95 in1014.2 mb 0.00 in0.0 mm 0.00 in0.0 mm 0.01 in0.3 mm
01:56 PM 58.8°F14.9°C 51.2°F10.7°C 76% 2.3 mph N3.7 kmh N 3.0 mph4.8 kmh 29.95 in1014.2 mb 0.00 in0.0 mm 0.00 in0.0 mm 0.01 in0.3 mm
01:57 PM 58.9°F14.9°C 51.3°F10.7°C 76% 1.5 mph N2.4 kmh N 3.0 mph4.8 kmh 29.95 in1014.2 mb 0.00 in0.0 mm 0.00 in0.0 mm 0.01 in0.3 mm
01:58 PM 59.0°F15.0°C 51.4°F10.8°C 76% 1.9 mph N3.1 kmh N 2.0 mph3.2 kmh 29.94 in1013.9 mb 0.00 in0.0 mm 0.00 in0.0 mm 0.01 in0.3 mm
01:59 PM 59.1°F15.1°C 51.5°F10.8°C 76% 2.3 mph N3.7 kmh N 3.0 mph4.8 kmh 29.95 in1014.2 mb 0.00 in0.0 mm 0.00 in0.0 mm 0.01 in0.3 mm
02:00 PM 59.1°F15.1°C 51.2°F10.7°C 75% 2.2 mph N3.5 kmh N 3.0 mph4.8 kmh 29.94 in1013.9 mb 0.00 in0.0 mm 0.00 in0.0 mm 0.01 in0.3 mm
02:01 PM 59.1°F15.1°C 51.2°F10.7°C 75% 2.1 mph N3.4 kmh N 3.0 mph4.8 kmh 29.94 in1013.9 mb 0.00 in0.0 mm 0.00 in0.0 mm 0.01 in0.3 mm
02:02 PM 59.2°F15.1°C 51.6°F10.9°C 76% 1.4 mph N2.3 kmh N 3.0 mph4.8 kmh 29.94 in1013.9 mb 0.00 in0.0 mm 0.00 in0.0 mm 0.01 in0.3 mm
02:03 PM 59.3°F15.2°C 51.4°F10.8°C 75% 1.4 mph N2.3 kmh N 2.0 mph3.2 kmh 29.94 in1013.9 mb 0.00 in0.0 mm 0.00 in0.0 mm 0.01 in0.3 mm
02:04 PM 59.4°F15.2°C 51.8°F11.0°C 76% 2.7 mph N4.3 kmh N 4.0 mph6.4 kmh 29.94 in1013.9 mb 0.00 in0.0 mm 0.00 in0.0 mm 0.01 in0.3 mm
02:05 PM 59.5°F15.3°C 51.6°F10.9°C 75% 3.1 mph NNE5.0 kmh NNE 4.0 mph6.4 kmh 29.94 in1013.9 mb 0.00 in0.0 mm 0.00 in0.0 mm 0.01 in0.3 mm
02:06 PM 59.5°F15.3°C 51.9°F11.1°C 76% 2.9 mph N4.7 kmh N 4.0 mph6.4 kmh 29.94 in1013.9 mb 0.00 in0.0 mm 0.00 in0.0 mm 0.01 in0.3 mm
02:07 PM 59.6°F15.3°C 52.0°F11.1°C 76% 2.9 mph N4.7 kmh N 4.0 mph6.4 kmh 29.94 in1013.9 mb 0.00 in0.0 mm 0.00 in0.0 mm 0.01 in0.3 mm
02:08 PM 59.6°F15.3°C 52.0°F11.1°C 76% 3.3 mph N5.3 kmh N 4.0 mph6.4 kmh 29.94 in1013.9 mb 0.00 in0.0 mm 0.00 in0.0 mm 0.01 in0.3 mm
02:09 PM 59.6°F15.3°C 51.7°F10.9°C 75% 3.4 mph N5.5 kmh N 4.0 mph6.4 kmh 29.94 in1013.9 mb 0.00 in0.0 mm 0.00 in0.0 mm 0.01 in0.3 mm
02:10 PM 59.6°F15.3°C 51.3°F10.7°C 74% 3.5 mph NNW5.6 kmh NNW 4.0 mph6.4 kmh 29.94 in1013.9 mb 0.00 in0.0 mm 0.00 in0.0 mm 0.01 in0.3 mm
02:11 PM 59.5°F15.3°C 51.6°F10.9°C 75% 3.2 mph N5.1 kmh N 4.0 mph6.4 kmh 29.94 in1013.9 mb 0.00 in0.0 mm 0.00 in0.0 mm 0.01 in0.3 mm
02:12 PM 59.5°F15.3°C 51.6°F10.9°C 75% 2.5 mph N4.0 kmh N 4.0 mph6.4 kmh 29.94 in1013.9 mb 0.00 in0.0 mm 0.00 in0.0 mm 0.01 in0.3 mm
02:13 PM 59.5°F15.3°C 51.9°F11.1°C 76% 2.9 mph N4.7 kmh N 4.0 mph6.4 kmh 29.94 in1013.9 mb 0.00 in0.0 mm 0.00 in0.0 mm 0.01 in0.3 mm
02:14 PM 59.4°F15.2°C 51.5°F10.8°C 75% 2.1 mph N3.4 kmh N 4.0 mph6.4 kmh 29.94 in1013.9 mb 0.00 in0.0 mm 0.00 in0.0 mm 0.01 in0.3 mm
02:15 PM 59.5°F15.3°C 51.9°F11.1°C 76% 2.5 mph N4.0 kmh N 3.0 mph4.8 kmh 29.94 in1013.9 mb 0.00 in0.0 mm 0.00 in0.0 mm 0.01 in0.3 mm
02:16 PM 59.6°F15.3°C 52.0°F11.1°C 76% 3.0 mph N4.8 kmh N 4.0 mph6.4 kmh 29.94 in1013.9 mb 0.00 in0.0 mm 0.00 in0.0 mm 0.01 in0.3 mm
02:17 PM 59.5°F15.3°C 51.9°F11.1°C 76% 3.0 mph N4.8 kmh N 4.0 mph6.4 kmh 29.94 in1013.9 mb 0.00 in0.0 mm 0.00 in0.0 mm 0.01 in0.3 mm
02:18 PM 59.6°F15.3°C 51.7°F10.9°C 75% 3.5 mph N5.6 kmh N 4.0 mph6.4 kmh 29.94 in1013.9 mb 0.00 in0.0 mm 0.00 in0.0 mm 0.01 in0.3 mm
02:19 PM 59.5°F15.3°C 51.6°F10.9°C 75% 3.0 mph N4.8 kmh N 4.0 mph6.4 kmh 29.94 in1013.9 mb 0.00 in0.0 mm 0.00 in0.0 mm 0.01 in0.3 mm
02:20 PM 59.6°F15.3°C 51.7°F10.9°C 75% 2.7 mph N4.3 kmh N 4.0 mph6.4 kmh 29.94 in1013.9 mb 0.00 in0.0 mm 0.00 in0.0 mm 0.01 in0.3 mm
02:21 PM 59.5°F15.3°C 51.9°F11.1°C 76% 3.3 mph N5.3 kmh N 4.0 mph6.4 kmh 29.94 in1013.9 mb 0.00 in0.0 mm 0.00 in0.0 mm 0.01 in0.3 mm
02:22 PM 59.5°F15.3°C 51.6°F10.9°C 75% 2.9 mph N4.7 kmh N 4.0 mph6.4 kmh 29.94 in1013.9 mb 0.00 in0.0 mm 0.00 in0.0 mm 0.01 in0.3 mm
02:23 PM 59.5°F15.3°C 51.6°F10.9°C 75% 2.6 mph N4.2 kmh N 3.0 mph4.8 kmh 29.94 in1013.9 mb 0.00 in0.0 mm 0.00 in0.0 mm 0.01 in0.3 mm
02:24 PM 59.5°F15.3°C 51.9°F11.1°C 76% 2.2 mph N3.5 kmh N 3.0 mph4.8 kmh 29.94 in1013.9 mb 0.00 in0.0 mm 0.00 in0.0 mm 0.01 in0.3 mm
02:25 PM 59.5°F15.3°C 51.6°F10.9°C 75% 2.5 mph N4.0 kmh N 3.0 mph4.8 kmh 29.94 in1013.9 mb 0.00 in0.0 mm 0.00 in0.0 mm 0.01 in0.3 mm
02:26 PM 59.5°F15.3°C 51.6°F10.9°C 75% 2.2 mph N3.5 kmh N 3.0 mph4.8 kmh 29.94 in1013.9 mb 0.00 in0.0 mm 0.00 in0.0 mm 0.01 in0.3 mm
02:27 PM 59.5°F15.3°C 51.6°F10.9°C 75% 2.5 mph N4.0 kmh N 3.0 mph4.8 kmh 29.94 in1013.9 mb 0.00 in0.0 mm 0.00 in0.0 mm 0.01 in0.3 mm
02:28 PM 59.5°F15.3°C 51.2°F10.7°C 74% 2.0 mph 3.2 kmh 3.0 mph4.8 kmh 29.94 in1013.9 mb 0.00 in0.0 mm 0.00 in0.0 mm 0.01 in0.3 mm
02:29 PM 59.6°F15.3°C 51.7°F10.9°C 75% 1.0 mph 1.6 kmh 2.0 mph3.2 kmh 29.94 in1013.9 mb 0.00 in0.0 mm 0.00 in0.0 mm 0.01 in0.3 mm
02:30 PM 59.7°F15.4°C 51.8°F11.0°C 75% 1.0 mph 1.6 kmh 2.0 mph3.2 kmh 29.94 in1013.9 mb 0.00 in0.0 mm 0.00 in0.0 mm 0.01 in0.3 mm
02:31 PM 59.7°F15.4°C 51.8°F11.0°C 75% 2.2 mph N3.5 kmh N 3.0 mph4.8 kmh 29.94 in1013.9 mb 0.00 in0.0 mm 0.00 in0.0 mm 0.01 in0.3 mm
02:32 PM 59.8°F15.4°C 51.5°F10.8°C 74% 2.1 mph N3.4 kmh N 3.0 mph4.8 kmh 29.94 in1013.9 mb 0.00 in0.0 mm 0.00 in0.0 mm 0.01 in0.3 mm
02:33 PM 59.9°F15.5°C 52.0°F11.1°C 75% 1.7 mph N2.7 kmh N 3.0 mph4.8 kmh 29.94 in1013.9 mb 0.00 in0.0 mm 0.00 in0.0 mm 0.01 in0.3 mm
02:34 PM 60.0°F15.6°C 52.1°F11.2°C 75% 2.1 mph N3.4 kmh N 3.0 mph4.8 kmh 29.94 in1013.9 mb 0.00 in0.0 mm 0.00 in0.0 mm 0.01 in0.3 mm
02:35 PM 60.0°F15.6°C 51.7°F10.9°C 74% 2.1 mph N3.4 kmh N 3.0 mph4.8 kmh 29.94 in1013.9 mb 0.00 in0.0 mm 0.00 in0.0 mm 0.01 in0.3 mm
02:36 PM 60.0°F15.6°C 51.7°F10.9°C 74% 2.7 mph N4.3 kmh N 3.0 mph4.8 kmh 29.94 in1013.9 mb 0.00 in0.0 mm 0.00 in0.0 mm 0.01 in0.3 mm
02:37 PM 60.0°F15.6°C 51.7°F10.9°C 74% 3.1 mph N5.0 kmh N 5.0 mph8.0 kmh 29.94 in1013.9 mb 0.00 in0.0 mm 0.00 in0.0 mm 0.01 in0.3 mm
02:38 PM 59.9°F15.5°C 51.6°F10.9°C 74% 3.2 mph N5.1 kmh N 5.0 mph8.0 kmh 29.94 in1013.9 mb 0.00 in0.0 mm 0.00 in0.0 mm 0.01 in0.3 mm
02:39 PM 59.9°F15.5°C 51.6°F10.9°C 74% 3.2 mph N5.1 kmh N 4.0 mph6.4 kmh 29.94 in1013.9 mb 0.00 in0.0 mm 0.00 in0.0 mm 0.01 in0.3 mm
02:40 PM 59.8°F15.4°C 51.5°F10.8°C 74% 2.3 mph N3.7 kmh N 4.0 mph6.4 kmh 29.94 in1013.9 mb 0.00 in0.0 mm 0.00 in0.0 mm 0.01 in0.3 mm
02:41 PM 59.7°F15.4°C 51.4°F10.8°C 74% 2.4 mph N3.9 kmh N 4.0 mph6.4 kmh 29.94 in1013.9 mb 0.00 in0.0 mm 0.00 in0.0 mm 0.01 in0.3 mm
02:42 PM 59.6°F15.3°C 51.3°F10.7°C 74% 2.6 mph N4.2 kmh N 3.0 mph4.8 kmh 29.94 in1013.9 mb 0.00 in0.0 mm 0.00 in0.0 mm 0.01 in0.3 mm
02:43 PM 59.6°F15.3°C 51.3°F10.7°C 74% 2.2 mph N3.5 kmh N 3.0 mph4.8 kmh 29.94 in1013.9 mb 0.00 in0.0 mm 0.00 in0.0 mm 0.01 in0.3 mm
02:44 PM 59.6°F15.3°C 51.3°F10.7°C 74% 2.2 mph N3.5 kmh N 3.0 mph4.8 kmh 29.95 in1014.2 mb 0.00 in0.0 mm 0.00 in0.0 mm 0.01 in0.3 mm
02:45 PM 59.5°F15.3°C 51.6°F10.9°C 75% 2.5 mph N4.0 kmh N 3.0 mph4.8 kmh 29.94 in1013.9 mb 0.00 in0.0 mm 0.00 in0.0 mm 0.01 in0.3 mm
02:46 PM 59.5°F15.3°C 51.2°F10.7°C 74% 2.3 mph N3.7 kmh N 3.0 mph4.8 kmh 29.94 in1013.9 mb 0.00 in0.0 mm 0.00 in0.0 mm 0.01 in0.3 mm
02:47 PM 59.5°F15.3°C 51.6°F10.9°C 75% 2.5 mph N4.0 kmh N 3.0 mph4.8 kmh 29.94 in1013.9 mb 0.00 in0.0 mm 0.00 in0.0 mm 0.01 in0.3 mm
02:48 PM 59.5°F15.3°C 51.6°F10.9°C 75% 1.6 mph N2.6 kmh N 3.0 mph4.8 kmh 29.94 in1013.9 mb 0.00 in0.0 mm 0.00 in0.0 mm 0.01 in0.3 mm
02:49 PM 59.5°F15.3°C 51.6°F10.9°C 75% 2.5 mph N4.0 kmh N 3.0 mph4.8 kmh 29.94 in1013.9 mb 0.00 in0.0 mm 0.00 in0.0 mm 0.01 in0.3 mm
02:50 PM 59.5°F15.3°C 51.9°F11.1°C 76% 3.4 mph N5.5 kmh N 4.0 mph6.4 kmh 29.94 in1013.9 mb 0.00 in0.0 mm 0.00 in0.0 mm 0.01 in0.3 mm
02:51 PM 59.5°F15.3°C 51.6°F10.9°C 75% 3.6 mph N5.8 kmh N 4.0 mph6.4 kmh 29.94 in1013.9 mb 0.00 in0.0 mm 0.00 in0.0 mm 0.01 in0.3 mm
02:52 PM 59.5°F15.3°C 51.6°F10.9°C 75% 4.1 mph NE6.6 kmh NE 5.0 mph8.0 kmh 29.94 in1013.9 mb 0.00 in0.0 mm 0.00 in0.0 mm 0.01 in0.3 mm
02:53 PM 59.5°F15.3°C 51.2°F10.7°C 74% 3.0 mph NE4.8 kmh NE 5.0 mph8.0 kmh 29.94 in1013.9 mb 0.00 in0.0 mm 0.00 in0.0 mm 0.01 in0.3 mm
02:54 PM 59.6°F15.3°C 50.9°F10.5°C 73% 1.6 mph NE2.6 kmh NE 4.0 mph6.4 kmh 29.94 in1013.9 mb 0.00 in0.0 mm 0.00 in0.0 mm 0.01 in0.3 mm
02:55 PM 59.5°F15.3°C 50.8°F10.4°C 73% 1.8 mph NE2.9 kmh NE 3.0 mph4.8 kmh 29.94 in1013.9 mb 0.00 in0.0 mm 0.00 in0.0 mm 0.01 in0.3 mm
02:56 PM 59.6°F15.3°C 50.9°F10.5°C 73% 1.5 mph NE2.4 kmh NE 3.0 mph4.8 kmh 29.94 in1013.9 mb 0.00 in0.0 mm 0.00 in0.0 mm 0.01 in0.3 mm
02:57 PM 59.5°F15.3°C 51.2°F10.7°C 74% 2.0 mph NNE3.2 kmh NNE 3.0 mph4.8 kmh 29.94 in1013.9 mb 0.00 in0.0 mm 0.00 in0.0 mm 0.01 in0.3 mm
02:58 PM 59.5°F15.3°C 51.2°F10.7°C 74% 3.0 mph NNE4.8 kmh NNE 3.0 mph4.8 kmh 29.94 in1013.9 mb 0.00 in0.0 mm 0.00 in0.0 mm 0.01 in0.3 mm
02:59 PM 59.5°F15.3°C 51.2°F10.7°C 74% 2.5 mph NNE4.0 kmh NNE 3.0 mph4.8 kmh 29.94 in1013.9 mb 0.00 in0.0 mm 0.00 in0.0 mm 0.01 in0.3 mm
03:00 PM 59.5°F15.3°C 51.2°F10.7°C 74% 2.1 mph NNE3.4 kmh NNE 3.0 mph4.8 kmh 29.94 in1013.9 mb 0.00 in0.0 mm 0.00 in0.0 mm 0.01 in0.3 mm
03:01 PM 59.5°F15.3°C 51.2°F10.7°C 74% 2.6 mph NNE4.2 kmh NNE 3.0 mph4.8 kmh 29.95 in1014.2 mb 0.00 in0.0 mm 0.00 in0.0 mm 0.01 in0.3 mm
03:02 PM 59.5°F15.3°C 51.2°F10.7°C 74% 2.9 mph N4.7 kmh N 3.0 mph4.8 kmh 29.94 in1013.9 mb 0.00 in0.0 mm 0.00 in0.0 mm 0.01 in0.3 mm
03:03 PM 59.5°F15.3°C 51.2°F10.7°C 74% 3.3 mph N5.3 kmh N 4.0 mph6.4 kmh 29.94 in1013.9 mb 0.00 in0.0 mm 0.00 in0.0 mm 0.01 in0.3 mm
03:04 PM 59.5°F15.3°C 50.8°F10.4°C 73% 2.6 mph N4.2 kmh N 4.0 mph6.4 kmh 29.94 in1013.9 mb 0.00 in0.0 mm 0.00 in0.0 mm 0.01 in0.3 mm
03:05 PM 59.5°F15.3°C 50.8°F10.4°C 73% 1.9 mph N3.1 kmh N 3.0 mph4.8 kmh 29.94 in1013.9 mb 0.00 in0.0 mm 0.00 in0.0 mm 0.01 in0.3 mm
03:06 PM 59.5°F15.3°C 50.8°F10.4°C 73% 2.1 mph N3.4 kmh N 3.0 mph4.8 kmh 29.94 in1013.9 mb 0.00 in0.0 mm 0.00 in0.0 mm 0.01 in0.3 mm
03:07 PM 59.5°F15.3°C 50.8°F10.4°C 73% 2.6 mph N4.2 kmh N 4.0 mph6.4 kmh 29.94 in1013.9 mb 0.00 in0.0 mm 0.00 in0.0 mm 0.01 in0.3 mm
03:08 PM 59.5°F15.3°C 50.8°F10.4°C 73% 2.2 mph N3.5 kmh N 4.0 mph6.4 kmh 29.94 in1013.9 mb 0.00 in0.0 mm 0.00 in0.0 mm 0.01 in0.3 mm
03:09 PM 59.5°F15.3°C 51.2°F10.7°C 74% 2.4 mph N3.9 kmh N 3.0 mph4.8 kmh 29.94 in1013.9 mb 0.00 in0.0 mm 0.00 in0.0 mm 0.01 in0.3 mm
03:10 PM 59.5°F15.3°C 51.2°F10.7°C 74% 2.5 mph N4.0 kmh N 3.0 mph4.8 kmh 29.94 in1013.9 mb 0.00 in0.0 mm 0.00 in0.0 mm 0.01 in0.3 mm
03:11 PM 59.6°F15.3°C 51.7°F10.9°C 75% 2.5 mph NNE4.0 kmh NNE 4.0 mph6.4 kmh 29.94 in1013.9 mb 0.00 in0.0 mm 0.00 in0.0 mm 0.01 in0.3 mm
03:12 PM 59.5°F15.3°C 51.6°F10.9°C 75% 2.2 mph NE3.5 kmh NE 4.0 mph6.4 kmh 29.94 in1013.9 mb 0.00 in0.0 mm 0.00 in0.0 mm 0.01 in0.3 mm
03:13 PM 59.6°F15.3°C 52.0°F11.1°C 76% 2.5 mph NE4.0 kmh NE 3.0 mph4.8 kmh 29.94 in1013.9 mb 0.00 in0.0 mm 0.00 in0.0 mm 0.01 in0.3 mm
03:14 PM 59.6°F15.3°C 51.7°F10.9°C 75% 2.4 mph NE3.9 kmh NE 4.0 mph6.4 kmh 29.94 in1013.9 mb 0.00 in0.0 mm 0.00 in0.0 mm 0.01 in0.3 mm
03:15 PM 59.6°F15.3°C 51.3°F10.7°C 74% 3.0 mph NE4.8 kmh NE 4.0 mph6.4 kmh 29.94 in1013.9 mb 0.00 in0.0 mm 0.00 in0.0 mm 0.01 in0.3 mm
03:16 PM 59.6°F15.3°C 51.7°F10.9°C 75% 2.8 mph NE4.5 kmh NE 4.0 mph6.4 kmh 29.94 in1013.9 mb 0.00 in0.0 mm 0.00 in0.0 mm 0.01 in0.3 mm
03:17 PM 59.6°F15.3°C 51.7°F10.9°C 75% 3.0 mph NE4.8 kmh NE 4.0 mph6.4 kmh 29.94 in1013.9 mb 0.00 in0.0 mm 0.00 in0.0 mm 0.01 in0.3 mm
03:18 PM 59.6°F15.3°C 51.7°F10.9°C 75% 2.7 mph NE4.3 kmh NE 4.0 mph6.4 kmh 29.94 in1013.9 mb 0.00 in0.0 mm 0.00 in0.0 mm 0.01 in0.3 mm
03:19 PM 59.6°F15.3°C 51.3°F10.7°C 74% 2.7 mph NNE4.3 kmh NNE 3.0 mph4.8 kmh 29.94 in1013.9 mb 0.00 in0.0 mm 0.00 in0.0 mm 0.01 in0.3 mm
03:20 PM 59.6°F15.3°C 51.7°F10.9°C 75% 2.4 mph NNE3.9 kmh NNE 3.0 mph4.8 kmh 29.94 in1013.9 mb 0.00 in0.0 mm 0.00 in0.0 mm 0.01 in0.3 mm
03:21 PM 59.6°F15.3°C 51.7°F10.9°C 75% 2.2 mph NNE3.5 kmh NNE 3.0 mph4.8 kmh 29.94 in1013.9 mb 0.00 in0.0 mm 0.00 in0.0 mm 0.01 in0.3 mm
03:22 PM 59.6°F15.3°C 51.3°F10.7°C 74% 1.6 mph NNE2.6 kmh NNE 3.0 mph4.8 kmh 29.94 in1013.9 mb 0.00 in0.0 mm 0.00 in0.0 mm 0.01 in0.3 mm
03:23 PM 59.6°F15.3°C 50.9°F10.5°C 73% 2.3 mph NNE3.7 kmh NNE 3.0 mph4.8 kmh 29.94 in1013.9 mb 0.00 in0.0 mm 0.00 in0.0 mm 0.01 in0.3 mm
03:24 PM 59.6°F15.3°C 50.9°F10.5°C 73% 1.2 mph NNE1.9 kmh NNE 3.0 mph4.8 kmh 29.94 in1013.9 mb 0.00 in0.0 mm 0.00 in0.0 mm 0.01 in0.3 mm
03:25 PM 59.6°F15.3°C 51.3°F10.7°C 74% 1.3 mph NNE2.1 kmh NNE 2.0 mph3.2 kmh 29.94 in1013.9 mb 0.00 in0.0 mm 0.00 in0.0 mm 0.01 in0.3 mm
03:26 PM 59.6°F15.3°C 51.3°F10.7°C 74% 1.4 mph NNE2.3 kmh NNE 2.0 mph3.2 kmh 29.94 in1013.9 mb 0.00 in0.0 mm 0.00 in0.0 mm 0.01 in0.3 mm
03:27 PM 59.6°F15.3°C 51.3°F10.7°C 74% 2.0 mph NNE3.2 kmh NNE 3.0 mph4.8 kmh 29.94 in1013.9 mb 0.00 in0.0 mm 0.00 in0.0 mm 0.01 in0.3 mm
03:28 PM 59.6°F15.3°C 51.3°F10.7°C 74% 2.1 mph NNE3.4 kmh NNE 3.0 mph4.8 kmh 29.94 in1013.9 mb 0.00 in0.0 mm 0.00 in0.0 mm 0.01 in0.3 mm
03:29 PM 59.6°F15.3°C 51.3°F10.7°C 74% 1.0 mph NNE1.6 kmh NNE 3.0 mph4.8 kmh 29.94 in1013.9 mb 0.00 in0.0 mm 0.00 in0.0 mm 0.01 in0.3 mm
03:30 PM 59.6°F15.3°C 51.3°F10.7°C 74% 2.5 mph NE4.0 kmh NE 4.0 mph6.4 kmh 29.94 in1013.9 mb 0.00 in0.0 mm 0.00 in0.0 mm 0.01 in0.3 mm
03:31 PM 59.6°F15.3°C 51.3°F10.7°C 74% 3.1 mph ESE5.0 kmh ESE 4.0 mph6.4 kmh 29.94 in1013.9 mb 0.00 in0.0 mm 0.00 in0.0 mm 0.01 in0.3 mm
03:32 PM 59.7°F15.4°C 51.4°F10.8°C 74% 2.7 mph ESE4.3 kmh ESE 4.0 mph6.4 kmh 29.94 in1013.9 mb 0.00 in0.0 mm 0.00 in0.0 mm 0.01 in0.3 mm
03:33 PM 59.7°F15.4°C 50.7°F10.4°C 72% 4.0 mph ESE6.4 kmh ESE 4.0 mph6.4 kmh 29.94 in1013.9 mb 0.00 in0.0 mm 0.00 in0.0 mm 0.01 in0.3 mm
03:34 PM 59.7°F15.4°C 51.0°F10.6°C 73% 3.0 mph SE4.8 kmh SE 4.0 mph6.4 kmh 29.94 in1013.9 mb 0.00 in0.0 mm 0.00 in0.0 mm 0.01 in0.3 mm
03:35 PM 59.8°F15.4°C 51.1°F10.6°C 73% 3.3 mph SE5.3 kmh SE 4.0 mph6.4 kmh 29.94 in1013.9 mb 0.00 in0.0 mm 0.00 in0.0 mm 0.01 in0.3 mm
03:36 PM 59.9°F15.5°C 50.8°F10.4°C 72% 2.5 mph SE4.0 kmh SE 4.0 mph6.4 kmh 29.94 in1013.9 mb 0.00 in0.0 mm 0.00 in0.0 mm 0.01 in0.3 mm
03:37 PM 59.9°F15.5°C 50.8°F10.4°C 72% 2.6 mph SE4.2 kmh SE 4.0 mph6.4 kmh 29.94 in1013.9 mb 0.00 in0.0 mm 0.00 in0.0 mm 0.01 in0.3 mm
03:38 PM 59.9°F15.5°C 50.5°F10.3°C 71% 2.5 mph SE4.0 kmh SE 4.0 mph6.4 kmh 29.94 in1013.9 mb 0.00 in0.0 mm 0.00 in0.0 mm 0.01 in0.3 mm
03:39 PM 60.0°F15.6°C 50.6°F10.3°C 71% 3.1 mph SE5.0 kmh SE 4.0 mph6.4 kmh 29.94 in1013.9 mb 0.00 in0.0 mm 0.00 in0.0 mm 0.01 in0.3 mm
03:40 PM 60.0°F15.6°C 50.6°F10.3°C 71% 2.5 mph SE4.0 kmh SE 4.0 mph6.4 kmh 29.94 in1013.9 mb 0.00 in0.0 mm 0.00 in0.0 mm 0.01 in0.3 mm
03:41 PM 60.0°F15.6°C 50.9°F10.5°C 72% 2.0 mph SE3.2 kmh SE 3.0 mph4.8 kmh 29.94 in1013.9 mb 0.00 in0.0 mm 0.00 in0.0 mm 0.01 in0.3 mm
03:42 PM 60.0°F15.6°C 50.9°F10.5°C 72% 1.7 mph SE2.7 kmh SE 3.0 mph4.8 kmh 29.94 in1013.9 mb 0.00 in0.0 mm 0.00 in0.0 mm 0.01 in0.3 mm
03:43 PM 60.0°F15.6°C 50.9°F10.5°C 72% 1.8 mph SE2.9 kmh SE 3.0 mph4.8 kmh 29.94 in1013.9 mb 0.00 in0.0 mm 0.00 in0.0 mm 0.01 in0.3 mm
03:44 PM 60.0°F15.6°C 50.9°F10.5°C 72% 1.5 mph SE2.4 kmh SE 3.0 mph4.8 kmh 29.94 in1013.9 mb 0.00 in0.0 mm 0.00 in0.0 mm 0.01 in0.3 mm
03:45 PM 60.0°F15.6°C 50.9°F10.5°C 72% 1.9 mph SE3.1 kmh SE 3.0 mph4.8 kmh 29.94 in1013.9 mb 0.00 in0.0 mm 0.00 in0.0 mm 0.01 in0.3 mm
03:46 PM 60.0°F15.6°C 50.9°F10.5°C 72% 1.9 mph ESE3.1 kmh ESE 3.0 mph4.8 kmh 29.94 in1013.9 mb 0.00 in0.0 mm 0.00 in0.0 mm 0.01 in0.3 mm
03:47 PM 60.0°F15.6°C 50.6°F10.3°C 71% 1.1 mph E1.8 kmh E 3.0 mph4.8 kmh 29.94 in1013.9 mb 0.00 in0.0 mm 0.00 in0.0 mm 0.01 in0.3 mm
03:48 PM 60.0°F15.6°C 50.9°F10.5°C 72% 0.8 mph E1.3 kmh E 2.0 mph3.2 kmh 29.95 in1014.2 mb 0.00 in0.0 mm 0.00 in0.0 mm 0.01 in0.3 mm
03:49 PM 60.0°F15.6°C 50.9°F10.5°C 72% 1.3 mph E2.1 kmh E 2.0 mph3.2 kmh 29.95 in1014.2 mb 0.00 in0.0 mm 0.00 in0.0 mm 0.01 in0.3 mm
03:50 PM 60.0°F15.6°C 50.9°F10.5°C 72% 1.3 mph E2.1 kmh E 2.0 mph3.2 kmh 29.95 in1014.2 mb 0.00 in0.0 mm 0.00 in0.0 mm 0.01 in0.3 mm
03:51 PM 60.0°F15.6°C 50.6°F10.3°C 71% 1.1 mph E1.8 kmh E 2.0 mph3.2 kmh 29.95 in1014.2 mb 0.00 in0.0 mm 0.00 in0.0 mm 0.01 in0.3 mm
03:52 PM 60.1°F15.6°C 51.0°F10.6°C 72% 1.7 mph SE2.7 kmh SE 4.0 mph6.4 kmh 29.95 in1014.2 mb 0.00 in0.0 mm 0.00 in0.0 mm 0.01 in0.3 mm
03:53 PM 60.0°F15.6°C 50.9°F10.5°C 72% 3.0 mph S4.8 kmh S 5.0 mph8.0 kmh 29.95 in1014.2 mb 0.00 in0.0 mm 0.00 in0.0 mm 0.01 in0.3 mm
03:54 PM 60.0°F15.6°C 50.9°F10.5°C 72% 3.0 mph S4.8 kmh S 5.0 mph8.0 kmh 29.95 in1014.2 mb 0.00 in0.0 mm 0.00 in0.0 mm 0.01 in0.3 mm
03:55 PM 59.9°F15.5°C 50.8°F10.4°C 72% 2.8 mph S4.5 kmh S 4.0 mph6.4 kmh 29.95 in1014.2 mb 0.00 in0.0 mm 0.00 in0.0 mm 0.01 in0.3 mm
03:56 PM 59.9°F15.5°C 50.8°F10.4°C 72% 3.4 mph S5.5 kmh S 4.0 mph6.4 kmh 29.95 in1014.2 mb 0.00 in0.0 mm 0.00 in0.0 mm 0.01 in0.3 mm
03:57 PM 59.9°F15.5°C 50.8°F10.4°C 72% 2.7 mph S4.3 kmh S 4.0 mph6.4 kmh 29.95 in1014.2 mb 0.00 in0.0 mm 0.00 in0.0 mm 0.01 in0.3 mm
03:58 PM 59.8°F15.4°C 50.8°F10.4°C 72% 2.4 mph S3.9 kmh S 4.0 mph6.4 kmh 29.95 in1014.2 mb 0.00 in0.0 mm 0.00 in0.0 mm 0.01 in0.3 mm
03:59 PM 59.7°F15.4°C 51.0°F10.6°C 73% 3.2 mph S5.1 kmh S 4.0 mph6.4 kmh 29.95 in1014.2 mb 0.00 in0.0 mm 0.00 in0.0 mm 0.01 in0.3 mm
04:00 PM 59.7°F15.4°C 51.0°F10.6°C 73% 2.8 mph S4.5 kmh S 4.0 mph6.4 kmh 29.95 in1014.2 mb 0.00 in0.0 mm 0.00 in0.0 mm 0.01 in0.3 mm
04:01 PM 59.7°F15.4°C 51.0°F10.6°C 73% 3.3 mph S5.3 kmh S 4.0 mph6.4 kmh 29.95 in1014.2 mb 0.00 in0.0 mm 0.00 in0.0 mm 0.01 in0.3 mm
04:02 PM 59.6°F15.3°C 50.9°F10.5°C 73% 3.3 mph S5.3 kmh S 4.0 mph6.4 kmh 29.95 in1014.2 mb 0.00 in0.0 mm 0.00 in0.0 mm 0.01 in0.3 mm
04:03 PM 59.6°F15.3°C 50.6°F10.3°C 72% 2.6 mph S4.2 kmh S 4.0 mph6.4 kmh 29.95 in1014.2 mb 0.00 in0.0 mm 0.00 in0.0 mm 0.01 in0.3 mm
04:04 PM 59.5°F15.3°C 50.5°F10.3°C 72% 2.5 mph S4.0 kmh S 4.0 mph6.4 kmh 29.95 in1014.2 mb 0.00 in0.0 mm 0.00 in0.0 mm 0.01 in0.3 mm
04:05 PM 59.5°F15.3°C 50.5°F10.3°C 72% 1.8 mph S2.9 kmh S 3.0 mph4.8 kmh 29.95 in1014.2 mb 0.00 in0.0 mm 0.00 in0.0 mm 0.01 in0.3 mm
04:06 PM 59.5°F15.3°C 50.8°F10.4°C 73% 1.2 mph S1.9 kmh S 3.0 mph4.8 kmh 29.95 in1014.2 mb 0.00 in0.0 mm 0.00 in0.0 mm 0.01 in0.3 mm
04:07 PM 59.5°F15.3°C 50.8°F10.4°C 73% 2.0 mph S3.2 kmh S 3.0 mph4.8 kmh 29.95 in1014.2 mb 0.00 in0.0 mm 0.00 in0.0 mm 0.01 in0.3 mm
04:08 PM 59.5°F15.3°C 51.2°F10.7°C 74% 1.8 mph S2.9 kmh S 3.0 mph4.8 kmh 29.95 in1014.2 mb 0.00 in0.0 mm 0.00 in0.0 mm 0.01 in0.3 mm
04:09 PM 59.4°F15.2°C 50.7°F10.4°C 73% 2.0 mph S3.2 kmh S 3.0 mph4.8 kmh 29.95 in1014.2 mb 0.00 in0.0 mm 0.00 in0.0 mm 0.01 in0.3 mm
04:10 PM 59.4°F15.2°C 51.1°F10.6°C 74% 2.1 mph S3.4 kmh S 3.0 mph4.8 kmh 29.95 in1014.2 mb 0.00 in0.0 mm 0.00 in0.0 mm 0.01 in0.3 mm
04:11 PM 59.4°F15.2°C 50.7°F10.4°C 73% 2.3 mph S3.7 kmh S 3.0 mph4.8 kmh 29.95 in1014.2 mb 0.00 in0.0 mm 0.00 in0.0 mm 0.01 in0.3 mm
04:12 PM 59.4°F15.2°C 51.1°F10.6°C 74% 2.5 mph S4.0 kmh S 3.0 mph4.8 kmh 29.95 in1014.2 mb 0.00 in0.0 mm 0.00 in0.0 mm 0.01 in0.3 mm
04:13 PM 59.4°F15.2°C 50.7°F10.4°C 73% 2.1 mph S3.4 kmh S 3.0 mph4.8 kmh 29.95 in1014.2 mb 0.00 in0.0 mm 0.00 in0.0 mm 0.01 in0.3 mm
04:14 PM 59.4°F15.2°C 50.7°F10.4°C 73% 2.3 mph S3.7 kmh S 3.0 mph4.8 kmh 29.95 in1014.2 mb 0.00 in0.0 mm 0.00 in0.0 mm 0.01 in0.3 mm
04:15 PM 59.3°F15.2°C 50.6°F10.3°C 73% 2.5 mph S4.0 kmh S 3.0 mph4.8 kmh 29.95 in1014.2 mb 0.00 in0.0 mm 0.00 in0.0 mm 0.01 in0.3 mm
04:16 PM 59.4°F15.2°C 50.7°F10.4°C 73% 2.2 mph S3.5 kmh S 3.0 mph4.8 kmh 29.95 in1014.2 mb 0.00 in0.0 mm 0.00 in0.0 mm 0.01 in0.3 mm
04:17 PM 59.3°F15.2°C 50.6°F10.3°C 73% 2.4 mph S3.9 kmh S 3.0 mph4.8 kmh 29.95 in1014.2 mb 0.00 in0.0 mm 0.00 in0.0 mm 0.01 in0.3 mm
04:18 PM 59.3°F15.2°C 50.6°F10.3°C 73% 2.3 mph S3.7 kmh S 3.0 mph4.8 kmh 29.95 in1014.2 mb 0.00 in0.0 mm 0.00 in0.0 mm 0.01 in0.3 mm
04:19 PM 59.2°F15.1°C 50.5°F10.3°C 73% 1.8 mph S2.9 kmh S 3.0 mph4.8 kmh 29.95 in1014.2 mb 0.00 in0.0 mm 0.00 in0.0 mm 0.01 in0.3 mm
04:20 PM 59.3°F15.2°C 51.0°F10.6°C 74% 1.4 mph S2.3 kmh S 2.0 mph3.2 kmh 29.95 in1014.2 mb 0.00 in0.0 mm 0.00 in0.0 mm 0.01 in0.3 mm
04:21 PM 59.2°F15.1°C 50.9°F10.5°C 74% 2.0 mph S3.2 kmh S 3.0 mph4.8 kmh 29.95 in1014.2 mb 0.00 in0.0 mm 0.00 in0.0 mm 0.01 in0.3 mm
04:22 PM 59.2°F15.1°C 50.9°F10.5°C 74% 1.5 mph S2.4 kmh S 3.0 mph4.8 kmh 29.95 in1014.2 mb 0.00 in0.0 mm 0.00 in0.0 mm 0.01 in0.3 mm
04:23 PM 59.2°F15.1°C 50.9°F10.5°C 74% 1.7 mph S2.7 kmh S 2.0 mph3.2 kmh 29.95 in1014.2 mb 0.00 in0.0 mm 0.00 in0.0 mm 0.01 in0.3 mm
04:24 PM 59.2°F15.1°C 50.9°F10.5°C 74% 1.8 mph S2.9 kmh S 3.0 mph4.8 kmh 29.95 in1014.2 mb 0.00 in0.0 mm 0.00 in0.0 mm 0.01 in0.3 mm
04:25 PM 59.2°F15.1°C 50.9°F10.5°C 74% 1.6 mph S2.6 kmh S 3.0 mph4.8 kmh 29.95 in1014.2 mb 0.00 in0.0 mm 0.00 in0.0 mm 0.01 in0.3 mm
04:26 PM 59.2°F15.1°C 50.5°F10.3°C 73% 1.8 mph S2.9 kmh S 2.0 mph3.2 kmh 29.95 in1014.2 mb 0.00 in0.0 mm 0.00 in0.0 mm 0.01 in0.3 mm
04:27 PM 59.2°F15.1°C 50.9°F10.5°C 74% 2.1 mph S3.4 kmh S 3.0 mph4.8 kmh 29.95 in1014.2 mb 0.00 in0.0 mm 0.00 in0.0 mm 0.01 in0.3 mm
04:28 PM 59.2°F15.1°C 50.5°F10.3°C 73% 2.0 mph S3.2 kmh S 3.0 mph4.8 kmh 29.95 in1014.2 mb 0.00 in0.0 mm 0.00 in0.0 mm 0.01 in0.3 mm
04:29 PM 59.1°F15.1°C 50.8°F10.4°C 74% 2.2 mph S3.5 kmh S 3.0 mph4.8 kmh 29.95 in1014.2 mb 0.00 in0.0 mm 0.00 in0.0 mm 0.01 in0.3 mm
04:30 PM 59.2°F15.1°C 50.9°F10.5°C 74% 2.1 mph S3.4 kmh S 3.0 mph4.8 kmh 29.95 in1014.2 mb 0.00 in0.0 mm 0.00 in0.0 mm 0.01 in0.3 mm
04:31 PM 59.2°F15.1°C 50.9°F10.5°C 74% 1.7 mph S2.7 kmh S 3.0 mph4.8 kmh 29.95 in1014.2 mb 0.00 in0.0 mm 0.00 in0.0 mm 0.01 in0.3 mm
04:32 PM 59.2°F15.1°C 50.5°F10.3°C 73% 2.1 mph S3.4 kmh S 3.0 mph4.8 kmh 29.95 in1014.2 mb 0.00 in0.0 mm 0.00 in0.0 mm 0.01 in0.3 mm
04:33 PM 59.2°F15.1°C 50.2°F10.1°C 72% 1.3 mph S2.1 kmh S 3.0 mph4.8 kmh 29.95 in1014.2 mb 0.00 in0.0 mm 0.00 in0.0 mm 0.01 in0.3 mm
04:34 PM 59.2°F15.1°C 50.5°F10.3°C 73% 0.7 mph S1.1 kmh S 2.0 mph3.2 kmh 29.95 in1014.2 mb 0.00 in0.0 mm 0.00 in0.0 mm 0.01 in0.3 mm
04:35 PM 59.1°F15.1°C 50.5°F10.3°C 73% 0.6 mph S1.0 kmh S 1.0 mph1.6 kmh 29.95 in1014.2 mb 0.00 in0.0 mm 0.00 in0.0 mm 0.01 in0.3 mm
04:36 PM 59.1°F15.1°C 50.5°F10.3°C 73% 0.9 mph S1.4 kmh S 1.0 mph1.6 kmh 29.95 in1014.2 mb 0.00 in0.0 mm 0.00 in0.0 mm 0.01 in0.3 mm
04:37 PM 59.2°F15.1°C 50.2°F10.1°C 72% 0.7 mph S1.1 kmh S 1.0 mph1.6 kmh 29.95 in1014.2 mb 0.00 in0.0 mm 0.00 in0.0 mm 0.01 in0.3 mm
04:38 PM 59.2°F15.1°C 50.5°F10.3°C 73% 0.8 mph S1.3 kmh S 1.0 mph1.6 kmh 29.95 in1014.2 mb 0.00 in0.0 mm 0.00 in0.0 mm 0.01 in0.3 mm
04:39 PM 59.2°F15.1°C 50.2°F10.1°C 72% 1.2 mph S1.9 kmh S 2.0 mph3.2 kmh 29.95 in1014.2 mb 0.00 in0.0 mm 0.00 in0.0 mm 0.01 in0.3 mm
04:40 PM 59.2°F15.1°C 50.5°F10.3°C 73% 1.4 mph S2.3 kmh S 2.0 mph3.2 kmh 29.95 in1014.2 mb 0.00 in0.0 mm 0.00 in0.0 mm 0.01 in0.3 mm
04:41 PM 59.3°F15.2°C 50.6°F10.3°C 73% 1.3 mph S2.1 kmh S 2.0 mph3.2 kmh 29.95 in1014.2 mb 0.00 in0.0 mm 0.00 in0.0 mm 0.01 in0.3 mm
04:42 PM 59.3°F15.2°C 50.6°F10.3°C 73% 1.2 mph S1.9 kmh S 2.0 mph3.2 kmh 29.95 in1014.2 mb 0.00 in0.0 mm 0.00 in0.0 mm 0.01 in0.3 mm
04:43 PM 59.3°F15.2°C 50.6°F10.3°C 73% 1.2 mph S1.9 kmh S 2.0 mph3.2 kmh 29.95 in1014.2 mb 0.00 in0.0 mm 0.00 in0.0 mm 0.01 in0.3 mm
04:44 PM 59.3°F15.2°C 50.6°F10.3°C 73% 1.5 mph S2.4 kmh S 2.0 mph3.2 kmh 29.95 in1014.2 mb 0.00 in0.0 mm 0.00 in0.0 mm 0.01 in0.3 mm
04:45 PM 59.4°F15.2°C 50.4°F10.2°C 72% 1.1 mph S1.8 kmh S 2.0 mph3.2 kmh 29.95 in1014.2 mb 0.00 in0.0 mm 0.00 in0.0 mm 0.01 in0.3 mm
04:46 PM 59.4°F15.2°C 51.1°F10.6°C 74% 0.9 mph S1.4 kmh S 2.0 mph3.2 kmh 29.95 in1014.2 mb 0.00 in0.0 mm 0.00 in0.0 mm 0.01 in0.3 mm
04:47 PM 59.4°F15.2°C 51.1°F10.6°C 74% 1.1 mph S1.8 kmh S 2.0 mph3.2 kmh 29.95 in1014.2 mb 0.00 in0.0 mm 0.00 in0.0 mm 0.01 in0.3 mm
04:48 PM 59.4°F15.2°C 50.7°F10.4°C 73% 0.8 mph S1.3 kmh S 2.0 mph3.2 kmh 29.95 in1014.2 mb 0.00 in0.0 mm 0.00 in0.0 mm 0.01 in0.3 mm
04:49 PM 59.4°F15.2°C 50.7°F10.4°C 73% 1.2 mph S1.9 kmh S 2.0 mph3.2 kmh 29.95 in1014.2 mb 0.00 in0.0 mm 0.00 in0.0 mm 0.01 in0.3 mm
04:50 PM 59.4°F15.2°C 50.0°F10.0°C 71% 1.3 mph S2.1 kmh S 2.0 mph3.2 kmh 29.95 in1014.2 mb 0.00 in0.0 mm 0.00 in0.0 mm 0.01 in0.3 mm
04:51 PM 59.4°F15.2°C 50.4°F10.2°C 72% 1.5 mph S2.4 kmh S 2.0 mph3.2 kmh 29.95 in1014.2 mb 0.00 in0.0 mm 0.00 in0.0 mm 0.01 in0.3 mm
04:52 PM 59.4°F15.2°C 50.4°F10.2°C 72% 1.5 mph S2.4 kmh S 2.0 mph3.2 kmh 29.95 in1014.2 mb 0.00 in0.0 mm 0.00 in0.0 mm 0.01 in0.3 mm
04:53 PM 59.3°F15.2°C 50.3°F10.2°C 72% 1.1 mph S1.8 kmh S 2.0 mph3.2 kmh 29.95 in1014.2 mb 0.00 in0.0 mm 0.00 in0.0 mm 0.01 in0.3 mm
04:54 PM 59.4°F15.2°C 50.4°F10.2°C 72% 1.3 mph S2.1 kmh S 2.0 mph3.2 kmh 29.95 in1014.2 mb 0.00 in0.0 mm 0.00 in0.0 mm 0.01 in0.3 mm
04:55 PM 59.3°F15.2°C 50.6°F10.3°C 73% 1.0 mph S1.6 kmh S 2.0 mph3.2 kmh 29.95 in1014.2 mb 0.00 in0.0 mm 0.00 in0.0 mm 0.01 in0.3 mm
04:56 PM 59.3°F15.2°C 50.3°F10.2°C 72% 1.0 mph S1.6 kmh S 2.0 mph3.2 kmh 29.95 in1014.2 mb 0.00 in0.0 mm 0.00 in0.0 mm 0.01 in0.3 mm
04:57 PM 59.3°F15.2°C 50.3°F10.2°C 72% 0.9 mph S1.4 kmh S 2.0 mph3.2 kmh 29.95 in1014.2 mb 0.00 in0.0 mm 0.00 in0.0 mm 0.01 in0.3 mm
04:58 PM 59.3°F15.2°C 50.3°F10.2°C 72% 1.2 mph S1.9 kmh S 2.0 mph3.2 kmh 29.95 in1014.2 mb 0.00 in0.0 mm 0.00 in0.0 mm 0.01 in0.3 mm
04:59 PM 59.3°F15.2°C 50.3°F10.2°C 72% 1.3 mph S2.1 kmh S 2.0 mph3.2 kmh 29.95 in1014.2 mb 0.00 in0.0 mm 0.00 in0.0 mm 0.01 in0.3 mm
05:00 PM 59.3°F15.2°C 50.3°F10.2°C 72% 1.3 mph S2.1 kmh S 2.0 mph3.2 kmh 29.95 in1014.2 mb 0.00 in0.0 mm 0.00 in0.0 mm 0.01 in0.3 mm
05:01 PM 59.2°F15.1°C 50.2°F10.1°C 72% 1.7 mph S2.7 kmh S 2.0 mph3.2 kmh 29.95 in1014.2 mb 0.00 in0.0 mm 0.00 in0.0 mm 0.01 in0.3 mm
05:02 PM 59.2°F15.1°C 50.2°F10.1°C 72% 1.0 mph S1.6 kmh S 2.0 mph3.2 kmh 29.95 in1014.2 mb 0.00 in0.0 mm 0.00 in0.0 mm 0.01 in0.3 mm
05:03 PM 59.2°F15.1°C 50.2°F10.1°C 72% 2.0 mph S3.2 kmh S 3.0 mph4.8 kmh 29.95 in1014.2 mb 0.00 in0.0 mm 0.00 in0.0 mm 0.01 in0.3 mm
05:04 PM 59.2°F15.1°C 50.2°F10.1°C 72% 1.6 mph S2.6 kmh S 2.0 mph3.2 kmh 29.95 in1014.2 mb 0.00 in0.0 mm 0.00 in0.0 mm 0.01 in0.3 mm
05:05 PM 59.1°F15.1°C 50.1°F10.1°C 72% 1.5 mph S2.4 kmh S 2.0 mph3.2 kmh 29.95 in1014.2 mb 0.00 in0.0 mm 0.00 in0.0 mm 0.01 in0.3 mm
05:06 PM 59.1°F15.1°C 50.5°F10.3°C 73% 1.5 mph S2.4 kmh S 2.0 mph3.2 kmh 29.95 in1014.2 mb 0.00 in0.0 mm 0.00 in0.0 mm 0.01 in0.3 mm
05:07 PM 59.1°F15.1°C 50.1°F10.1°C 72% 1.7 mph S2.7 kmh S 2.0 mph3.2 kmh 29.95 in1014.2 mb 0.00 in0.0 mm 0.00 in0.0 mm 0.01 in0.3 mm
05:08 PM 59.1°F15.1°C 50.5°F10.3°C 73% 1.9 mph S3.1 kmh S 3.0 mph4.8 kmh 29.95 in1014.2 mb 0.00 in0.0 mm 0.00 in0.0 mm 0.01 in0.3 mm
05:09 PM 59.1°F15.1°C 50.5°F10.3°C 73% 2.1 mph S3.4 kmh S 3.0 mph4.8 kmh 29.95 in1014.2 mb 0.00 in0.0 mm 0.00 in0.0 mm 0.01 in0.3 mm
05:10 PM 59.1°F15.1°C 50.1°F10.1°C 72% 1.8 mph S2.9 kmh S 3.0 mph4.8 kmh 29.95 in1014.2 mb 0.00 in0.0 mm 0.00 in0.0 mm 0.01 in0.3 mm
05:11 PM 59.0°F15.0°C 50.4°F10.2°C 73% 1.3 mph S2.1 kmh S 2.0 mph3.2 kmh 29.95 in1014.2 mb 0.00 in0.0 mm 0.00 in0.0 mm 0.01 in0.3 mm
05:12 PM 59.1°F15.1°C 50.5°F10.3°C 73% 1.3 mph S2.1 kmh S 2.0 mph3.2 kmh 29.95 in1014.2 mb 0.00 in0.0 mm 0.00 in0.0 mm 0.01 in0.3 mm
05:13 PM 59.0°F15.0°C 50.4°F10.2°C 73% 1.4 mph S2.3 kmh S 2.0 mph3.2 kmh 29.95 in1014.2 mb 0.00 in0.0 mm 0.00 in0.0 mm 0.01 in0.3 mm
05:14 PM 59.0°F15.0°C 50.4°F10.2°C 73% 1.3 mph S2.1 kmh S 2.0 mph3.2 kmh 29.95 in1014.2 mb 0.00 in0.0 mm 0.00 in0.0 mm 0.01 in0.3 mm
05:15 PM 59.0°F15.0°C 50.4°F10.2°C 73% 1.2 mph S1.9 kmh S 2.0 mph3.2 kmh 29.95 in1014.2 mb 0.00 in0.0 mm 0.00 in0.0 mm 0.01 in0.3 mm
05:16 PM 58.9°F14.9°C 50.6°F10.3°C 74% 1.4 mph S2.3 kmh S 3.0 mph4.8 kmh 29.95 in1014.2 mb 0.00 in0.0 mm 0.00 in0.0 mm 0.01 in0.3 mm
05:17 PM 59.0°F15.0°C 50.7°F10.4°C 74% 2.5 mph S4.0 kmh S 3.0 mph4.8 kmh 29.95 in1014.2 mb 0.00 in0.0 mm 0.00 in0.0 mm 0.01 in0.3 mm
05:18 PM 58.9°F14.9°C 50.6°F10.3°C 74% 1.8 mph S2.9 kmh S 3.0 mph4.8 kmh 29.95 in1014.2 mb 0.00 in0.0 mm 0.00 in0.0 mm 0.01 in0.3 mm
05:19 PM 58.9°F14.9°C 51.0°F10.6°C 75% 2.0 mph S3.2 kmh S 3.0 mph4.8 kmh 29.95 in1014.2 mb 0.00 in0.0 mm 0.00 in0.0 mm 0.01 in0.3 mm
05:20 PM 58.9°F14.9°C 50.6°F10.3°C 74% 1.5 mph S2.4 kmh S 3.0 mph4.8 kmh 29.96 in1014.6 mb 0.00 in0.0 mm 0.00 in0.0 mm 0.01 in0.3 mm
05:21 PM 59.0°F15.0°C 50.7°F10.4°C 74% 1.5 mph S2.4 kmh S 2.0 mph3.2 kmh 29.96 in1014.6 mb 0.00 in0.0 mm 0.00 in0.0 mm 0.01 in0.3 mm
05:22 PM 59.1°F15.1°C 50.8°F10.4°C 74% 1.4 mph S2.3 kmh S 2.0 mph3.2 kmh 29.96 in1014.6 mb 0.00 in0.0 mm 0.00 in0.0 mm 0.01 in0.3 mm
05:23 PM 59.1°F15.1°C 51.2°F10.7°C 75% 1.6 mph S2.6 kmh S 2.0 mph3.2 kmh 29.96 in1014.6 mb 0.00 in0.0 mm 0.00 in0.0 mm 0.01 in0.3 mm
05:24 PM 59.1°F15.1°C 51.2°F10.7°C 75% 2.2 mph S3.5 kmh S 3.0 mph4.8 kmh 29.95 in1014.2 mb 0.00 in0.0 mm 0.00 in0.0 mm 0.01 in0.3 mm
05:25 PM 59.2°F15.1°C 50.9°F10.5°C 74% 2.3 mph S3.7 kmh S 3.0 mph4.8 kmh 29.95 in1014.2 mb 0.00 in0.0 mm 0.00 in0.0 mm 0.01 in0.3 mm
05:26 PM 59.1°F15.1°C 50.8°F10.4°C 74% 2.0 mph S3.2 kmh S 3.0 mph4.8 kmh 29.96 in1014.6 mb 0.00 in0.0 mm 0.00 in0.0 mm 0.01 in0.3 mm
05:27 PM 59.2°F15.1°C 50.9°F10.5°C 74% 2.5 mph SSW4.0 kmh SSW 3.0 mph4.8 kmh 29.95 in1014.2 mb 0.00 in0.0 mm 0.00 in0.0 mm 0.01 in0.3 mm
05:28 PM 59.2°F15.1°C 50.9°F10.5°C 74% 2.3 mph SSW3.7 kmh SSW 3.0 mph4.8 kmh 29.95 in1014.2 mb 0.00 in0.0 mm 0.00 in0.0 mm 0.01 in0.3 mm
05:29 PM 59.2°F15.1°C 50.9°F10.5°C 74% 2.6 mph SSW4.2 kmh SSW 3.0 mph4.8 kmh 29.96 in1014.6 mb 0.00 in0.0 mm 0.00 in0.0 mm 0.01 in0.3 mm
05:30 PM 59.2°F15.1°C 50.9°F10.5°C 74% 3.2 mph SSW5.1 kmh SSW 4.0 mph6.4 kmh 29.96 in1014.6 mb 0.00 in0.0 mm 0.00 in0.0 mm 0.01 in0.3 mm
05:31 PM 59.1°F15.1°C 50.8°F10.4°C 74% 3.3 mph SW5.3 kmh SW 4.0 mph6.4 kmh 29.96 in1014.6 mb 0.00 in0.0 mm 0.00 in0.0 mm 0.01 in0.3 mm
05:32 PM 59.2°F15.1°C 50.9°F10.5°C 74% 3.0 mph SW4.8 kmh SW 4.0 mph6.4 kmh 29.95 in1014.2 mb 0.00 in0.0 mm 0.00 in0.0 mm 0.01 in0.3 mm
05:33 PM 59.1°F15.1°C 50.8°F10.4°C 74% 3.7 mph SSW6.0 kmh SSW 5.0 mph8.0 kmh 29.95 in1014.2 mb 0.00 in0.0 mm 0.00 in0.0 mm 0.01 in0.3 mm
05:34 PM 59.1°F15.1°C 51.2°F10.7°C 75% 2.7 mph SSW4.3 kmh SSW 5.0 mph8.0 kmh 29.95 in1014.2 mb 0.00 in0.0 mm 0.00 in0.0 mm 0.01 in0.3 mm
05:35 PM 59.1°F15.1°C 51.5°F10.8°C 76% 3.3 mph S5.3 kmh S 5.0 mph8.0 kmh 29.96 in1014.6 mb 0.00 in0.0 mm 0.00 in0.0 mm 0.01 in0.3 mm
05:36 PM 59.0°F15.0°C 51.8°F11.0°C 77% 3.4 mph SSW5.5 kmh SSW 5.0 mph8.0 kmh 29.96 in1014.6 mb 0.00 in0.0 mm 0.00 in0.0 mm 0.01 in0.3 mm
05:37 PM 59.0°F15.0°C 52.1°F11.2°C 78% 3.4 mph SSW5.5 kmh SSW 5.0 mph8.0 kmh 29.96 in1014.6 mb 0.00 in0.0 mm 0.00 in0.0 mm 0.01 in0.3 mm
05:38 PM 59.0°F15.0°C 52.1°F11.2°C 78% 4.0 mph SW6.4 kmh SW 5.0 mph8.0 kmh 29.96 in1014.6 mb 0.00 in0.0 mm 0.00 in0.0 mm 0.01 in0.3 mm
05:39 PM 58.9°F14.9°C 52.4°F11.3°C 79% 3.5 mph SSW5.6 kmh SSW 5.0 mph8.0 kmh 29.96 in1014.6 mb 0.00 in0.0 mm 0.00 in0.0 mm 0.01 in0.3 mm
05:40 PM 58.9°F14.9°C 52.4°F11.3°C 79% 3.8 mph SW6.1 kmh SW 5.0 mph8.0 kmh 29.96 in1014.6 mb 0.00 in0.0 mm 0.00 in0.0 mm 0.01 in0.3 mm
05:41 PM 58.9°F14.9°C 52.7°F11.5°C 80% 3.1 mph SW5.0 kmh SW 5.0 mph8.0 kmh 29.96 in1014.6 mb 0.00 in0.0 mm 0.00 in0.0 mm 0.01 in0.3 mm
05:42 PM 58.7°F14.8°C 52.5°F11.4°C 80% 3.7 mph SSW6.0 kmh SSW 5.0 mph8.0 kmh 29.96 in1014.6 mb 0.00 in0.0 mm 0.00 in0.0 mm 0.01 in0.3 mm
05:43 PM 58.8°F14.9°C 52.6°F11.4°C 80% 3.6 mph SW5.8 kmh SW 5.0 mph8.0 kmh 29.96 in1014.6 mb 0.00 in0.0 mm 0.00 in0.0 mm 0.01 in0.3 mm
05:44 PM 58.7°F14.8°C 52.5°F11.4°C 80% 3.4 mph SW5.5 kmh SW 5.0 mph8.0 kmh 29.96 in1014.6 mb 0.00 in0.0 mm 0.00 in0.0 mm 0.01 in0.3 mm
05:45 PM 58.7°F14.8°C 52.5°F11.4°C 80% 3.2 mph SW5.1 kmh SW 5.0 mph8.0 kmh 29.96 in1014.6 mb 0.00 in0.0 mm 0.00 in0.0 mm 0.01 in0.3 mm
05:46 PM 58.6°F14.8°C 52.4°F11.3°C 80% 3.3 mph SW5.3 kmh SW 5.0 mph8.0 kmh 29.96 in1014.6 mb 0.00 in0.0 mm 0.00 in0.0 mm 0.01 in0.3 mm
05:47 PM 58.6°F14.8°C 52.8°F11.6°C 81% 3.0 mph SSW4.8 kmh SSW 5.0 mph8.0 kmh 29.96 in1014.6 mb 0.00 in0.0 mm 0.00 in0.0 mm 0.01 in0.3 mm
05:48 PM 58.6°F14.8°C 52.8°F11.6°C 81% 3.0 mph SSW4.8 kmh SSW 4.0 mph6.4 kmh 29.96 in1014.6 mb 0.00 in0.0 mm 0.00 in0.0 mm 0.01 in0.3 mm
05:49 PM 58.6°F14.8°C 52.8°F11.6°C 81% 3.2 mph SSW5.1 kmh SSW 4.0 mph6.4 kmh 29.96 in1014.6 mb 0.00 in0.0 mm 0.00 in0.0 mm 0.01 in0.3 mm
05:50 PM 58.5°F14.7°C 52.7°F11.5°C 81% 3.5 mph SSW5.6 kmh SSW 4.0 mph6.4 kmh 29.96 in1014.6 mb 0.00 in0.0 mm 0.00 in0.0 mm 0.01 in0.3 mm
05:51 PM 58.5°F14.7°C 52.7°F11.5°C 81% 4.2 mph SSW6.8 kmh SSW 6.0 mph9.7 kmh 29.96 in1014.6 mb 0.00 in0.0 mm 0.00 in0.0 mm 0.01 in0.3 mm
05:52 PM 58.4°F14.7°C 52.9°F11.6°C 82% 4.0 mph SSW6.4 kmh SSW 6.0 mph9.7 kmh 29.96 in1014.6 mb 0.00 in0.0 mm 0.00 in0.0 mm 0.01 in0.3 mm
05:53 PM 58.3°F14.6°C 52.8°F11.6°C 82% 3.7 mph SSW6.0 kmh SSW 5.0 mph8.0 kmh 29.96 in1014.6 mb 0.00 in0.0 mm 0.00 in0.0 mm 0.01 in0.3 mm
05:54 PM 58.3°F14.6°C 52.8°F11.6°C 82% 4.5 mph SW7.2 kmh SW 6.0 mph9.7 kmh 29.96 in1014.6 mb 0.00 in0.0 mm 0.00 in0.0 mm 0.01 in0.3 mm
05:55 PM 58.3°F14.6°C 52.8°F11.6°C 82% 4.2 mph SSW6.8 kmh SSW 6.0 mph9.7 kmh 29.96 in1014.6 mb 0.00 in0.0 mm 0.00 in0.0 mm 0.01 in0.3 mm
05:56 PM 58.2°F14.6°C 52.7°F11.5°C 82% 4.0 mph SSW6.4 kmh SSW 5.0 mph8.0 kmh 29.96 in1014.6 mb 0.00 in0.0 mm 0.00 in0.0 mm 0.01 in0.3 mm
05:57 PM 58.2°F14.6°C 53.1°F11.7°C 83% 4.0 mph SSW6.4 kmh SSW 5.0 mph8.0 kmh 29.96 in1014.6 mb 0.00 in0.0 mm 0.00 in0.0 mm 0.01 in0.3 mm
05:58 PM 58.2°F14.6°C 53.1°F11.7°C 83% 4.0 mph SSW6.4 kmh SSW 5.0 mph8.0 kmh 29.96 in1014.6 mb 0.00 in0.0 mm 0.00 in0.0 mm 0.01 in0.3 mm
05:59 PM 58.2°F14.6°C 53.1°F11.7°C 83% 4.2 mph SSW6.8 kmh SSW 5.0 mph8.0 kmh 29.96 in1014.6 mb 0.00 in0.0 mm 0.00 in0.0 mm 0.01 in0.3 mm
06:00 PM 58.1°F14.5°C 53.0°F11.7°C 83% 3.7 mph SSW6.0 kmh SSW 5.0 mph8.0 kmh 29.96 in1014.6 mb 0.00 in0.0 mm 0.00 in0.0 mm 0.01 in0.3 mm
06:01 PM 58.2°F14.6°C 53.4°F11.9°C 84% 4.1 mph SSW6.6 kmh SSW 6.0 mph9.7 kmh 29.96 in1014.6 mb 0.00 in0.0 mm 0.00 in0.0 mm 0.01 in0.3 mm
06:02 PM 58.1°F14.5°C 53.3°F11.8°C 84% 3.5 mph SSW5.6 kmh SSW 6.0 mph9.7 kmh 29.96 in1014.6 mb 0.00 in0.0 mm 0.00 in0.0 mm 0.01 in0.3 mm
06:03 PM 58.1°F14.5°C 53.3°F11.8°C 84% 4.1 mph SSW6.6 kmh SSW 5.0 mph8.0 kmh 29.96 in1014.6 mb 0.00 in0.0 mm 0.00 in0.0 mm 0.01 in0.3 mm
06:04 PM 58.1°F14.5°C 53.3°F11.8°C 84% 3.2 mph SSW5.1 kmh SSW 5.0 mph8.0 kmh 29.96 in1014.6 mb 0.00 in0.0 mm 0.00 in0.0 mm 0.01 in0.3 mm
06:05 PM 58.0°F14.4°C 53.2°F11.8°C 84% 3.4 mph SSW5.5 kmh SSW 4.0 mph6.4 kmh 29.96 in1014.6 mb 0.00 in0.0 mm 0.00 in0.0 mm 0.01 in0.3 mm
06:06 PM 58.0°F14.4°C 53.2°F11.8°C 84% 4.7 mph SSW7.6 kmh SSW 5.0 mph8.0 kmh 29.96 in1014.6 mb 0.00 in0.0 mm 0.00 in0.0 mm 0.01 in0.3 mm
06:07 PM 58.0°F14.4°C 53.5°F11.9°C 85% 3.0 mph SSW4.8 kmh SSW 5.0 mph8.0 kmh 29.96 in1014.6 mb 0.00 in0.0 mm 0.00 in0.0 mm 0.01 in0.3 mm
06:08 PM 58.0°F14.4°C 53.5°F11.9°C 85% 3.6 mph SW5.8 kmh SW 6.0 mph9.7 kmh 29.96 in1014.6 mb 0.00 in0.0 mm 0.00 in0.0 mm 0.01 in0.3 mm
06:09 PM 58.1°F14.5°C 53.6°F12.0°C 85% 4.7 mph WSW7.6 kmh WSW 6.0 mph9.7 kmh 29.96 in1014.6 mb 0.00 in0.0 mm 0.00 in0.0 mm 0.01 in0.3 mm
06:10 PM 57.9°F14.4°C 53.4°F11.9°C 85% 4.6 mph W7.4 kmh W 7.0 mph11.3 kmh 29.96 in1014.6 mb 0.00 in0.0 mm 0.00 in0.0 mm 0.01 in0.3 mm
06:11 PM 58.0°F14.4°C 53.2°F11.8°C 84% 5.4 mph W8.7 kmh W 7.0 mph11.3 kmh 29.96 in1014.6 mb 0.00 in0.0 mm 0.00 in0.0 mm 0.01 in0.3 mm
06:12 PM 58.0°F14.4°C 53.2°F11.8°C 84% 5.6 mph WSW9.0 kmh WSW 7.0 mph11.3 kmh 29.96 in1014.6 mb 0.00 in0.0 mm 0.00 in0.0 mm 0.01 in0.3 mm
06:13 PM 58.1°F14.5°C 53.3°F11.8°C 84% 6.3 mph W10.1 kmh W 8.0 mph12.9 kmh 29.96 in1014.6 mb 0.00 in0.0 mm 0.00 in0.0 mm 0.01 in0.3 mm
06:14 PM 58.1°F14.5°C 53.0°F11.7°C 83% 6.5 mph W10.5 kmh W 8.0 mph12.9 kmh 29.96 in1014.6 mb 0.00 in0.0 mm 0.00 in0.0 mm 0.01 in0.3 mm
06:15 PM 58.1°F14.5°C 53.3°F11.8°C 84% 4.6 mph W7.4 kmh W 7.0 mph11.3 kmh 29.96 in1014.6 mb 0.00 in0.0 mm 0.00 in0.0 mm 0.01 in0.3 mm
06:16 PM 58.1°F14.5°C 53.3°F11.8°C 84% 5.0 mph W8.0 kmh W 6.0 mph9.7 kmh 29.96 in1014.6 mb 0.00 in0.0 mm 0.00 in0.0 mm 0.01 in0.3 mm
06:17 PM 58.1°F14.5°C 53.3°F11.8°C 84% 5.0 mph W8.0 kmh W 6.0 mph9.7 kmh 29.96 in1014.6 mb 0.00 in0.0 mm 0.00 in0.0 mm 0.01 in0.3 mm
06:18 PM 58.1°F14.5°C 53.3°F11.8°C 84% 5.8 mph W9.3 kmh W 6.0 mph9.7 kmh 29.96 in1014.6 mb 0.00 in0.0 mm 0.00 in0.0 mm 0.01 in0.3 mm
06:19 PM 58.1°F14.5°C 53.3°F11.8°C 84% 5.8 mph W9.3 kmh W 7.0 mph11.3 kmh 29.97 in1014.9 mb 0.00 in0.0 mm 0.00 in0.0 mm 0.01 in0.3 mm
06:20 PM 58.0°F14.4°C 53.2°F11.8°C 84% 4.4 mph W7.1 kmh W 7.0 mph11.3 kmh 29.96 in1014.6 mb 0.00 in0.0 mm 0.00 in0.0 mm 0.01 in0.3 mm
06:21 PM 58.0°F14.4°C 53.5°F11.9°C 85% 3.0 mph W4.8 kmh W 7.0 mph11.3 kmh 29.96 in1014.6 mb 0.00 in0.0 mm 0.00 in0.0 mm 0.01 in0.3 mm
06:22 PM 58.0°F14.4°C 53.5°F11.9°C 85% 4.4 mph W7.1 kmh W 7.0 mph11.3 kmh 29.97 in1014.9 mb 0.00 in0.0 mm 0.00 in0.0 mm 0.01 in0.3 mm
06:23 PM 58.0°F14.4°C 53.2°F11.8°C 84% 5.2 mph WSW8.4 kmh WSW 7.0 mph11.3 kmh 29.96 in1014.6 mb 0.00 in0.0 mm 0.00 in0.0 mm 0.01 in0.3 mm
06:24 PM 58.0°F14.4°C 53.2°F11.8°C 84% 4.9 mph WSW7.9 kmh WSW 7.0 mph11.3 kmh 29.97 in1014.9 mb 0.00 in0.0 mm 0.00 in0.0 mm 0.01 in0.3 mm
06:25 PM 58.0°F14.4°C 53.2°F11.8°C 84% 3.9 mph WSW6.3 kmh WSW 6.0 mph9.7 kmh 29.97 in1014.9 mb 0.00 in0.0 mm 0.00 in0.0 mm 0.01 in0.3 mm
06:26 PM 57.9°F14.4°C 53.4°F11.9°C 85% 5.7 mph WSW9.2 kmh WSW 7.0 mph11.3 kmh 29.97 in1014.9 mb 0.00 in0.0 mm 0.00 in0.0 mm 0.01 in0.3 mm
06:27 PM 57.9°F14.4°C 53.1°F11.7°C 84% 4.2 mph WSW6.8 kmh WSW 7.0 mph11.3 kmh 29.97 in1014.9 mb 0.00 in0.0 mm 0.00 in0.0 mm 0.01 in0.3 mm
06:28 PM 57.9°F14.4°C 53.1°F11.7°C 84% 5.1 mph WSW8.2 kmh WSW 7.0 mph11.3 kmh 29.97 in1014.9 mb 0.00 in0.0 mm 0.00 in0.0 mm 0.01 in0.3 mm
06:29 PM 57.9°F14.4°C 53.4°F11.9°C 85% 5.8 mph WSW9.3 kmh WSW 7.0 mph11.3 kmh 29.97 in1014.9 mb 0.00 in0.0 mm 0.00 in0.0 mm 0.01 in0.3 mm
06:30 PM 57.8°F14.3°C 53.3°F11.8°C 85% 5.5 mph WSW8.9 kmh WSW 7.0 mph11.3 kmh 29.97 in1014.9 mb 0.00 in0.0 mm 0.00 in0.0 mm 0.01 in0.3 mm
06:31 PM 57.8°F14.3°C 53.3°F11.8°C 85% 5.8 mph WSW9.3 kmh WSW 7.0 mph11.3 kmh 29.97 in1014.9 mb 0.00 in0.0 mm 0.00 in0.0 mm 0.01 in0.3 mm
06:32 PM 57.9°F14.4°C 53.4°F11.9°C 85% 4.6 mph WSW7.4 kmh WSW 7.0 mph11.3 kmh 29.97 in1014.9 mb 0.00 in0.0 mm 0.00 in0.0 mm 0.01 in0.3 mm
06:33 PM 57.8°F14.3°C 53.3°F11.8°C 85% 3.4 mph WSW5.5 kmh WSW 6.0 mph9.7 kmh 29.97 in1014.9 mb 0.00 in0.0 mm 0.00 in0.0 mm 0.01 in0.3 mm
06:34 PM 57.8°F14.3°C 53.6°F12.0°C 86% 4.1 mph WSW6.6 kmh WSW 5.0 mph8.0 kmh 29.97 in1014.9 mb 0.00 in0.0 mm 0.00 in0.0 mm 0.01 in0.3 mm
06:35 PM 57.8°F14.3°C 53.6°F12.0°C 86% 3.9 mph WSW6.3 kmh WSW 5.0 mph8.0 kmh 29.97 in1014.9 mb 0.00 in0.0 mm 0.00 in0.0 mm 0.01 in0.3 mm
06:36 PM 57.8°F14.3°C 53.6°F12.0°C 86% 4.6 mph WSW7.4 kmh WSW 5.0 mph8.0 kmh 29.96 in1014.6 mb 0.00 in0.0 mm 0.00 in0.0 mm 0.01 in0.3 mm
06:37 PM 57.9°F14.4°C 53.7°F12.1°C 86% 5.2 mph SW8.4 kmh SW 7.0 mph11.3 kmh 29.97 in1014.9 mb 0.00 in0.0 mm 0.00 in0.0 mm 0.01 in0.3 mm
06:38 PM 57.9°F14.4°C 53.7°F12.1°C 86% 6.0 mph WSW9.7 kmh WSW 8.0 mph12.9 kmh 29.97 in1014.9 mb 0.00 in0.0 mm 0.00 in0.0 mm 0.01 in0.3 mm
06:39 PM 57.8°F14.3°C 53.6°F12.0°C 86% 7.4 mph SW11.9 kmh SW 10.0 mph16.1 kmh 29.97 in1014.9 mb 0.00 in0.0 mm 0.00 in0.0 mm 0.01 in0.3 mm
06:40 PM 57.7°F14.3°C 53.2°F11.8°C 85% 7.0 mph WSW11.3 kmh WSW 9.0 mph14.5 kmh 29.97 in1014.9 mb 0.00 in0.0 mm 0.00 in0.0 mm 0.01 in0.3 mm
06:41 PM 57.6°F14.2°C 53.1°F11.7°C 85% 7.0 mph SW11.3 kmh SW 9.0 mph14.5 kmh 29.97 in1014.9 mb 0.00 in0.0 mm 0.00 in0.0 mm 0.01 in0.3 mm
06:42 PM 57.5°F14.2°C 53.0°F11.7°C 85% 8.0 mph SW12.9 kmh SW 8.0 mph12.9 kmh 29.97 in1014.9 mb 0.00 in0.0 mm 0.00 in0.0 mm 0.01 in0.3 mm
06:43 PM 57.5°F14.2°C 53.0°F11.7°C 85% 6.8 mph SW10.9 kmh SW 9.0 mph14.5 kmh 29.97 in1014.9 mb 0.00 in0.0 mm 0.00 in0.0 mm 0.01 in0.3 mm
06:44 PM 57.5°F14.2°C 53.3°F11.8°C 86% 7.5 mph SW12.1 kmh SW 10.0 mph16.1 kmh 29.97 in1014.9 mb 0.00 in0.0 mm 0.00 in0.0 mm 0.01 in0.3 mm
06:45 PM 57.4°F14.1°C 53.6°F12.0°C 87% 6.0 mph SW9.7 kmh SW 10.0 mph16.1 kmh 29.97 in1014.9 mb 0.00 in0.0 mm 0.00 in0.0 mm 0.01 in0.3 mm
06:46 PM 57.4°F14.1°C 53.9°F12.2°C 88% 4.2 mph SW6.8 kmh SW 7.0 mph11.3 kmh 29.97 in1014.9 mb 0.00 in0.0 mm 0.00 in0.0 mm 0.01 in0.3 mm
06:47 PM 57.3°F14.1°C 53.5°F11.9°C 87% 4.7 mph SW7.6 kmh SW 6.0 mph9.7 kmh 29.97 in1014.9 mb 0.00 in0.0 mm 0.00 in0.0 mm 0.01 in0.3 mm
06:48 PM 57.3°F14.1°C 53.5°F11.9°C 87% 3.5 mph SW5.6 kmh SW 6.0 mph9.7 kmh 29.97 in1014.9 mb 0.00 in0.0 mm 0.00 in0.0 mm 0.01 in0.3 mm
06:49 PM 57.2°F14.0°C 53.4°F11.9°C 87% 3.6 mph SW5.8 kmh SW 5.0 mph8.0 kmh 29.97 in1014.9 mb 0.00 in0.0 mm 0.00 in0.0 mm 0.01 in0.3 mm
06:50 PM 57.1°F13.9°C 53.0°F11.7°C 86% 4.1 mph SW6.6 kmh SW 5.0 mph8.0 kmh 29.97 in1014.9 mb 0.00 in0.0 mm 0.00 in0.0 mm 0.01 in0.3 mm
06:51 PM 57.1°F13.9°C 53.0°F11.7°C 86% 3.0 mph SW4.8 kmh SW 4.0 mph6.4 kmh 29.97 in1014.9 mb 0.00 in0.0 mm 0.00 in0.0 mm 0.01 in0.3 mm
06:52 PM 57.1°F13.9°C 53.0°F11.7°C 86% 4.0 mph SW6.4 kmh SW 5.0 mph8.0 kmh 29.97 in1014.9 mb 0.00 in0.0 mm 0.00 in0.0 mm 0.01 in0.3 mm
06:53 PM 57.1°F13.9°C 53.0°F11.7°C 86% 4.0 mph SW6.4 kmh SW 5.0 mph8.0 kmh 29.97 in1014.9 mb 0.00 in0.0 mm 0.00 in0.0 mm 0.01 in0.3 mm
06:54 PM 57.0°F13.9°C 52.9°F11.6°C 86% 4.0 mph SW6.4 kmh SW 5.0 mph8.0 kmh 29.97 in1014.9 mb 0.00 in0.0 mm 0.00 in0.0 mm 0.01 in0.3 mm
06:55 PM 57.1°F13.9°C 53.0°F11.7°C 86% 3.7 mph SW6.0 kmh SW 5.0 mph8.0 kmh 29.97 in1014.9 mb 0.00 in0.0 mm 0.00 in0.0 mm 0.01 in0.3 mm
06:56 PM 57.1°F13.9°C 53.3°F11.8°C 87% 3.8 mph SW6.1 kmh SW 5.0 mph8.0 kmh 29.97 in1014.9 mb 0.00 in0.0 mm 0.00 in0.0 mm 0.01 in0.3 mm
06:57 PM 57.1°F13.9°C 53.3°F11.8°C 87% 4.5 mph SW7.2 kmh SW 5.0 mph8.0 kmh 29.97 in1014.9 mb 0.00 in0.0 mm 0.00 in0.0 mm 0.01 in0.3 mm
06:58 PM 57.1°F13.9°C 53.6°F12.0°C 88% 3.9 mph SW6.3 kmh SW 5.0 mph8.0 kmh 29.97 in1014.9 mb 0.00 in0.0 mm 0.00 in0.0 mm 0.01 in0.3 mm
06:59 PM 57.1°F13.9°C 53.6°F12.0°C 88% 2.9 mph SW4.7 kmh SW 4.0 mph6.4 kmh 29.97 in1014.9 mb 0.00 in0.0 mm 0.00 in0.0 mm 0.01 in0.3 mm
07:00 PM 57.1°F13.9°C 53.6°F12.0°C 88% 3.2 mph SW5.1 kmh SW 4.0 mph6.4 kmh 29.97 in1014.9 mb 0.00 in0.0 mm 0.00 in0.0 mm 0.01 in0.3 mm
07:01 PM 57.1°F13.9°C 53.6°F12.0°C 88% 3.0 mph SW4.8 kmh SW 4.0 mph6.4 kmh 29.97 in1014.9 mb 0.00 in0.0 mm 0.00 in0.0 mm 0.01 in0.3 mm
07:02 PM 57.1°F13.9°C 53.6°F12.0°C 88% 2.0 mph SW3.2 kmh SW 4.0 mph6.4 kmh 29.97 in1014.9 mb 0.00 in0.0 mm 0.00 in0.0 mm 0.01 in0.3 mm
07:03 PM 57.0°F13.9°C 53.5°F11.9°C 88% 3.0 mph SW4.8 kmh SW 3.0 mph4.8 kmh 29.97 in1014.9 mb 0.00 in0.0 mm 0.00 in0.0 mm 0.01 in0.3 mm
07:04 PM 57.1°F13.9°C 53.6°F12.0°C 88% 3.1 mph SW5.0 kmh SW 4.0 mph6.4 kmh 29.97 in1014.9 mb 0.00 in0.0 mm 0.00 in0.0 mm 0.01 in0.3 mm
07:05 PM 57.1°F13.9°C 53.6°F12.0°C 88% 2.3 mph SW3.7 kmh SW 4.0 mph6.4 kmh 29.97 in1014.9 mb 0.00 in0.0 mm 0.00 in0.0 mm 0.01 in0.3 mm
07:06 PM 57.0°F13.9°C 53.5°F11.9°C 88% 3.3 mph SW5.3 kmh SW 4.0 mph6.4 kmh 29.97 in1014.9 mb 0.00 in0.0 mm 0.00 in0.0 mm 0.01 in0.3 mm
07:07 PM 57.0°F13.9°C 53.5°F11.9°C 88% 3.5 mph SW5.6 kmh SW 4.0 mph6.4 kmh 29.97 in1014.9 mb 0.00 in0.0 mm 0.00 in0.0 mm 0.01 in0.3 mm
07:08 PM 57.0°F13.9°C 53.5°F11.9°C 88% 2.9 mph SW4.7 kmh SW 4.0 mph6.4 kmh 29.97 in1014.9 mb 0.00 in0.0 mm 0.00 in0.0 mm 0.01 in0.3 mm
07:09 PM 57.0°F13.9°C 53.5°F11.9°C 88% 3.3 mph SW5.3 kmh SW 4.0 mph6.4 kmh 29.97 in1014.9 mb 0.00 in0.0 mm 0.00 in0.0 mm 0.01 in0.3 mm
07:10 PM 57.0°F13.9°C 53.5°F11.9°C 88% 3.1 mph SW5.0 kmh SW 4.0 mph6.4 kmh 29.97 in1014.9 mb 0.00 in0.0 mm 0.00 in0.0 mm 0.01 in0.3 mm
07:11 PM 57.0°F13.9°C 53.5°F11.9°C 88% 3.0 mph SW4.8 kmh SW 4.0 mph6.4 kmh 29.97 in1014.9 mb 0.00 in0.0 mm 0.00 in0.0 mm 0.01 in0.3 mm
07:12 PM 57.0°F13.9°C 53.5°F11.9°C 88% 3.6 mph SW5.8 kmh SW 4.0 mph6.4 kmh 29.97 in1014.9 mb 0.00 in0.0 mm 0.00 in0.0 mm 0.01 in0.3 mm
07:13 PM 57.0°F13.9°C 53.5°F11.9°C 88% 4.0 mph SW6.4 kmh SW 4.0 mph6.4 kmh 29.97 in1014.9 mb 0.00 in0.0 mm 0.00 in0.0 mm 0.01 in0.3 mm
07:14 PM 57.0°F13.9°C 53.5°F11.9°C 88% 3.0 mph SW4.8 kmh SW 3.0 mph4.8 kmh 29.97 in1014.9 mb 0.00 in0.0 mm 0.00 in0.0 mm 0.01 in0.3 mm
07:15 PM 57.0°F13.9°C 53.5°F11.9°C 88% 2.0 mph SW3.2 kmh SW 3.0 mph4.8 kmh 29.97 in1014.9 mb 0.00 in0.0 mm 0.00 in0.0 mm 0.01 in0.3 mm
07:16 PM 57.0°F13.9°C 53.5°F11.9°C 88% 2.2 mph SW3.5 kmh SW 3.0 mph4.8 kmh 29.97 in1014.9 mb 0.00 in0.0 mm 0.00 in0.0 mm 0.01 in0.3 mm
07:17 PM 57.0°F13.9°C 53.5°F11.9°C 88% 2.7 mph SW4.3 kmh SW 4.0 mph6.4 kmh 29.97 in1014.9 mb 0.00 in0.0 mm 0.00 in0.0 mm 0.01 in0.3 mm
07:18 PM 57.0°F13.9°C 53.5°F11.9°C 88% 2.7 mph SW4.3 kmh SW 4.0 mph6.4 kmh 29.97 in1014.9 mb 0.00 in0.0 mm 0.00 in0.0 mm 0.01 in0.3 mm
07:19 PM 56.9°F13.8°C 53.4°F11.9°C 88% 2.4 mph SW3.9 kmh SW 3.0 mph4.8 kmh 29.97 in1014.9 mb 0.00 in0.0 mm 0.00 in0.0 mm 0.01 in0.3 mm
07:20 PM 57.0°F13.9°C 53.5°F11.9°C 88% 2.3 mph SW3.7 kmh SW 3.0 mph4.8 kmh 29.97 in1014.9 mb 0.00 in0.0 mm 0.00 in0.0 mm 0.01 in0.3 mm
07:21 PM 57.0°F13.9°C 53.5°F11.9°C 88% 2.0 mph SW3.2 kmh SW 3.0 mph4.8 kmh 29.98 in1015.2 mb 0.00 in0.0 mm 0.00 in0.0 mm 0.01 in0.3 mm
07:22 PM 56.9°F13.8°C 53.4°F11.9°C 88% 2.4 mph SW3.9 kmh SW 3.0 mph4.8 kmh 29.98 in1015.2 mb 0.00 in0.0 mm 0.00 in0.0 mm 0.01 in0.3 mm
07:23 PM 57.0°F13.9°C 53.5°F11.9°C 88% 2.6 mph SW4.2 kmh SW 3.0 mph4.8 kmh 29.98 in1015.2 mb 0.00 in0.0 mm 0.00 in0.0 mm 0.01 in0.3 mm
07:24 PM 57.0°F13.9°C 53.8°F12.1°C 89% 2.6 mph SW4.2 kmh SW 3.0 mph4.8 kmh 29.98 in1015.2 mb 0.00 in0.0 mm 0.00 in0.0 mm 0.01 in0.3 mm
07:25 PM 57.0°F13.9°C 53.8°F12.1°C 89% 2.2 mph SW3.5 kmh SW 3.0 mph4.8 kmh 29.98 in1015.2 mb 0.00 in0.0 mm 0.00 in0.0 mm 0.01 in0.3 mm
07:26 PM 57.0°F13.9°C 53.8°F12.1°C 89% 2.5 mph SW4.0 kmh SW 3.0 mph4.8 kmh 29.98 in1015.2 mb 0.00 in0.0 mm 0.00 in0.0 mm 0.01 in0.3 mm
07:27 PM 57.0°F13.9°C 53.8°F12.1°C 89% 2.1 mph SW3.4 kmh SW 3.0 mph4.8 kmh 29.98 in1015.2 mb 0.00 in0.0 mm 0.00 in0.0 mm 0.01 in0.3 mm
07:28 PM 57.0°F13.9°C 53.8°F12.1°C 89% 2.5 mph SW4.0 kmh SW 3.0 mph4.8 kmh 29.98 in1015.2 mb 0.00 in0.0 mm 0.00 in0.0 mm 0.01 in0.3 mm
07:29 PM 56.9°F13.8°C 53.7°F12.1°C 89% 2.0 mph SW3.2 kmh SW 3.0 mph4.8 kmh 29.98 in1015.2 mb 0.00 in0.0 mm 0.00 in0.0 mm 0.01 in0.3 mm
07:30 PM 56.9°F13.8°C 53.7°F12.1°C 89% 2.0 mph SW3.2 kmh SW 3.0 mph4.8 kmh 29.98 in1015.2 mb 0.00 in0.0 mm 0.00 in0.0 mm 0.01 in0.3 mm
07:31 PM 56.9°F13.8°C 53.7°F12.1°C 89% 2.0 mph SW3.2 kmh SW 2.0 mph3.2 kmh 29.98 in1015.2 mb 0.00 in0.0 mm 0.00 in0.0 mm 0.01 in0.3 mm
07:32 PM 56.9°F13.8°C 53.7°F12.1°C 89% 2.4 mph SW3.9 kmh SW 3.0 mph4.8 kmh 29.98 in1015.2 mb 0.00 in0.0 mm 0.00 in0.0 mm 0.01 in0.3 mm
07:33 PM 56.9°F13.8°C 53.7°F12.1°C 89% 3.1 mph SW5.0 kmh SW 4.0 mph6.4 kmh 29.98 in1015.2 mb 0.00 in0.0 mm 0.00 in0.0 mm 0.01 in0.3 mm
07:34 PM 56.9°F13.8°C 53.7°F12.1°C 89% 3.8 mph SW6.1 kmh SW 4.0 mph6.4 kmh 29.98 in1015.2 mb 0.00 in0.0 mm 0.00 in0.0 mm 0.01 in0.3 mm
07:35 PM 57.0°F13.9°C 53.8°F12.1°C 89% 4.0 mph SW6.4 kmh SW 5.0 mph8.0 kmh 29.98 in1015.2 mb 0.00 in0.0 mm 0.00 in0.0 mm 0.01 in0.3 mm
07:36 PM 56.9°F13.8°C 53.7°F12.1°C 89% 4.0 mph SW6.4 kmh SW 5.0 mph8.0 kmh 29.98 in1015.2 mb 0.00 in0.0 mm 0.00 in0.0 mm